<?xml version="1.0" encoding="UTF-8" standalone="no" ?>
<gpx xmlns="http://www.topografix.com/GPX/1/1" xmlns:xsi="http://www.w3.org/2001/XMLSchema-instance" xsi:schemaLocation="http://www.topografix.com/GPX/1/1 http://www.topografix.com/GPX/1/1/gpx.xsd" version="1.1" creator="VisuGPX - https://www.visugpx.com">
  <metadata>
    <name>Le Cougoir en boucle par le Pas du Loup</name>
    <desc><![CDATA[Le Cougoir en boucle par le Pas du Loup au départ du gîte de Miélandre (Teyssières).
La description détaillée de cette rando se trouve sur le sit Camptocamp à l'adresse : https://www.camptocamp.org/routes/274603/fr/le-cougoir-en-circuit-depuis-mielandre-par-le-pas-du-loup
]]></desc>
  </metadata>
  <trk>
    <name><![CDATA[2017-04-30 15:11:32]]></name>
    <trkseg>
      <trkpt lat="44.45242" lon="5.15272">
        <ele>621.63</ele>
        <time>2017-04-30T07:03:29Z</time>
      </trkpt>
      <trkpt lat="44.45243" lon="5.15272">
        <ele>621.63</ele>
        <time>2017-04-30T07:03:46Z</time>
      </trkpt>
      <trkpt lat="44.45244" lon="5.15272">
        <ele>620.19</ele>
        <time>2017-04-30T07:04:28Z</time>
      </trkpt>
      <trkpt lat="44.45246" lon="5.15269">
        <ele>619.71</ele>
        <time>2017-04-30T07:05:05Z</time>
      </trkpt>
      <trkpt lat="44.45247" lon="5.1527">
        <ele>619.71</ele>
        <time>2017-04-30T07:05:23Z</time>
      </trkpt>
      <trkpt lat="44.45249" lon="5.15271">
        <ele>619.71</ele>
        <time>2017-04-30T07:05:43Z</time>
      </trkpt>
      <trkpt lat="44.4525" lon="5.15276">
        <ele>618.75</ele>
        <time>2017-04-30T07:05:52Z</time>
      </trkpt>
      <trkpt lat="44.45249" lon="5.15306">
        <ele>619.23</ele>
        <time>2017-04-30T07:06:10Z</time>
      </trkpt>
      <trkpt lat="44.45248" lon="5.15329">
        <ele>620.67</ele>
        <time>2017-04-30T07:06:24Z</time>
      </trkpt>
      <trkpt lat="44.4525" lon="5.15349">
        <ele>622.11</ele>
        <time>2017-04-30T07:06:36Z</time>
      </trkpt>
      <trkpt lat="44.45252" lon="5.15359">
        <ele>620.67</ele>
        <time>2017-04-30T07:06:42Z</time>
      </trkpt>
      <trkpt lat="44.45263" lon="5.15378">
        <ele>622.11</ele>
        <time>2017-04-30T07:06:55Z</time>
      </trkpt>
      <trkpt lat="44.45282" lon="5.15398">
        <ele>622.59</ele>
        <time>2017-04-30T07:07:13Z</time>
      </trkpt>
      <trkpt lat="44.45299" lon="5.15415">
        <ele>623.55</ele>
        <time>2017-04-30T07:07:28Z</time>
      </trkpt>
      <trkpt lat="44.45313" lon="5.1544">
        <ele>625.47</ele>
        <time>2017-04-30T07:07:45Z</time>
      </trkpt>
      <trkpt lat="44.45317" lon="5.1546">
        <ele>626.92</ele>
        <time>2017-04-30T07:07:59Z</time>
      </trkpt>
      <trkpt lat="44.4533" lon="5.15476">
        <ele>628.36</ele>
        <time>2017-04-30T07:08:15Z</time>
      </trkpt>
      <trkpt lat="44.45345" lon="5.15493">
        <ele>630.76</ele>
        <time>2017-04-30T07:08:31Z</time>
      </trkpt>
      <trkpt lat="44.45344" lon="5.15503">
        <ele>632.68</ele>
        <time>2017-04-30T07:08:40Z</time>
      </trkpt>
      <trkpt lat="44.45336" lon="5.15516">
        <ele>634.13</ele>
        <time>2017-04-30T07:08:52Z</time>
      </trkpt>
      <trkpt lat="44.4533" lon="5.1553">
        <ele>635.57</ele>
        <time>2017-04-30T07:09:04Z</time>
      </trkpt>
      <trkpt lat="44.45328" lon="5.15542">
        <ele>638.45</ele>
        <time>2017-04-30T07:09:14Z</time>
      </trkpt>
      <trkpt lat="44.45332" lon="5.1555">
        <ele>640.38</ele>
        <time>2017-04-30T07:09:23Z</time>
      </trkpt>
      <trkpt lat="44.45339" lon="5.15561">
        <ele>641.82</ele>
        <time>2017-04-30T07:09:32Z</time>
      </trkpt>
      <trkpt lat="44.45351" lon="5.15569">
        <ele>644.22</ele>
        <time>2017-04-30T07:09:47Z</time>
      </trkpt>
      <trkpt lat="44.45362" lon="5.15575">
        <ele>647.59</ele>
        <time>2017-04-30T07:10:04Z</time>
      </trkpt>
      <trkpt lat="44.45365" lon="5.15588">
        <ele>649.99</ele>
        <time>2017-04-30T07:10:17Z</time>
      </trkpt>
      <trkpt lat="44.45355" lon="5.15594">
        <ele>651.43</ele>
        <time>2017-04-30T07:10:33Z</time>
      </trkpt>
      <trkpt lat="44.4535" lon="5.156">
        <ele>654.31</ele>
        <time>2017-04-30T07:10:45Z</time>
      </trkpt>
      <trkpt lat="44.45343" lon="5.15609">
        <ele>657.2</ele>
        <time>2017-04-30T07:10:56Z</time>
      </trkpt>
      <trkpt lat="44.45341" lon="5.15616">
        <ele>658.64</ele>
        <time>2017-04-30T07:11:02Z</time>
      </trkpt>
      <trkpt lat="44.45344" lon="5.15635">
        <ele>659.6</ele>
        <time>2017-04-30T07:11:19Z</time>
      </trkpt>
      <trkpt lat="44.45346" lon="5.15643">
        <ele>658.64</ele>
        <time>2017-04-30T07:11:25Z</time>
      </trkpt>
      <trkpt lat="44.45346" lon="5.15645">
        <ele>660.08</ele>
        <time>2017-04-30T07:11:27Z</time>
      </trkpt>
      <trkpt lat="44.45346" lon="5.15657">
        <ele>662.01</ele>
        <time>2017-04-30T07:11:38Z</time>
      </trkpt>
      <trkpt lat="44.45343" lon="5.15663">
        <ele>664.89</ele>
        <time>2017-04-30T07:11:44Z</time>
      </trkpt>
      <trkpt lat="44.45338" lon="5.15675">
        <ele>667.29</ele>
        <time>2017-04-30T07:11:58Z</time>
      </trkpt>
      <trkpt lat="44.45331" lon="5.15687">
        <ele>669.7</ele>
        <time>2017-04-30T07:12:13Z</time>
      </trkpt>
      <trkpt lat="44.45323" lon="5.15699">
        <ele>672.58</ele>
        <time>2017-04-30T07:12:28Z</time>
      </trkpt>
      <trkpt lat="44.45314" lon="5.15709">
        <ele>675.46</ele>
        <time>2017-04-30T07:12:43Z</time>
      </trkpt>
      <trkpt lat="44.45306" lon="5.15715">
        <ele>677.39</ele>
        <time>2017-04-30T07:12:57Z</time>
      </trkpt>
      <trkpt lat="44.45295" lon="5.15722">
        <ele>679.79</ele>
        <time>2017-04-30T07:13:11Z</time>
      </trkpt>
      <trkpt lat="44.45285" lon="5.1573">
        <ele>681.23</ele>
        <time>2017-04-30T07:13:23Z</time>
      </trkpt>
      <trkpt lat="44.45274" lon="5.15736">
        <ele>682.67</ele>
        <time>2017-04-30T07:13:36Z</time>
      </trkpt>
      <trkpt lat="44.45263" lon="5.15745">
        <ele>685.56</ele>
        <time>2017-04-30T07:13:49Z</time>
      </trkpt>
      <trkpt lat="44.4525" lon="5.15756">
        <ele>688.44</ele>
        <time>2017-04-30T07:14:06Z</time>
      </trkpt>
      <trkpt lat="44.45237" lon="5.15761">
        <ele>690.84</ele>
        <time>2017-04-30T07:14:20Z</time>
      </trkpt>
      <trkpt lat="44.45227" lon="5.15766">
        <ele>692.29</ele>
        <time>2017-04-30T07:14:32Z</time>
      </trkpt>
      <trkpt lat="44.45217" lon="5.15774">
        <ele>694.69</ele>
        <time>2017-04-30T07:14:45Z</time>
      </trkpt>
      <trkpt lat="44.45207" lon="5.15775">
        <ele>696.13</ele>
        <time>2017-04-30T07:14:58Z</time>
      </trkpt>
      <trkpt lat="44.45195" lon="5.15777">
        <ele>699.02</ele>
        <time>2017-04-30T07:15:11Z</time>
      </trkpt>
      <trkpt lat="44.45184" lon="5.15776">
        <ele>700.46</ele>
        <time>2017-04-30T07:15:24Z</time>
      </trkpt>
      <trkpt lat="44.45175" lon="5.15778">
        <ele>703.34</ele>
        <time>2017-04-30T07:15:37Z</time>
      </trkpt>
      <trkpt lat="44.45163" lon="5.15781">
        <ele>703.34</ele>
        <time>2017-04-30T07:15:52Z</time>
      </trkpt>
      <trkpt lat="44.45152" lon="5.15784">
        <ele>703.82</ele>
        <time>2017-04-30T07:16:05Z</time>
      </trkpt>
      <trkpt lat="44.45145" lon="5.15785">
        <ele>704.78</ele>
        <time>2017-04-30T07:16:13Z</time>
      </trkpt>
      <trkpt lat="44.45134" lon="5.15788">
        <ele>706.23</ele>
        <time>2017-04-30T07:16:24Z</time>
      </trkpt>
      <trkpt lat="44.45122" lon="5.15792">
        <ele>708.15</ele>
        <time>2017-04-30T07:16:37Z</time>
      </trkpt>
      <trkpt lat="44.45113" lon="5.15797">
        <ele>708.63</ele>
        <time>2017-04-30T07:16:47Z</time>
      </trkpt>
      <trkpt lat="44.451" lon="5.15812">
        <ele>710.55</ele>
        <time>2017-04-30T07:17:02Z</time>
      </trkpt>
      <trkpt lat="44.45093" lon="5.15827">
        <ele>712.47</ele>
        <time>2017-04-30T07:17:16Z</time>
      </trkpt>
      <trkpt lat="44.45086" lon="5.15838">
        <ele>712.95</ele>
        <time>2017-04-30T07:17:27Z</time>
      </trkpt>
      <trkpt lat="44.45085" lon="5.15839">
        <ele>712.95</ele>
        <time>2017-04-30T07:17:28Z</time>
      </trkpt>
      <trkpt lat="44.45083" lon="5.15843">
        <ele>712.95</ele>
        <time>2017-04-30T07:17:32Z</time>
      </trkpt>
      <trkpt lat="44.45081" lon="5.15845">
        <ele>712.95</ele>
        <time>2017-04-30T07:17:34Z</time>
      </trkpt>
      <trkpt lat="44.45068" lon="5.15856">
        <ele>714.88</ele>
        <time>2017-04-30T07:17:48Z</time>
      </trkpt>
      <trkpt lat="44.45066" lon="5.15858">
        <ele>716.32</ele>
        <time>2017-04-30T07:17:50Z</time>
      </trkpt>
      <trkpt lat="44.45051" lon="5.15871">
        <ele>717.76</ele>
        <time>2017-04-30T07:18:05Z</time>
      </trkpt>
      <trkpt lat="44.4504" lon="5.15883">
        <ele>719.2</ele>
        <time>2017-04-30T07:18:18Z</time>
      </trkpt>
      <trkpt lat="44.45031" lon="5.15891">
        <ele>721.61</ele>
        <time>2017-04-30T07:18:30Z</time>
      </trkpt>
      <trkpt lat="44.45021" lon="5.15895">
        <ele>722.09</ele>
        <time>2017-04-30T07:18:39Z</time>
      </trkpt>
      <trkpt lat="44.45005" lon="5.1589">
        <ele>723.53</ele>
        <time>2017-04-30T07:18:54Z</time>
      </trkpt>
      <trkpt lat="44.45003" lon="5.1589">
        <ele>724.01</ele>
        <time>2017-04-30T07:18:56Z</time>
      </trkpt>
      <trkpt lat="44.44995" lon="5.15889">
        <ele>724.97</ele>
        <time>2017-04-30T07:19:03Z</time>
      </trkpt>
      <trkpt lat="44.44979" lon="5.15901">
        <ele>726.89</ele>
        <time>2017-04-30T07:19:21Z</time>
      </trkpt>
      <trkpt lat="44.44972" lon="5.15914">
        <ele>727.86</ele>
        <time>2017-04-30T07:19:33Z</time>
      </trkpt>
      <trkpt lat="44.44969" lon="5.15918">
        <ele>728.82</ele>
        <time>2017-04-30T07:19:37Z</time>
      </trkpt>
      <trkpt lat="44.44957" lon="5.15933">
        <ele>730.26</ele>
        <time>2017-04-30T07:19:51Z</time>
      </trkpt>
      <trkpt lat="44.44948" lon="5.15941">
        <ele>730.74</ele>
        <time>2017-04-30T07:20:01Z</time>
      </trkpt>
      <trkpt lat="44.44942" lon="5.15945">
        <ele>731.7</ele>
        <time>2017-04-30T07:20:08Z</time>
      </trkpt>
      <trkpt lat="44.44939" lon="5.15949">
        <ele>732.18</ele>
        <time>2017-04-30T07:20:12Z</time>
      </trkpt>
      <trkpt lat="44.4493" lon="5.15966">
        <ele>734.58</ele>
        <time>2017-04-30T07:20:26Z</time>
      </trkpt>
      <trkpt lat="44.44924" lon="5.15982">
        <ele>736.51</ele>
        <time>2017-04-30T07:20:40Z</time>
      </trkpt>
      <trkpt lat="44.44916" lon="5.15999">
        <ele>739.87</ele>
        <time>2017-04-30T07:20:55Z</time>
      </trkpt>
      <trkpt lat="44.44905" lon="5.16002">
        <ele>742.28</ele>
        <time>2017-04-30T07:24:54Z</time>
      </trkpt>
      <trkpt lat="44.44901" lon="5.16002">
        <ele>742.28</ele>
        <time>2017-04-30T07:25:15Z</time>
      </trkpt>
      <trkpt lat="44.44895" lon="5.16">
        <ele>742.28</ele>
        <time>2017-04-30T07:25:22Z</time>
      </trkpt>
      <trkpt lat="44.44892" lon="5.16">
        <ele>742.28</ele>
        <time>2017-04-30T07:25:24Z</time>
      </trkpt>
      <trkpt lat="44.44883" lon="5.16015">
        <ele>744.2</ele>
        <time>2017-04-30T07:25:38Z</time>
      </trkpt>
      <trkpt lat="44.44876" lon="5.16032">
        <ele>746.12</ele>
        <time>2017-04-30T07:25:51Z</time>
      </trkpt>
      <trkpt lat="44.44868" lon="5.1605">
        <ele>749.49</ele>
        <time>2017-04-30T07:26:07Z</time>
      </trkpt>
      <trkpt lat="44.44857" lon="5.16052">
        <ele>752.37</ele>
        <time>2017-04-30T07:26:21Z</time>
      </trkpt>
      <trkpt lat="44.44849" lon="5.16044">
        <ele>754.29</ele>
        <time>2017-04-30T07:26:34Z</time>
      </trkpt>
      <trkpt lat="44.44841" lon="5.16032">
        <ele>755.73</ele>
        <time>2017-04-30T07:26:48Z</time>
      </trkpt>
      <trkpt lat="44.44831" lon="5.16017">
        <ele>759.1</ele>
        <time>2017-04-30T07:27:04Z</time>
      </trkpt>
      <trkpt lat="44.4482" lon="5.16011">
        <ele>761.5</ele>
        <time>2017-04-30T07:27:19Z</time>
      </trkpt>
      <trkpt lat="44.44808" lon="5.16002">
        <ele>763.9</ele>
        <time>2017-04-30T07:27:33Z</time>
      </trkpt>
      <trkpt lat="44.44798" lon="5.15995">
        <ele>765.35</ele>
        <time>2017-04-30T07:27:47Z</time>
      </trkpt>
      <trkpt lat="44.44787" lon="5.15998">
        <ele>767.75</ele>
        <time>2017-04-30T07:28:01Z</time>
      </trkpt>
      <trkpt lat="44.44781" lon="5.16001">
        <ele>768.71</ele>
        <time>2017-04-30T07:28:09Z</time>
      </trkpt>
      <trkpt lat="44.44767" lon="5.16007">
        <ele>771.6</ele>
        <time>2017-04-30T07:28:25Z</time>
      </trkpt>
      <trkpt lat="44.44764" lon="5.16009">
        <ele>773.52</ele>
        <time>2017-04-30T07:28:29Z</time>
      </trkpt>
      <trkpt lat="44.44752" lon="5.16018">
        <ele>774.48</ele>
        <time>2017-04-30T07:28:42Z</time>
      </trkpt>
      <trkpt lat="44.44741" lon="5.1603">
        <ele>775.44</ele>
        <time>2017-04-30T07:28:56Z</time>
      </trkpt>
      <trkpt lat="44.4473" lon="5.16042">
        <ele>778.32</ele>
        <time>2017-04-30T07:29:10Z</time>
      </trkpt>
      <trkpt lat="44.44727" lon="5.16045">
        <ele>778.32</ele>
        <time>2017-04-30T07:29:13Z</time>
      </trkpt>
      <trkpt lat="44.44724" lon="5.16047">
        <ele>778.32</ele>
        <time>2017-04-30T07:29:16Z</time>
      </trkpt>
      <trkpt lat="44.44714" lon="5.16056">
        <ele>780.25</ele>
        <time>2017-04-30T07:29:30Z</time>
      </trkpt>
      <trkpt lat="44.44703" lon="5.1606">
        <ele>782.65</ele>
        <time>2017-04-30T07:29:44Z</time>
      </trkpt>
      <trkpt lat="44.44702" lon="5.16061">
        <ele>781.21</ele>
        <time>2017-04-30T07:29:46Z</time>
      </trkpt>
      <trkpt lat="44.44698" lon="5.1606">
        <ele>784.09</ele>
        <time>2017-04-30T07:30:00Z</time>
      </trkpt>
      <trkpt lat="44.44697" lon="5.1606">
        <ele>782.65</ele>
        <time>2017-04-30T07:30:02Z</time>
      </trkpt>
      <trkpt lat="44.44696" lon="5.16062">
        <ele>781.21</ele>
        <time>2017-04-30T07:30:04Z</time>
      </trkpt>
      <trkpt lat="44.44693" lon="5.16065">
        <ele>782.65</ele>
        <time>2017-04-30T07:30:17Z</time>
      </trkpt>
      <trkpt lat="44.44693" lon="5.16065">
        <ele>784.57</ele>
        <time>2017-04-30T07:30:30Z</time>
      </trkpt>
      <trkpt lat="44.44691" lon="5.16062">
        <ele>781.21</ele>
        <time>2017-04-30T07:30:51Z</time>
      </trkpt>
      <trkpt lat="44.44691" lon="5.16061">
        <ele>781.21</ele>
        <time>2017-04-30T07:30:52Z</time>
      </trkpt>
      <trkpt lat="44.44688" lon="5.1606">
        <ele>783.61</ele>
        <time>2017-04-30T07:30:54Z</time>
      </trkpt>
      <trkpt lat="44.44684" lon="5.16058">
        <ele>780.25</ele>
        <time>2017-04-30T07:30:58Z</time>
      </trkpt>
      <trkpt lat="44.44665" lon="5.16048">
        <ele>777.36</ele>
        <time>2017-04-30T07:31:15Z</time>
      </trkpt>
      <trkpt lat="44.44648" lon="5.16047">
        <ele>776.4</ele>
        <time>2017-04-30T07:31:31Z</time>
      </trkpt>
      <trkpt lat="44.44636" lon="5.16049">
        <ele>774.48</ele>
        <time>2017-04-30T07:31:43Z</time>
      </trkpt>
      <trkpt lat="44.44615" lon="5.16051">
        <ele>772.56</ele>
        <time>2017-04-30T07:32:00Z</time>
      </trkpt>
      <trkpt lat="44.44597" lon="5.16048">
        <ele>771.11</ele>
        <time>2017-04-30T07:32:16Z</time>
      </trkpt>
      <trkpt lat="44.44586" lon="5.16048">
        <ele>769.67</ele>
        <time>2017-04-30T07:32:25Z</time>
      </trkpt>
      <trkpt lat="44.4458" lon="5.16049">
        <ele>768.23</ele>
        <time>2017-04-30T07:32:30Z</time>
      </trkpt>
      <trkpt lat="44.44573" lon="5.16049">
        <ele>767.27</ele>
        <time>2017-04-30T07:32:36Z</time>
      </trkpt>
      <trkpt lat="44.44553" lon="5.16041">
        <ele>764.87</ele>
        <time>2017-04-30T07:32:53Z</time>
      </trkpt>
      <trkpt lat="44.44541" lon="5.16025">
        <ele>762.94</ele>
        <time>2017-04-30T07:33:08Z</time>
      </trkpt>
      <trkpt lat="44.4453" lon="5.16004">
        <ele>761.5</ele>
        <time>2017-04-30T07:33:23Z</time>
      </trkpt>
      <trkpt lat="44.4452" lon="5.15982">
        <ele>761.02</ele>
        <time>2017-04-30T07:33:39Z</time>
      </trkpt>
      <trkpt lat="44.44515" lon="5.1597">
        <ele>760.54</ele>
        <time>2017-04-30T07:33:48Z</time>
      </trkpt>
      <trkpt lat="44.4451" lon="5.15949">
        <ele>760.54</ele>
        <time>2017-04-30T07:34:00Z</time>
      </trkpt>
      <trkpt lat="44.44505" lon="5.15944">
        <ele>760.54</ele>
        <time>2017-04-30T07:34:06Z</time>
      </trkpt>
      <trkpt lat="44.44498" lon="5.15933">
        <ele>760.54</ele>
        <time>2017-04-30T07:34:14Z</time>
      </trkpt>
      <trkpt lat="44.44486" lon="5.15911">
        <ele>759.58</ele>
        <time>2017-04-30T07:34:29Z</time>
      </trkpt>
      <trkpt lat="44.4447" lon="5.15898">
        <ele>760.54</ele>
        <time>2017-04-30T07:34:44Z</time>
      </trkpt>
      <trkpt lat="44.44454" lon="5.15899">
        <ele>759.58</ele>
        <time>2017-04-30T07:34:59Z</time>
      </trkpt>
      <trkpt lat="44.44435" lon="5.15908">
        <ele>758.14</ele>
        <time>2017-04-30T07:35:14Z</time>
      </trkpt>
      <trkpt lat="44.44415" lon="5.15918">
        <ele>757.66</ele>
        <time>2017-04-30T07:35:30Z</time>
      </trkpt>
      <trkpt lat="44.44395" lon="5.15925">
        <ele>755.73</ele>
        <time>2017-04-30T07:35:47Z</time>
      </trkpt>
      <trkpt lat="44.44388" lon="5.15926">
        <ele>755.25</ele>
        <time>2017-04-30T07:35:52Z</time>
      </trkpt>
      <trkpt lat="44.44379" lon="5.15927">
        <ele>754.29</ele>
        <time>2017-04-30T07:35:59Z</time>
      </trkpt>
      <trkpt lat="44.44362" lon="5.15932">
        <ele>754.29</ele>
        <time>2017-04-30T07:36:12Z</time>
      </trkpt>
      <trkpt lat="44.44346" lon="5.15936">
        <ele>753.81</ele>
        <time>2017-04-30T07:36:26Z</time>
      </trkpt>
      <trkpt lat="44.44329" lon="5.15953">
        <ele>753.33</ele>
        <time>2017-04-30T07:36:41Z</time>
      </trkpt>
      <trkpt lat="44.44321" lon="5.15965">
        <ele>753.33</ele>
        <time>2017-04-30T07:36:52Z</time>
      </trkpt>
      <trkpt lat="44.44311" lon="5.1599">
        <ele>754.77</ele>
        <time>2017-04-30T07:37:10Z</time>
      </trkpt>
      <trkpt lat="44.44308" lon="5.15992">
        <ele>755.25</ele>
        <time>2017-04-30T07:37:21Z</time>
      </trkpt>
      <trkpt lat="44.44308" lon="5.15992">
        <ele>755.25</ele>
        <time>2017-04-30T07:37:22Z</time>
      </trkpt>
      <trkpt lat="44.44308" lon="5.15991">
        <ele>755.73</ele>
        <time>2017-04-30T07:37:25Z</time>
      </trkpt>
      <trkpt lat="44.44306" lon="5.15992">
        <ele>755.73</ele>
        <time>2017-04-30T07:37:34Z</time>
      </trkpt>
      <trkpt lat="44.44296" lon="5.15994">
        <ele>759.1</ele>
        <time>2017-04-30T07:37:46Z</time>
      </trkpt>
      <trkpt lat="44.44295" lon="5.15993">
        <ele>757.66</ele>
        <time>2017-04-30T07:37:48Z</time>
      </trkpt>
      <trkpt lat="44.44285" lon="5.15989">
        <ele>757.18</ele>
        <time>2017-04-30T07:37:58Z</time>
      </trkpt>
      <trkpt lat="44.44272" lon="5.15986">
        <ele>758.62</ele>
        <time>2017-04-30T07:38:11Z</time>
      </trkpt>
      <trkpt lat="44.44255" lon="5.15981">
        <ele>759.58</ele>
        <time>2017-04-30T07:38:27Z</time>
      </trkpt>
      <trkpt lat="44.44242" lon="5.15979">
        <ele>761.02</ele>
        <time>2017-04-30T07:38:40Z</time>
      </trkpt>
      <trkpt lat="44.44227" lon="5.15976">
        <ele>761.5</ele>
        <time>2017-04-30T07:38:54Z</time>
      </trkpt>
      <trkpt lat="44.4421" lon="5.15974">
        <ele>761.98</ele>
        <time>2017-04-30T07:39:10Z</time>
      </trkpt>
      <trkpt lat="44.44194" lon="5.15968">
        <ele>763.42</ele>
        <time>2017-04-30T07:39:25Z</time>
      </trkpt>
      <trkpt lat="44.4419" lon="5.15967">
        <ele>763.42</ele>
        <time>2017-04-30T07:39:29Z</time>
      </trkpt>
      <trkpt lat="44.4418" lon="5.15965">
        <ele>765.35</ele>
        <time>2017-04-30T07:39:42Z</time>
      </trkpt>
      <trkpt lat="44.44171" lon="5.15961">
        <ele>766.31</ele>
        <time>2017-04-30T07:39:53Z</time>
      </trkpt>
      <trkpt lat="44.44159" lon="5.15955">
        <ele>767.75</ele>
        <time>2017-04-30T07:40:05Z</time>
      </trkpt>
      <trkpt lat="44.44156" lon="5.15954">
        <ele>768.23</ele>
        <time>2017-04-30T07:40:09Z</time>
      </trkpt>
      <trkpt lat="44.44146" lon="5.15936">
        <ele>768.23</ele>
        <time>2017-04-30T07:40:24Z</time>
      </trkpt>
      <trkpt lat="44.44144" lon="5.15926">
        <ele>768.23</ele>
        <time>2017-04-30T07:40:32Z</time>
      </trkpt>
      <trkpt lat="44.44138" lon="5.15912">
        <ele>765.83</ele>
        <time>2017-04-30T07:40:46Z</time>
      </trkpt>
      <trkpt lat="44.44136" lon="5.15895">
        <ele>764.87</ele>
        <time>2017-04-30T07:40:59Z</time>
      </trkpt>
      <trkpt lat="44.44137" lon="5.15879">
        <ele>763.9</ele>
        <time>2017-04-30T07:41:13Z</time>
      </trkpt>
      <trkpt lat="44.44137" lon="5.1586">
        <ele>761.98</ele>
        <time>2017-04-30T07:41:27Z</time>
      </trkpt>
      <trkpt lat="44.44137" lon="5.15859">
        <ele>761.5</ele>
        <time>2017-04-30T07:41:28Z</time>
      </trkpt>
      <trkpt lat="44.44136" lon="5.15833">
        <ele>759.58</ele>
        <time>2017-04-30T07:41:43Z</time>
      </trkpt>
      <trkpt lat="44.44132" lon="5.15818">
        <ele>758.62</ele>
        <time>2017-04-30T07:41:56Z</time>
      </trkpt>
      <trkpt lat="44.44128" lon="5.15807">
        <ele>757.18</ele>
        <time>2017-04-30T07:42:07Z</time>
      </trkpt>
      <trkpt lat="44.44125" lon="5.158">
        <ele>756.21</ele>
        <time>2017-04-30T07:42:12Z</time>
      </trkpt>
      <trkpt lat="44.44114" lon="5.15782">
        <ele>754.77</ele>
        <time>2017-04-30T07:42:24Z</time>
      </trkpt>
      <trkpt lat="44.441" lon="5.15749">
        <ele>752.37</ele>
        <time>2017-04-30T07:42:40Z</time>
      </trkpt>
      <trkpt lat="44.44091" lon="5.15739">
        <ele>751.41</ele>
        <time>2017-04-30T07:42:52Z</time>
      </trkpt>
      <trkpt lat="44.4408" lon="5.15727">
        <ele>749</ele>
        <time>2017-04-30T07:43:06Z</time>
      </trkpt>
      <trkpt lat="44.44075" lon="5.15721">
        <ele>748.52</ele>
        <time>2017-04-30T07:43:10Z</time>
      </trkpt>
      <trkpt lat="44.44061" lon="5.15702">
        <ele>747.56</ele>
        <time>2017-04-30T07:43:25Z</time>
      </trkpt>
      <trkpt lat="44.44048" lon="5.15689">
        <ele>746.12</ele>
        <time>2017-04-30T07:43:38Z</time>
      </trkpt>
      <trkpt lat="44.44046" lon="5.15687">
        <ele>745.64</ele>
        <time>2017-04-30T07:43:40Z</time>
      </trkpt>
      <trkpt lat="44.44032" lon="5.15672">
        <ele>744.2</ele>
        <time>2017-04-30T07:43:54Z</time>
      </trkpt>
      <trkpt lat="44.44017" lon="5.15655">
        <ele>742.76</ele>
        <time>2017-04-30T07:44:09Z</time>
      </trkpt>
      <trkpt lat="44.44007" lon="5.15641">
        <ele>742.28</ele>
        <time>2017-04-30T07:44:22Z</time>
      </trkpt>
      <trkpt lat="44.43998" lon="5.1562">
        <ele>741.31</ele>
        <time>2017-04-30T07:44:37Z</time>
      </trkpt>
      <trkpt lat="44.43992" lon="5.15602">
        <ele>741.31</ele>
        <time>2017-04-30T07:44:51Z</time>
      </trkpt>
      <trkpt lat="44.43984" lon="5.15585">
        <ele>739.39</ele>
        <time>2017-04-30T07:45:04Z</time>
      </trkpt>
      <trkpt lat="44.43979" lon="5.15563">
        <ele>738.91</ele>
        <time>2017-04-30T07:45:17Z</time>
      </trkpt>
      <trkpt lat="44.43975" lon="5.15548">
        <ele>737.95</ele>
        <time>2017-04-30T07:45:31Z</time>
      </trkpt>
      <trkpt lat="44.43973" lon="5.15543">
        <ele>737.95</ele>
        <time>2017-04-30T07:45:49Z</time>
      </trkpt>
      <trkpt lat="44.43972" lon="5.15541">
        <ele>737.95</ele>
        <time>2017-04-30T07:45:51Z</time>
      </trkpt>
      <trkpt lat="44.43957" lon="5.15535">
        <ele>735.55</ele>
        <time>2017-04-30T07:46:07Z</time>
      </trkpt>
      <trkpt lat="44.43955" lon="5.15534">
        <ele>735.55</ele>
        <time>2017-04-30T07:46:10Z</time>
      </trkpt>
      <trkpt lat="44.43949" lon="5.15509">
        <ele>732.66</ele>
        <time>2017-04-30T07:46:27Z</time>
      </trkpt>
      <trkpt lat="44.4395" lon="5.155">
        <ele>731.22</ele>
        <time>2017-04-30T07:46:34Z</time>
      </trkpt>
      <trkpt lat="44.43948" lon="5.15492">
        <ele>731.22</ele>
        <time>2017-04-30T07:46:38Z</time>
      </trkpt>
      <trkpt lat="44.43944" lon="5.15486">
        <ele>730.74</ele>
        <time>2017-04-30T07:46:43Z</time>
      </trkpt>
      <trkpt lat="44.43931" lon="5.15477">
        <ele>727.37</ele>
        <time>2017-04-30T07:46:56Z</time>
      </trkpt>
      <trkpt lat="44.43918" lon="5.15471">
        <ele>725.45</ele>
        <time>2017-04-30T07:47:08Z</time>
      </trkpt>
      <trkpt lat="44.43901" lon="5.15457">
        <ele>721.61</ele>
        <time>2017-04-30T07:47:23Z</time>
      </trkpt>
      <trkpt lat="44.43893" lon="5.15451">
        <ele>720.65</ele>
        <time>2017-04-30T07:47:32Z</time>
      </trkpt>
      <trkpt lat="44.43888" lon="5.15447">
        <ele>720.16</ele>
        <time>2017-04-30T07:47:36Z</time>
      </trkpt>
      <trkpt lat="44.4387" lon="5.15448">
        <ele>717.28</ele>
        <time>2017-04-30T07:47:51Z</time>
      </trkpt>
      <trkpt lat="44.43857" lon="5.15447">
        <ele>715.36</ele>
        <time>2017-04-30T07:48:06Z</time>
      </trkpt>
      <trkpt lat="44.43845" lon="5.15444">
        <ele>713.44</ele>
        <time>2017-04-30T07:48:20Z</time>
      </trkpt>
      <trkpt lat="44.43837" lon="5.15441">
        <ele>711.99</ele>
        <time>2017-04-30T07:48:37Z</time>
      </trkpt>
      <trkpt lat="44.4383" lon="5.15438">
        <ele>710.55</ele>
        <time>2017-04-30T07:48:50Z</time>
      </trkpt>
      <trkpt lat="44.43823" lon="5.1543">
        <ele>709.11</ele>
        <time>2017-04-30T07:49:00Z</time>
      </trkpt>
      <trkpt lat="44.4382" lon="5.15424">
        <ele>708.63</ele>
        <time>2017-04-30T07:49:05Z</time>
      </trkpt>
      <trkpt lat="44.43819" lon="5.15416">
        <ele>707.67</ele>
        <time>2017-04-30T07:49:10Z</time>
      </trkpt>
      <trkpt lat="44.43815" lon="5.15413">
        <ele>707.67</ele>
        <time>2017-04-30T07:49:14Z</time>
      </trkpt>
      <trkpt lat="44.438" lon="5.15404">
        <ele>705.26</ele>
        <time>2017-04-30T07:49:28Z</time>
      </trkpt>
      <trkpt lat="44.43786" lon="5.15393">
        <ele>703.34</ele>
        <time>2017-04-30T07:49:44Z</time>
      </trkpt>
      <trkpt lat="44.43781" lon="5.15395">
        <ele>701.9</ele>
        <time>2017-04-30T07:49:58Z</time>
      </trkpt>
      <trkpt lat="44.43775" lon="5.15396">
        <ele>699.98</ele>
        <time>2017-04-30T07:50:09Z</time>
      </trkpt>
      <trkpt lat="44.43759" lon="5.154">
        <ele>697.57</ele>
        <time>2017-04-30T07:50:20Z</time>
      </trkpt>
      <trkpt lat="44.43748" lon="5.15393">
        <ele>694.69</ele>
        <time>2017-04-30T07:50:34Z</time>
      </trkpt>
      <trkpt lat="44.43736" lon="5.15389">
        <ele>695.65</ele>
        <time>2017-04-30T07:50:46Z</time>
      </trkpt>
      <trkpt lat="44.43735" lon="5.15389">
        <ele>695.65</ele>
        <time>2017-04-30T07:50:47Z</time>
      </trkpt>
      <trkpt lat="44.43736" lon="5.15399">
        <ele>695.65</ele>
        <time>2017-04-30T07:51:00Z</time>
      </trkpt>
      <trkpt lat="44.43737" lon="5.15415">
        <ele>696.61</ele>
        <time>2017-04-30T07:51:13Z</time>
      </trkpt>
      <trkpt lat="44.43736" lon="5.15428">
        <ele>697.09</ele>
        <time>2017-04-30T07:51:26Z</time>
      </trkpt>
      <trkpt lat="44.43732" lon="5.15444">
        <ele>697.57</ele>
        <time>2017-04-30T07:51:40Z</time>
      </trkpt>
      <trkpt lat="44.43733" lon="5.15471">
        <ele>697.09</ele>
        <time>2017-04-30T07:51:52Z</time>
      </trkpt>
      <trkpt lat="44.43733" lon="5.15498">
        <ele>697.57</ele>
        <time>2017-04-30T07:52:05Z</time>
      </trkpt>
      <trkpt lat="44.43736" lon="5.15517">
        <ele>696.13</ele>
        <time>2017-04-30T07:52:16Z</time>
      </trkpt>
      <trkpt lat="44.43736" lon="5.15533">
        <ele>693.73</ele>
        <time>2017-04-30T07:52:28Z</time>
      </trkpt>
      <trkpt lat="44.43737" lon="5.1555">
        <ele>690.84</ele>
        <time>2017-04-30T07:52:41Z</time>
      </trkpt>
      <trkpt lat="44.43739" lon="5.15558">
        <ele>687.48</ele>
        <time>2017-04-30T07:52:52Z</time>
      </trkpt>
      <trkpt lat="44.43744" lon="5.15577">
        <ele>684.6</ele>
        <time>2017-04-30T07:53:07Z</time>
      </trkpt>
      <trkpt lat="44.43754" lon="5.15588">
        <ele>682.19</ele>
        <time>2017-04-30T07:53:20Z</time>
      </trkpt>
      <trkpt lat="44.43755" lon="5.15588">
        <ele>681.71</ele>
        <time>2017-04-30T07:53:21Z</time>
      </trkpt>
      <trkpt lat="44.43764" lon="5.156">
        <ele>679.31</ele>
        <time>2017-04-30T07:53:36Z</time>
      </trkpt>
      <trkpt lat="44.4377" lon="5.15614">
        <ele>676.42</ele>
        <time>2017-04-30T07:53:51Z</time>
      </trkpt>
      <trkpt lat="44.43773" lon="5.1563">
        <ele>675.46</ele>
        <time>2017-04-30T07:54:03Z</time>
      </trkpt>
      <trkpt lat="44.43774" lon="5.1565">
        <ele>674.98</ele>
        <time>2017-04-30T07:54:16Z</time>
      </trkpt>
      <trkpt lat="44.43776" lon="5.15661">
        <ele>674.5</ele>
        <time>2017-04-30T07:54:28Z</time>
      </trkpt>
      <trkpt lat="44.43777" lon="5.15669">
        <ele>674.02</ele>
        <time>2017-04-30T07:57:32Z</time>
      </trkpt>
      <trkpt lat="44.43777" lon="5.15677">
        <ele>674.02</ele>
        <time>2017-04-30T07:57:56Z</time>
      </trkpt>
      <trkpt lat="44.43775" lon="5.15695">
        <ele>674.02</ele>
        <time>2017-04-30T07:58:09Z</time>
      </trkpt>
      <trkpt lat="44.43769" lon="5.15712">
        <ele>673.06</ele>
        <time>2017-04-30T07:58:23Z</time>
      </trkpt>
      <trkpt lat="44.43752" lon="5.15717">
        <ele>672.58</ele>
        <time>2017-04-30T07:58:38Z</time>
      </trkpt>
      <trkpt lat="44.43749" lon="5.15717">
        <ele>673.06</ele>
        <time>2017-04-30T07:58:41Z</time>
      </trkpt>
      <trkpt lat="44.43746" lon="5.15716">
        <ele>672.58</ele>
        <time>2017-04-30T07:58:44Z</time>
      </trkpt>
      <trkpt lat="44.4373" lon="5.15714">
        <ele>674.98</ele>
        <time>2017-04-30T07:59:00Z</time>
      </trkpt>
      <trkpt lat="44.43729" lon="5.15713">
        <ele>674.5</ele>
        <time>2017-04-30T07:59:25Z</time>
      </trkpt>
      <trkpt lat="44.43723" lon="5.15712">
        <ele>674.98</ele>
        <time>2017-04-30T07:59:35Z</time>
      </trkpt>
      <trkpt lat="44.43718" lon="5.15711">
        <ele>674.98</ele>
        <time>2017-04-30T07:59:39Z</time>
      </trkpt>
      <trkpt lat="44.43699" lon="5.15709">
        <ele>675.94</ele>
        <time>2017-04-30T07:59:56Z</time>
      </trkpt>
      <trkpt lat="44.43683" lon="5.15704">
        <ele>676.42</ele>
        <time>2017-04-30T08:00:10Z</time>
      </trkpt>
      <trkpt lat="44.43666" lon="5.15698">
        <ele>675.94</ele>
        <time>2017-04-30T08:00:25Z</time>
      </trkpt>
      <trkpt lat="44.4365" lon="5.15701">
        <ele>676.42</ele>
        <time>2017-04-30T08:00:38Z</time>
      </trkpt>
      <trkpt lat="44.43643" lon="5.157">
        <ele>676.91</ele>
        <time>2017-04-30T08:00:45Z</time>
      </trkpt>
      <trkpt lat="44.4364" lon="5.157">
        <ele>677.39</ele>
        <time>2017-04-30T08:00:47Z</time>
      </trkpt>
      <trkpt lat="44.43619" lon="5.15704">
        <ele>677.87</ele>
        <time>2017-04-30T08:01:03Z</time>
      </trkpt>
      <trkpt lat="44.43602" lon="5.15703">
        <ele>678.35</ele>
        <time>2017-04-30T08:01:16Z</time>
      </trkpt>
      <trkpt lat="44.43585" lon="5.15703">
        <ele>678.83</ele>
        <time>2017-04-30T08:01:30Z</time>
      </trkpt>
      <trkpt lat="44.43569" lon="5.15704">
        <ele>679.79</ele>
        <time>2017-04-30T08:01:44Z</time>
      </trkpt>
      <trkpt lat="44.43568" lon="5.15704">
        <ele>679.79</ele>
        <time>2017-04-30T08:01:46Z</time>
      </trkpt>
      <trkpt lat="44.43562" lon="5.15704">
        <ele>679.79</ele>
        <time>2017-04-30T08:01:51Z</time>
      </trkpt>
      <trkpt lat="44.43556" lon="5.15704">
        <ele>679.79</ele>
        <time>2017-04-30T08:01:57Z</time>
      </trkpt>
      <trkpt lat="44.43538" lon="5.15699">
        <ele>680.75</ele>
        <time>2017-04-30T08:02:12Z</time>
      </trkpt>
      <trkpt lat="44.4352" lon="5.15702">
        <ele>680.75</ele>
        <time>2017-04-30T08:02:27Z</time>
      </trkpt>
      <trkpt lat="44.43505" lon="5.15704">
        <ele>681.23</ele>
        <time>2017-04-30T08:02:37Z</time>
      </trkpt>
      <trkpt lat="44.43487" lon="5.15699">
        <ele>681.71</ele>
        <time>2017-04-30T08:02:52Z</time>
      </trkpt>
      <trkpt lat="44.43475" lon="5.15691">
        <ele>682.19</ele>
        <time>2017-04-30T08:03:06Z</time>
      </trkpt>
      <trkpt lat="44.43474" lon="5.15692">
        <ele>682.19</ele>
        <time>2017-04-30T08:03:07Z</time>
      </trkpt>
      <trkpt lat="44.43461" lon="5.15705">
        <ele>682.67</ele>
        <time>2017-04-30T08:03:23Z</time>
      </trkpt>
      <trkpt lat="44.43458" lon="5.15705">
        <ele>682.67</ele>
        <time>2017-04-30T08:03:25Z</time>
      </trkpt>
      <trkpt lat="44.4344" lon="5.15705">
        <ele>682.67</ele>
        <time>2017-04-30T08:03:40Z</time>
      </trkpt>
      <trkpt lat="44.43432" lon="5.15702">
        <ele>681.23</ele>
        <time>2017-04-30T08:03:47Z</time>
      </trkpt>
      <trkpt lat="44.43423" lon="5.15703">
        <ele>682.19</ele>
        <time>2017-04-30T08:03:56Z</time>
      </trkpt>
      <trkpt lat="44.43407" lon="5.15709">
        <ele>683.15</ele>
        <time>2017-04-30T08:04:11Z</time>
      </trkpt>
      <trkpt lat="44.43404" lon="5.15709">
        <ele>683.15</ele>
        <time>2017-04-30T08:04:26Z</time>
      </trkpt>
      <trkpt lat="44.43393" lon="5.15708">
        <ele>683.63</ele>
        <time>2017-04-30T08:04:39Z</time>
      </trkpt>
      <trkpt lat="44.43389" lon="5.15704">
        <ele>683.63</ele>
        <time>2017-04-30T08:04:52Z</time>
      </trkpt>
      <trkpt lat="44.43383" lon="5.15705">
        <ele>683.63</ele>
        <time>2017-04-30T08:05:07Z</time>
      </trkpt>
      <trkpt lat="44.43381" lon="5.15721">
        <ele>683.63</ele>
        <time>2017-04-30T08:05:20Z</time>
      </trkpt>
      <trkpt lat="44.4338" lon="5.15728">
        <ele>683.63</ele>
        <time>2017-04-30T08:05:25Z</time>
      </trkpt>
      <trkpt lat="44.43375" lon="5.15743">
        <ele>680.75</ele>
        <time>2017-04-30T08:05:39Z</time>
      </trkpt>
      <trkpt lat="44.43368" lon="5.15751">
        <ele>678.83</ele>
        <time>2017-04-30T08:05:53Z</time>
      </trkpt>
      <trkpt lat="44.43367" lon="5.1575">
        <ele>679.31</ele>
        <time>2017-04-30T08:06:12Z</time>
      </trkpt>
      <trkpt lat="44.43357" lon="5.15759">
        <ele>676.91</ele>
        <time>2017-04-30T08:06:26Z</time>
      </trkpt>
      <trkpt lat="44.43348" lon="5.15762">
        <ele>674.02</ele>
        <time>2017-04-30T08:06:39Z</time>
      </trkpt>
      <trkpt lat="44.43342" lon="5.15757">
        <ele>674.5</ele>
        <time>2017-04-30T08:10:28Z</time>
      </trkpt>
      <trkpt lat="44.43334" lon="5.15758">
        <ele>673.06</ele>
        <time>2017-04-30T08:10:47Z</time>
      </trkpt>
      <trkpt lat="44.43317" lon="5.15754">
        <ele>671.62</ele>
        <time>2017-04-30T08:11:04Z</time>
      </trkpt>
      <trkpt lat="44.43308" lon="5.15742">
        <ele>671.14</ele>
        <time>2017-04-30T08:11:15Z</time>
      </trkpt>
      <trkpt lat="44.43306" lon="5.15741">
        <ele>671.14</ele>
        <time>2017-04-30T08:11:17Z</time>
      </trkpt>
      <trkpt lat="44.43293" lon="5.15748">
        <ele>671.62</ele>
        <time>2017-04-30T08:11:32Z</time>
      </trkpt>
      <trkpt lat="44.43288" lon="5.15753">
        <ele>671.62</ele>
        <time>2017-04-30T08:11:45Z</time>
      </trkpt>
      <trkpt lat="44.43277" lon="5.15758">
        <ele>673.06</ele>
        <time>2017-04-30T08:12:01Z</time>
      </trkpt>
      <trkpt lat="44.43267" lon="5.1576">
        <ele>673.06</ele>
        <time>2017-04-30T08:12:15Z</time>
      </trkpt>
      <trkpt lat="44.43264" lon="5.15774">
        <ele>673.06</ele>
        <time>2017-04-30T08:12:27Z</time>
      </trkpt>
      <trkpt lat="44.43258" lon="5.15781">
        <ele>673.54</ele>
        <time>2017-04-30T08:12:35Z</time>
      </trkpt>
      <trkpt lat="44.43245" lon="5.15784">
        <ele>674.98</ele>
        <time>2017-04-30T08:12:48Z</time>
      </trkpt>
      <trkpt lat="44.43228" lon="5.15788">
        <ele>675.46</ele>
        <time>2017-04-30T08:13:03Z</time>
      </trkpt>
      <trkpt lat="44.43207" lon="5.15791">
        <ele>676.42</ele>
        <time>2017-04-30T08:13:21Z</time>
      </trkpt>
      <trkpt lat="44.43198" lon="5.15791">
        <ele>676.42</ele>
        <time>2017-04-30T08:13:28Z</time>
      </trkpt>
      <trkpt lat="44.43191" lon="5.15799">
        <ele>677.39</ele>
        <time>2017-04-30T08:13:36Z</time>
      </trkpt>
      <trkpt lat="44.43174" lon="5.1581">
        <ele>674.98</ele>
        <time>2017-04-30T08:13:54Z</time>
      </trkpt>
      <trkpt lat="44.4316" lon="5.15819">
        <ele>673.54</ele>
        <time>2017-04-30T08:14:09Z</time>
      </trkpt>
      <trkpt lat="44.43144" lon="5.15825">
        <ele>673.06</ele>
        <time>2017-04-30T08:14:24Z</time>
      </trkpt>
      <trkpt lat="44.43139" lon="5.15829">
        <ele>674.5</ele>
        <time>2017-04-30T08:14:29Z</time>
      </trkpt>
      <trkpt lat="44.43122" lon="5.15827">
        <ele>673.06</ele>
        <time>2017-04-30T08:14:45Z</time>
      </trkpt>
      <trkpt lat="44.4311" lon="5.15828">
        <ele>674.5</ele>
        <time>2017-04-30T08:14:56Z</time>
      </trkpt>
      <trkpt lat="44.43093" lon="5.1583">
        <ele>674.5</ele>
        <time>2017-04-30T08:15:09Z</time>
      </trkpt>
      <trkpt lat="44.43079" lon="5.15832">
        <ele>673.06</ele>
        <time>2017-04-30T08:15:20Z</time>
      </trkpt>
      <trkpt lat="44.43078" lon="5.15833">
        <ele>673.06</ele>
        <time>2017-04-30T08:15:21Z</time>
      </trkpt>
      <trkpt lat="44.43055" lon="5.15834">
        <ele>672.1</ele>
        <time>2017-04-30T08:15:40Z</time>
      </trkpt>
      <trkpt lat="44.43039" lon="5.15834">
        <ele>672.58</ele>
        <time>2017-04-30T08:15:54Z</time>
      </trkpt>
      <trkpt lat="44.43023" lon="5.15838">
        <ele>674.02</ele>
        <time>2017-04-30T08:16:09Z</time>
      </trkpt>
      <trkpt lat="44.43004" lon="5.15837">
        <ele>674.5</ele>
        <time>2017-04-30T08:16:24Z</time>
      </trkpt>
      <trkpt lat="44.43" lon="5.15836">
        <ele>674.5</ele>
        <time>2017-04-30T08:16:28Z</time>
      </trkpt>
      <trkpt lat="44.42995" lon="5.15837">
        <ele>674.5</ele>
        <time>2017-04-30T08:16:32Z</time>
      </trkpt>
      <trkpt lat="44.42989" lon="5.15843">
        <ele>676.91</ele>
        <time>2017-04-30T08:16:45Z</time>
      </trkpt>
      <trkpt lat="44.42987" lon="5.15857">
        <ele>678.35</ele>
        <time>2017-04-30T08:16:57Z</time>
      </trkpt>
      <trkpt lat="44.42977" lon="5.1587">
        <ele>679.79</ele>
        <time>2017-04-30T08:17:08Z</time>
      </trkpt>
      <trkpt lat="44.42971" lon="5.15875">
        <ele>681.71</ele>
        <time>2017-04-30T08:17:14Z</time>
      </trkpt>
      <trkpt lat="44.42955" lon="5.15881">
        <ele>681.71</ele>
        <time>2017-04-30T08:17:30Z</time>
      </trkpt>
      <trkpt lat="44.42943" lon="5.15882">
        <ele>682.67</ele>
        <time>2017-04-30T08:17:43Z</time>
      </trkpt>
      <trkpt lat="44.4293" lon="5.15886">
        <ele>684.6</ele>
        <time>2017-04-30T08:17:56Z</time>
      </trkpt>
      <trkpt lat="44.42914" lon="5.15886">
        <ele>686.52</ele>
        <time>2017-04-30T08:18:10Z</time>
      </trkpt>
      <trkpt lat="44.42902" lon="5.15885">
        <ele>688.44</ele>
        <time>2017-04-30T08:18:20Z</time>
      </trkpt>
      <trkpt lat="44.42897" lon="5.15889">
        <ele>688.92</ele>
        <time>2017-04-30T08:18:26Z</time>
      </trkpt>
      <trkpt lat="44.4288" lon="5.159">
        <ele>690.36</ele>
        <time>2017-04-30T08:18:41Z</time>
      </trkpt>
      <trkpt lat="44.42869" lon="5.15902">
        <ele>690.36</ele>
        <time>2017-04-30T08:18:51Z</time>
      </trkpt>
      <trkpt lat="44.42852" lon="5.15907">
        <ele>690.84</ele>
        <time>2017-04-30T08:19:06Z</time>
      </trkpt>
      <trkpt lat="44.42843" lon="5.15906">
        <ele>692.29</ele>
        <time>2017-04-30T08:19:22Z</time>
      </trkpt>
      <trkpt lat="44.42841" lon="5.15905">
        <ele>692.29</ele>
        <time>2017-04-30T08:19:27Z</time>
      </trkpt>
      <trkpt lat="44.42833" lon="5.15899">
        <ele>692.29</ele>
        <time>2017-04-30T08:19:41Z</time>
      </trkpt>
      <trkpt lat="44.4283" lon="5.15899">
        <ele>692.77</ele>
        <time>2017-04-30T08:19:46Z</time>
      </trkpt>
      <trkpt lat="44.42819" lon="5.15888">
        <ele>693.25</ele>
        <time>2017-04-30T08:20:00Z</time>
      </trkpt>
      <trkpt lat="44.42812" lon="5.15876">
        <ele>693.25</ele>
        <time>2017-04-30T08:20:14Z</time>
      </trkpt>
      <trkpt lat="44.42809" lon="5.15863">
        <ele>693.25</ele>
        <time>2017-04-30T08:20:27Z</time>
      </trkpt>
      <trkpt lat="44.42812" lon="5.15859">
        <ele>694.21</ele>
        <time>2017-04-30T08:21:19Z</time>
      </trkpt>
      <trkpt lat="44.42817" lon="5.15853">
        <ele>696.13</ele>
        <time>2017-04-30T08:21:29Z</time>
      </trkpt>
      <trkpt lat="44.42822" lon="5.15849">
        <ele>699.5</ele>
        <time>2017-04-30T08:21:37Z</time>
      </trkpt>
      <trkpt lat="44.42828" lon="5.15844">
        <ele>698.05</ele>
        <time>2017-04-30T08:21:48Z</time>
      </trkpt>
      <trkpt lat="44.42839" lon="5.15837">
        <ele>700.46</ele>
        <time>2017-04-30T08:22:02Z</time>
      </trkpt>
      <trkpt lat="44.42846" lon="5.15827">
        <ele>701.9</ele>
        <time>2017-04-30T08:22:17Z</time>
      </trkpt>
      <trkpt lat="44.42853" lon="5.15819">
        <ele>702.86</ele>
        <time>2017-04-30T08:22:29Z</time>
      </trkpt>
      <trkpt lat="44.42859" lon="5.15811">
        <ele>703.34</ele>
        <time>2017-04-30T08:22:40Z</time>
      </trkpt>
      <trkpt lat="44.42863" lon="5.15806">
        <ele>705.26</ele>
        <time>2017-04-30T08:22:47Z</time>
      </trkpt>
      <trkpt lat="44.42869" lon="5.15799">
        <ele>705.75</ele>
        <time>2017-04-30T08:22:56Z</time>
      </trkpt>
      <trkpt lat="44.42871" lon="5.15794">
        <ele>707.19</ele>
        <time>2017-04-30T08:23:08Z</time>
      </trkpt>
      <trkpt lat="44.42873" lon="5.15789">
        <ele>707.19</ele>
        <time>2017-04-30T08:23:24Z</time>
      </trkpt>
      <trkpt lat="44.42878" lon="5.15784">
        <ele>707.67</ele>
        <time>2017-04-30T08:23:43Z</time>
      </trkpt>
      <trkpt lat="44.42882" lon="5.15781">
        <ele>707.67</ele>
        <time>2017-04-30T08:23:58Z</time>
      </trkpt>
      <trkpt lat="44.42889" lon="5.15776">
        <ele>708.15</ele>
        <time>2017-04-30T08:24:11Z</time>
      </trkpt>
      <trkpt lat="44.42899" lon="5.15765">
        <ele>709.59</ele>
        <time>2017-04-30T08:24:26Z</time>
      </trkpt>
      <trkpt lat="44.429" lon="5.15764">
        <ele>709.59</ele>
        <time>2017-04-30T08:24:27Z</time>
      </trkpt>
      <trkpt lat="44.42906" lon="5.15756">
        <ele>710.07</ele>
        <time>2017-04-30T08:24:36Z</time>
      </trkpt>
      <trkpt lat="44.42915" lon="5.15745">
        <ele>708.63</ele>
        <time>2017-04-30T08:24:47Z</time>
      </trkpt>
      <trkpt lat="44.42922" lon="5.15741">
        <ele>708.15</ele>
        <time>2017-04-30T08:24:53Z</time>
      </trkpt>
      <trkpt lat="44.42925" lon="5.15741">
        <ele>708.15</ele>
        <time>2017-04-30T08:24:55Z</time>
      </trkpt>
      <trkpt lat="44.42943" lon="5.15728">
        <ele>707.19</ele>
        <time>2017-04-30T08:25:11Z</time>
      </trkpt>
      <trkpt lat="44.42944" lon="5.15727">
        <ele>707.19</ele>
        <time>2017-04-30T08:25:12Z</time>
      </trkpt>
      <trkpt lat="44.42968" lon="5.15738">
        <ele>705.26</ele>
        <time>2017-04-30T08:25:29Z</time>
      </trkpt>
      <trkpt lat="44.42985" lon="5.15744">
        <ele>704.3</ele>
        <time>2017-04-30T08:25:45Z</time>
      </trkpt>
      <trkpt lat="44.42987" lon="5.15745">
        <ele>704.3</ele>
        <time>2017-04-30T08:25:48Z</time>
      </trkpt>
      <trkpt lat="44.42994" lon="5.15746">
        <ele>705.75</ele>
        <time>2017-04-30T08:25:59Z</time>
      </trkpt>
      <trkpt lat="44.43007" lon="5.15741">
        <ele>707.67</ele>
        <time>2017-04-30T08:26:12Z</time>
      </trkpt>
      <trkpt lat="44.43022" lon="5.15729">
        <ele>708.15</ele>
        <time>2017-04-30T08:26:28Z</time>
      </trkpt>
      <trkpt lat="44.43024" lon="5.15727">
        <ele>708.15</ele>
        <time>2017-04-30T08:26:30Z</time>
      </trkpt>
      <trkpt lat="44.4304" lon="5.1572">
        <ele>706.71</ele>
        <time>2017-04-30T08:26:45Z</time>
      </trkpt>
      <trkpt lat="44.4305" lon="5.15718">
        <ele>706.23</ele>
        <time>2017-04-30T08:26:55Z</time>
      </trkpt>
      <trkpt lat="44.43056" lon="5.15714">
        <ele>706.23</ele>
        <time>2017-04-30T08:26:59Z</time>
      </trkpt>
      <trkpt lat="44.43065" lon="5.15708">
        <ele>707.67</ele>
        <time>2017-04-30T08:27:05Z</time>
      </trkpt>
      <trkpt lat="44.43071" lon="5.15704">
        <ele>708.63</ele>
        <time>2017-04-30T08:27:10Z</time>
      </trkpt>
      <trkpt lat="44.43072" lon="5.15702">
        <ele>708.63</ele>
        <time>2017-04-30T08:27:12Z</time>
      </trkpt>
      <trkpt lat="44.43082" lon="5.15691">
        <ele>712.47</ele>
        <time>2017-04-30T08:27:26Z</time>
      </trkpt>
      <trkpt lat="44.43091" lon="5.15682">
        <ele>714.88</ele>
        <time>2017-04-30T08:27:39Z</time>
      </trkpt>
      <trkpt lat="44.43098" lon="5.15671">
        <ele>716.32</ele>
        <time>2017-04-30T08:27:51Z</time>
      </trkpt>
      <trkpt lat="44.43105" lon="5.15663">
        <ele>719.2</ele>
        <time>2017-04-30T08:28:02Z</time>
      </trkpt>
      <trkpt lat="44.4312" lon="5.15659">
        <ele>720.16</ele>
        <time>2017-04-30T08:28:16Z</time>
      </trkpt>
      <trkpt lat="44.43129" lon="5.15653">
        <ele>720.65</ele>
        <time>2017-04-30T08:28:29Z</time>
      </trkpt>
      <trkpt lat="44.43141" lon="5.15645">
        <ele>722.09</ele>
        <time>2017-04-30T08:28:44Z</time>
      </trkpt>
      <trkpt lat="44.43153" lon="5.15641">
        <ele>723.05</ele>
        <time>2017-04-30T08:28:56Z</time>
      </trkpt>
      <trkpt lat="44.4317" lon="5.15639">
        <ele>726.41</ele>
        <time>2017-04-30T08:29:11Z</time>
      </trkpt>
      <trkpt lat="44.43182" lon="5.1564">
        <ele>728.82</ele>
        <time>2017-04-30T08:29:25Z</time>
      </trkpt>
      <trkpt lat="44.43188" lon="5.15631">
        <ele>732.18</ele>
        <time>2017-04-30T08:29:37Z</time>
      </trkpt>
      <trkpt lat="44.43195" lon="5.15623">
        <ele>733.62</ele>
        <time>2017-04-30T08:29:49Z</time>
      </trkpt>
      <trkpt lat="44.43202" lon="5.15616">
        <ele>736.99</ele>
        <time>2017-04-30T08:30:00Z</time>
      </trkpt>
      <trkpt lat="44.43203" lon="5.15615">
        <ele>736.99</ele>
        <time>2017-04-30T08:30:01Z</time>
      </trkpt>
      <trkpt lat="44.43207" lon="5.1561">
        <ele>736.99</ele>
        <time>2017-04-30T08:30:09Z</time>
      </trkpt>
      <trkpt lat="44.43218" lon="5.15598">
        <ele>737.47</ele>
        <time>2017-04-30T08:30:24Z</time>
      </trkpt>
      <trkpt lat="44.43221" lon="5.15593">
        <ele>739.87</ele>
        <time>2017-04-30T08:30:30Z</time>
      </trkpt>
      <trkpt lat="44.43225" lon="5.15587">
        <ele>739.87</ele>
        <time>2017-04-30T08:30:38Z</time>
      </trkpt>
      <trkpt lat="44.43233" lon="5.15577">
        <ele>740.35</ele>
        <time>2017-04-30T08:30:49Z</time>
      </trkpt>
      <trkpt lat="44.4324" lon="5.15564">
        <ele>742.76</ele>
        <time>2017-04-30T08:31:02Z</time>
      </trkpt>
      <trkpt lat="44.43244" lon="5.15553">
        <ele>744.68</ele>
        <time>2017-04-30T08:31:15Z</time>
      </trkpt>
      <trkpt lat="44.43248" lon="5.15544">
        <ele>745.64</ele>
        <time>2017-04-30T08:31:28Z</time>
      </trkpt>
      <trkpt lat="44.43254" lon="5.15531">
        <ele>746.12</ele>
        <time>2017-04-30T08:31:44Z</time>
      </trkpt>
      <trkpt lat="44.43259" lon="5.15528">
        <ele>746.6</ele>
        <time>2017-04-30T08:32:03Z</time>
      </trkpt>
      <trkpt lat="44.43267" lon="5.15518">
        <ele>748.04</ele>
        <time>2017-04-30T08:32:17Z</time>
      </trkpt>
      <trkpt lat="44.43266" lon="5.15513">
        <ele>749.49</ele>
        <time>2017-04-30T08:32:29Z</time>
      </trkpt>
      <trkpt lat="44.43264" lon="5.15511">
        <ele>750.45</ele>
        <time>2017-04-30T08:32:45Z</time>
      </trkpt>
      <trkpt lat="44.43262" lon="5.15507">
        <ele>753.33</ele>
        <time>2017-04-30T08:32:53Z</time>
      </trkpt>
      <trkpt lat="44.43257" lon="5.15502">
        <ele>755.73</ele>
        <time>2017-04-30T08:33:07Z</time>
      </trkpt>
      <trkpt lat="44.43251" lon="5.15498">
        <ele>759.1</ele>
        <time>2017-04-30T08:33:19Z</time>
      </trkpt>
      <trkpt lat="44.43246" lon="5.1549">
        <ele>762.46</ele>
        <time>2017-04-30T08:33:35Z</time>
      </trkpt>
      <trkpt lat="44.43242" lon="5.15484">
        <ele>764.87</ele>
        <time>2017-04-30T08:33:50Z</time>
      </trkpt>
      <trkpt lat="44.4324" lon="5.15474">
        <ele>767.75</ele>
        <time>2017-04-30T08:34:03Z</time>
      </trkpt>
      <trkpt lat="44.43242" lon="5.15463">
        <ele>769.67</ele>
        <time>2017-04-30T08:34:19Z</time>
      </trkpt>
      <trkpt lat="44.43247" lon="5.15455">
        <ele>772.56</ele>
        <time>2017-04-30T08:34:34Z</time>
      </trkpt>
      <trkpt lat="44.43252" lon="5.15447">
        <ele>774.96</ele>
        <time>2017-04-30T08:34:51Z</time>
      </trkpt>
      <trkpt lat="44.4326" lon="5.15443">
        <ele>777.84</ele>
        <time>2017-04-30T08:35:05Z</time>
      </trkpt>
      <trkpt lat="44.43263" lon="5.1544">
        <ele>779.77</ele>
        <time>2017-04-30T08:35:13Z</time>
      </trkpt>
      <trkpt lat="44.43268" lon="5.15431">
        <ele>782.65</ele>
        <time>2017-04-30T08:35:27Z</time>
      </trkpt>
      <trkpt lat="44.43268" lon="5.1543">
        <ele>781.21</ele>
        <time>2017-04-30T08:35:29Z</time>
      </trkpt>
      <trkpt lat="44.43267" lon="5.15426">
        <ele>782.65</ele>
        <time>2017-04-30T08:35:33Z</time>
      </trkpt>
      <trkpt lat="44.43267" lon="5.15421">
        <ele>785.05</ele>
        <time>2017-04-30T08:35:39Z</time>
      </trkpt>
      <trkpt lat="44.43262" lon="5.1541">
        <ele>786.02</ele>
        <time>2017-04-30T08:35:55Z</time>
      </trkpt>
      <trkpt lat="44.43256" lon="5.15403">
        <ele>788.42</ele>
        <time>2017-04-30T08:36:09Z</time>
      </trkpt>
      <trkpt lat="44.43249" lon="5.15398">
        <ele>791.78</ele>
        <time>2017-04-30T08:36:22Z</time>
      </trkpt>
      <trkpt lat="44.43249" lon="5.15397">
        <ele>792.26</ele>
        <time>2017-04-30T08:36:23Z</time>
      </trkpt>
      <trkpt lat="44.43242" lon="5.15391">
        <ele>794.67</ele>
        <time>2017-04-30T08:36:37Z</time>
      </trkpt>
      <trkpt lat="44.43237" lon="5.15385">
        <ele>797.55</ele>
        <time>2017-04-30T08:36:50Z</time>
      </trkpt>
      <trkpt lat="44.43232" lon="5.15377">
        <ele>799.95</ele>
        <time>2017-04-30T08:37:07Z</time>
      </trkpt>
      <trkpt lat="44.43226" lon="5.15371">
        <ele>801.88</ele>
        <time>2017-04-30T08:37:22Z</time>
      </trkpt>
      <trkpt lat="44.43219" lon="5.15371">
        <ele>805.24</ele>
        <time>2017-04-30T08:37:32Z</time>
      </trkpt>
      <trkpt lat="44.43212" lon="5.15374">
        <ele>808.13</ele>
        <time>2017-04-30T08:37:46Z</time>
      </trkpt>
      <trkpt lat="44.43202" lon="5.15377">
        <ele>810.05</ele>
        <time>2017-04-30T08:38:04Z</time>
      </trkpt>
      <trkpt lat="44.43195" lon="5.15378">
        <ele>809.57</ele>
        <time>2017-04-30T08:38:14Z</time>
      </trkpt>
      <trkpt lat="44.43191" lon="5.15379">
        <ele>811.01</ele>
        <time>2017-04-30T08:38:20Z</time>
      </trkpt>
      <trkpt lat="44.4318" lon="5.1538">
        <ele>813.89</ele>
        <time>2017-04-30T08:38:36Z</time>
      </trkpt>
      <trkpt lat="44.4317" lon="5.15385">
        <ele>815.82</ele>
        <time>2017-04-30T08:38:53Z</time>
      </trkpt>
      <trkpt lat="44.43164" lon="5.15388">
        <ele>819.18</ele>
        <time>2017-04-30T08:39:06Z</time>
      </trkpt>
      <trkpt lat="44.43154" lon="5.15394">
        <ele>822.06</ele>
        <time>2017-04-30T08:39:22Z</time>
      </trkpt>
      <trkpt lat="44.43152" lon="5.15386">
        <ele>824.47</ele>
        <time>2017-04-30T08:39:37Z</time>
      </trkpt>
      <trkpt lat="44.43152" lon="5.15374">
        <ele>826.87</ele>
        <time>2017-04-30T08:39:55Z</time>
      </trkpt>
      <trkpt lat="44.43153" lon="5.15362">
        <ele>829.76</ele>
        <time>2017-04-30T08:40:12Z</time>
      </trkpt>
      <trkpt lat="44.43154" lon="5.15352">
        <ele>832.16</ele>
        <time>2017-04-30T08:40:28Z</time>
      </trkpt>
      <trkpt lat="44.43157" lon="5.1534">
        <ele>834.56</ele>
        <time>2017-04-30T08:40:43Z</time>
      </trkpt>
      <trkpt lat="44.43161" lon="5.1533">
        <ele>836.96</ele>
        <time>2017-04-30T08:40:58Z</time>
      </trkpt>
      <trkpt lat="44.43165" lon="5.15319">
        <ele>838.41</ele>
        <time>2017-04-30T08:41:13Z</time>
      </trkpt>
      <trkpt lat="44.43168" lon="5.15309">
        <ele>840.81</ele>
        <time>2017-04-30T08:41:27Z</time>
      </trkpt>
      <trkpt lat="44.43171" lon="5.15301">
        <ele>843.69</ele>
        <time>2017-04-30T08:41:40Z</time>
      </trkpt>
      <trkpt lat="44.43174" lon="5.15291">
        <ele>846.1</ele>
        <time>2017-04-30T08:41:55Z</time>
      </trkpt>
      <trkpt lat="44.4318" lon="5.15278">
        <ele>848.5</ele>
        <time>2017-04-30T08:42:11Z</time>
      </trkpt>
      <trkpt lat="44.43183" lon="5.1527">
        <ele>850.9</ele>
        <time>2017-04-30T08:42:25Z</time>
      </trkpt>
      <trkpt lat="44.43184" lon="5.15259">
        <ele>852.35</ele>
        <time>2017-04-30T08:42:40Z</time>
      </trkpt>
      <trkpt lat="44.43187" lon="5.15251">
        <ele>854.27</ele>
        <time>2017-04-30T08:42:56Z</time>
      </trkpt>
      <trkpt lat="44.43192" lon="5.15245">
        <ele>855.71</ele>
        <time>2017-04-30T08:43:14Z</time>
      </trkpt>
      <trkpt lat="44.43194" lon="5.15233">
        <ele>857.63</ele>
        <time>2017-04-30T08:43:34Z</time>
      </trkpt>
      <trkpt lat="44.43196" lon="5.15224">
        <ele>860.52</ele>
        <time>2017-04-30T08:43:49Z</time>
      </trkpt>
      <trkpt lat="44.43195" lon="5.15216">
        <ele>862.44</ele>
        <time>2017-04-30T08:44:04Z</time>
      </trkpt>
      <trkpt lat="44.43197" lon="5.15207">
        <ele>867.25</ele>
        <time>2017-04-30T08:47:05Z</time>
      </trkpt>
      <trkpt lat="44.43203" lon="5.15195">
        <ele>869.17</ele>
        <time>2017-04-30T08:47:20Z</time>
      </trkpt>
      <trkpt lat="44.43211" lon="5.15185">
        <ele>871.57</ele>
        <time>2017-04-30T08:47:35Z</time>
      </trkpt>
      <trkpt lat="44.43217" lon="5.1518">
        <ele>874.94</ele>
        <time>2017-04-30T08:47:45Z</time>
      </trkpt>
      <trkpt lat="44.43221" lon="5.15172">
        <ele>877.82</ele>
        <time>2017-04-30T08:47:59Z</time>
      </trkpt>
      <trkpt lat="44.43224" lon="5.15163">
        <ele>879.74</ele>
        <time>2017-04-30T08:48:14Z</time>
      </trkpt>
      <trkpt lat="44.43227" lon="5.15155">
        <ele>883.11</ele>
        <time>2017-04-30T08:48:25Z</time>
      </trkpt>
      <trkpt lat="44.43223" lon="5.1515">
        <ele>885.03</ele>
        <time>2017-04-30T08:48:42Z</time>
      </trkpt>
      <trkpt lat="44.43215" lon="5.15145">
        <ele>887.43</ele>
        <time>2017-04-30T08:48:58Z</time>
      </trkpt>
      <trkpt lat="44.43208" lon="5.15142">
        <ele>890.32</ele>
        <time>2017-04-30T08:49:13Z</time>
      </trkpt>
      <trkpt lat="44.43203" lon="5.15137">
        <ele>893.2</ele>
        <time>2017-04-30T08:49:28Z</time>
      </trkpt>
      <trkpt lat="44.43198" lon="5.15132">
        <ele>896.57</ele>
        <time>2017-04-30T08:49:43Z</time>
      </trkpt>
      <trkpt lat="44.43193" lon="5.15129">
        <ele>898.49</ele>
        <time>2017-04-30T08:49:55Z</time>
      </trkpt>
      <trkpt lat="44.43187" lon="5.1513">
        <ele>901.37</ele>
        <time>2017-04-30T08:50:10Z</time>
      </trkpt>
      <trkpt lat="44.43179" lon="5.15131">
        <ele>904.26</ele>
        <time>2017-04-30T08:50:28Z</time>
      </trkpt>
      <trkpt lat="44.43174" lon="5.15131">
        <ele>907.62</ele>
        <time>2017-04-30T08:50:46Z</time>
      </trkpt>
      <trkpt lat="44.43182" lon="5.1512">
        <ele>909.06</ele>
        <time>2017-04-30T08:52:35Z</time>
      </trkpt>
      <trkpt lat="44.43188" lon="5.15109">
        <ele>911.47</ele>
        <time>2017-04-30T08:52:53Z</time>
      </trkpt>
      <trkpt lat="44.43192" lon="5.15101">
        <ele>914.83</ele>
        <time>2017-04-30T08:53:07Z</time>
      </trkpt>
      <trkpt lat="44.43199" lon="5.15094">
        <ele>915.79</ele>
        <time>2017-04-30T08:53:22Z</time>
      </trkpt>
      <trkpt lat="44.43203" lon="5.15088">
        <ele>919.16</ele>
        <time>2017-04-30T08:53:33Z</time>
      </trkpt>
      <trkpt lat="44.4321" lon="5.15082">
        <ele>920.12</ele>
        <time>2017-04-30T08:53:48Z</time>
      </trkpt>
      <trkpt lat="44.43215" lon="5.15081">
        <ele>922.04</ele>
        <time>2017-04-30T08:54:02Z</time>
      </trkpt>
      <trkpt lat="44.43221" lon="5.15077">
        <ele>923.48</ele>
        <time>2017-04-30T08:54:16Z</time>
      </trkpt>
      <trkpt lat="44.43226" lon="5.15073">
        <ele>926.85</ele>
        <time>2017-04-30T08:54:31Z</time>
      </trkpt>
      <trkpt lat="44.43234" lon="5.15066">
        <ele>929.73</ele>
        <time>2017-04-30T08:54:47Z</time>
      </trkpt>
      <trkpt lat="44.4324" lon="5.15057">
        <ele>930.69</ele>
        <time>2017-04-30T08:55:05Z</time>
      </trkpt>
      <trkpt lat="44.43246" lon="5.15051">
        <ele>933.1</ele>
        <time>2017-04-30T08:55:19Z</time>
      </trkpt>
      <trkpt lat="44.43248" lon="5.15049">
        <ele>933.58</ele>
        <time>2017-04-30T08:55:42Z</time>
      </trkpt>
      <trkpt lat="44.43254" lon="5.15043">
        <ele>937.42</ele>
        <time>2017-04-30T08:55:55Z</time>
      </trkpt>
      <trkpt lat="44.43265" lon="5.15042">
        <ele>939.83</ele>
        <time>2017-04-30T08:56:10Z</time>
      </trkpt>
      <trkpt lat="44.43276" lon="5.15036">
        <ele>941.75</ele>
        <time>2017-04-30T08:56:26Z</time>
      </trkpt>
      <trkpt lat="44.43286" lon="5.15033">
        <ele>942.23</ele>
        <time>2017-04-30T08:56:39Z</time>
      </trkpt>
      <trkpt lat="44.43296" lon="5.15031">
        <ele>944.15</ele>
        <time>2017-04-30T08:56:54Z</time>
      </trkpt>
      <trkpt lat="44.43305" lon="5.15028">
        <ele>947.52</ele>
        <time>2017-04-30T08:57:06Z</time>
      </trkpt>
      <trkpt lat="44.43307" lon="5.15028">
        <ele>948.48</ele>
        <time>2017-04-30T08:57:08Z</time>
      </trkpt>
      <trkpt lat="44.43312" lon="5.15023">
        <ele>950.88</ele>
        <time>2017-04-30T08:57:23Z</time>
      </trkpt>
      <trkpt lat="44.43319" lon="5.15013">
        <ele>952.32</ele>
        <time>2017-04-30T08:57:38Z</time>
      </trkpt>
      <trkpt lat="44.43325" lon="5.14999">
        <ele>950.4</ele>
        <time>2017-04-30T08:57:53Z</time>
      </trkpt>
      <trkpt lat="44.43335" lon="5.14977">
        <ele>949.44</ele>
        <time>2017-04-30T08:58:10Z</time>
      </trkpt>
      <trkpt lat="44.43335" lon="5.14976">
        <ele>949.44</ele>
        <time>2017-04-30T08:58:11Z</time>
      </trkpt>
      <trkpt lat="44.43338" lon="5.14969">
        <ele>950.4</ele>
        <time>2017-04-30T08:58:18Z</time>
      </trkpt>
      <trkpt lat="44.43343" lon="5.14951">
        <ele>951.36</ele>
        <time>2017-04-30T08:58:33Z</time>
      </trkpt>
      <trkpt lat="44.43345" lon="5.14939">
        <ele>952.8</ele>
        <time>2017-04-30T08:58:49Z</time>
      </trkpt>
      <trkpt lat="44.43347" lon="5.14923">
        <ele>952.8</ele>
        <time>2017-04-30T08:59:06Z</time>
      </trkpt>
      <trkpt lat="44.4335" lon="5.14906">
        <ele>955.69</ele>
        <time>2017-04-30T08:59:19Z</time>
      </trkpt>
      <trkpt lat="44.43349" lon="5.14899">
        <ele>952.32</ele>
        <time>2017-04-30T08:59:25Z</time>
      </trkpt>
      <trkpt lat="44.43351" lon="5.14886">
        <ele>956.17</ele>
        <time>2017-04-30T08:59:36Z</time>
      </trkpt>
      <trkpt lat="44.43352" lon="5.14883">
        <ele>957.13</ele>
        <time>2017-04-30T08:59:38Z</time>
      </trkpt>
      <trkpt lat="44.43354" lon="5.14869">
        <ele>958.09</ele>
        <time>2017-04-30T08:59:53Z</time>
      </trkpt>
      <trkpt lat="44.43353" lon="5.14857">
        <ele>958.57</ele>
        <time>2017-04-30T09:00:09Z</time>
      </trkpt>
      <trkpt lat="44.43353" lon="5.14847">
        <ele>960.98</ele>
        <time>2017-04-30T09:00:23Z</time>
      </trkpt>
      <trkpt lat="44.43356" lon="5.14836">
        <ele>961.94</ele>
        <time>2017-04-30T09:00:38Z</time>
      </trkpt>
      <trkpt lat="44.43356" lon="5.14825">
        <ele>962.9</ele>
        <time>2017-04-30T09:00:50Z</time>
      </trkpt>
      <trkpt lat="44.4336" lon="5.14806">
        <ele>963.86</ele>
        <time>2017-04-30T09:01:05Z</time>
      </trkpt>
      <trkpt lat="44.43363" lon="5.14796">
        <ele>963.86</ele>
        <time>2017-04-30T09:01:19Z</time>
      </trkpt>
      <trkpt lat="44.4337" lon="5.14791">
        <ele>966.26</ele>
        <time>2017-04-30T09:01:34Z</time>
      </trkpt>
      <trkpt lat="44.43377" lon="5.14792">
        <ele>968.18</ele>
        <time>2017-04-30T09:01:47Z</time>
      </trkpt>
      <trkpt lat="44.43385" lon="5.14792">
        <ele>970.11</ele>
        <time>2017-04-30T09:02:03Z</time>
      </trkpt>
      <trkpt lat="44.43394" lon="5.14786">
        <ele>972.03</ele>
        <time>2017-04-30T09:02:18Z</time>
      </trkpt>
      <trkpt lat="44.43402" lon="5.14777">
        <ele>974.91</ele>
        <time>2017-04-30T09:02:34Z</time>
      </trkpt>
      <trkpt lat="44.43409" lon="5.14771">
        <ele>975.39</ele>
        <time>2017-04-30T09:02:47Z</time>
      </trkpt>
      <trkpt lat="44.43409" lon="5.14769">
        <ele>977.32</ele>
        <time>2017-04-30T09:03:11Z</time>
      </trkpt>
      <trkpt lat="44.43408" lon="5.14769">
        <ele>976.84</ele>
        <time>2017-04-30T09:03:39Z</time>
      </trkpt>
      <trkpt lat="44.43409" lon="5.14769">
        <ele>978.76</ele>
        <time>2017-04-30T09:03:56Z</time>
      </trkpt>
      <trkpt lat="44.43409" lon="5.14769">
        <ele>978.28</ele>
        <time>2017-04-30T09:04:26Z</time>
      </trkpt>
      <trkpt lat="44.43403" lon="5.14767">
        <ele>977.8</ele>
        <time>2017-04-30T09:04:41Z</time>
      </trkpt>
      <trkpt lat="44.43398" lon="5.14765">
        <ele>979.24</ele>
        <time>2017-04-30T09:04:58Z</time>
      </trkpt>
      <trkpt lat="44.43396" lon="5.14766">
        <ele>980.68</ele>
        <time>2017-04-30T09:05:03Z</time>
      </trkpt>
      <trkpt lat="44.4339" lon="5.14768">
        <ele>983.09</ele>
        <time>2017-04-30T09:05:12Z</time>
      </trkpt>
      <trkpt lat="44.43381" lon="5.14765">
        <ele>985.49</ele>
        <time>2017-04-30T09:05:28Z</time>
      </trkpt>
      <trkpt lat="44.43375" lon="5.14759">
        <ele>988.37</ele>
        <time>2017-04-30T09:05:41Z</time>
      </trkpt>
      <trkpt lat="44.43368" lon="5.14757">
        <ele>991.74</ele>
        <time>2017-04-30T09:05:53Z</time>
      </trkpt>
      <trkpt lat="44.43358" lon="5.14753">
        <ele>994.14</ele>
        <time>2017-04-30T09:06:09Z</time>
      </trkpt>
      <trkpt lat="44.43351" lon="5.14752">
        <ele>995.1</ele>
        <time>2017-04-30T09:06:22Z</time>
      </trkpt>
      <trkpt lat="44.43342" lon="5.14756">
        <ele>995.58</ele>
        <time>2017-04-30T09:06:36Z</time>
      </trkpt>
      <trkpt lat="44.43339" lon="5.14761">
        <ele>998.95</ele>
        <time>2017-04-30T09:06:44Z</time>
      </trkpt>
      <trkpt lat="44.43338" lon="5.14761">
        <ele>998.95</ele>
        <time>2017-04-30T09:06:45Z</time>
      </trkpt>
      <trkpt lat="44.43332" lon="5.14771">
        <ele>1001.83</ele>
        <time>2017-04-30T09:06:59Z</time>
      </trkpt>
      <trkpt lat="44.43329" lon="5.14776">
        <ele>1000.39</ele>
        <time>2017-04-30T09:07:10Z</time>
      </trkpt>
      <trkpt lat="44.43326" lon="5.14777">
        <ele>1003.75</ele>
        <time>2017-04-30T09:07:19Z</time>
      </trkpt>
      <trkpt lat="44.43326" lon="5.14779">
        <ele>1007.12</ele>
        <time>2017-04-30T09:07:23Z</time>
      </trkpt>
      <trkpt lat="44.43326" lon="5.14779">
        <ele>1007.12</ele>
        <time>2017-04-30T09:07:24Z</time>
      </trkpt>
      <trkpt lat="44.43321" lon="5.14777">
        <ele>1009.04</ele>
        <time>2017-04-30T09:07:41Z</time>
      </trkpt>
      <trkpt lat="44.43319" lon="5.14779">
        <ele>1010.96</ele>
        <time>2017-04-30T09:07:55Z</time>
      </trkpt>
      <trkpt lat="44.43318" lon="5.14779">
        <ele>1010.48</ele>
        <time>2017-04-30T09:08:13Z</time>
      </trkpt>
      <trkpt lat="44.43316" lon="5.14776">
        <ele>1013.37</ele>
        <time>2017-04-30T09:08:30Z</time>
      </trkpt>
      <trkpt lat="44.43313" lon="5.14776">
        <ele>1015.77</ele>
        <time>2017-04-30T09:08:45Z</time>
      </trkpt>
      <trkpt lat="44.4331" lon="5.1478">
        <ele>1018.65</ele>
        <time>2017-04-30T09:09:02Z</time>
      </trkpt>
      <trkpt lat="44.43307" lon="5.14781">
        <ele>1021.06</ele>
        <time>2017-04-30T09:09:13Z</time>
      </trkpt>
      <trkpt lat="44.43305" lon="5.14784">
        <ele>1023.94</ele>
        <time>2017-04-30T09:09:27Z</time>
      </trkpt>
      <trkpt lat="44.43302" lon="5.14788">
        <ele>1025.86</ele>
        <time>2017-04-30T09:09:41Z</time>
      </trkpt>
      <trkpt lat="44.433" lon="5.14787">
        <ele>1025.38</ele>
        <time>2017-04-30T09:09:53Z</time>
      </trkpt>
      <trkpt lat="44.43299" lon="5.14785">
        <ele>1026.83</ele>
        <time>2017-04-30T09:10:00Z</time>
      </trkpt>
      <trkpt lat="44.43299" lon="5.14789">
        <ele>1026.34</ele>
        <time>2017-04-30T09:10:12Z</time>
      </trkpt>
      <trkpt lat="44.43299" lon="5.14789">
        <ele>1026.34</ele>
        <time>2017-04-30T09:10:13Z</time>
      </trkpt>
      <trkpt lat="44.433" lon="5.14795">
        <ele>1025.38</ele>
        <time>2017-04-30T09:10:26Z</time>
      </trkpt>
      <trkpt lat="44.43299" lon="5.14794">
        <ele>1026.34</ele>
        <time>2017-04-30T09:10:37Z</time>
      </trkpt>
      <trkpt lat="44.43299" lon="5.14794">
        <ele>1028.27</ele>
        <time>2017-04-30T09:10:52Z</time>
      </trkpt>
      <trkpt lat="44.43297" lon="5.14797">
        <ele>1028.75</ele>
        <time>2017-04-30T09:11:02Z</time>
      </trkpt>
      <trkpt lat="44.43294" lon="5.14802">
        <ele>1031.15</ele>
        <time>2017-04-30T09:11:18Z</time>
      </trkpt>
      <trkpt lat="44.43291" lon="5.14803">
        <ele>1034.52</ele>
        <time>2017-04-30T09:11:26Z</time>
      </trkpt>
      <trkpt lat="44.43291" lon="5.14802">
        <ele>1034.52</ele>
        <time>2017-04-30T09:11:27Z</time>
      </trkpt>
      <trkpt lat="44.4329" lon="5.14803">
        <ele>1032.59</ele>
        <time>2017-04-30T09:11:30Z</time>
      </trkpt>
      <trkpt lat="44.43288" lon="5.14804">
        <ele>1035.48</ele>
        <time>2017-04-30T09:11:38Z</time>
      </trkpt>
      <trkpt lat="44.43286" lon="5.14805">
        <ele>1037.88</ele>
        <time>2017-04-30T09:11:43Z</time>
      </trkpt>
      <trkpt lat="44.43286" lon="5.14805">
        <ele>1036.44</ele>
        <time>2017-04-30T09:11:45Z</time>
      </trkpt>
      <trkpt lat="44.43284" lon="5.14806">
        <ele>1037.88</ele>
        <time>2017-04-30T09:11:51Z</time>
      </trkpt>
      <trkpt lat="44.43279" lon="5.14805">
        <ele>1041.73</ele>
        <time>2017-04-30T09:12:04Z</time>
      </trkpt>
      <trkpt lat="44.43277" lon="5.14802">
        <ele>1040.76</ele>
        <time>2017-04-30T09:12:14Z</time>
      </trkpt>
      <trkpt lat="44.43276" lon="5.14802">
        <ele>1044.13</ele>
        <time>2017-04-30T09:12:19Z</time>
      </trkpt>
      <trkpt lat="44.43275" lon="5.14802">
        <ele>1044.13</ele>
        <time>2017-04-30T09:12:20Z</time>
      </trkpt>
      <trkpt lat="44.43272" lon="5.14797">
        <ele>1044.13</ele>
        <time>2017-04-30T09:17:49Z</time>
      </trkpt>
      <trkpt lat="44.4327" lon="5.14793">
        <ele>1044.13</ele>
        <time>2017-04-30T09:18:04Z</time>
      </trkpt>
      <trkpt lat="44.43271" lon="5.14793">
        <ele>1046.53</ele>
        <time>2017-04-30T09:18:08Z</time>
      </trkpt>
      <trkpt lat="44.4327" lon="5.14791">
        <ele>1045.09</ele>
        <time>2017-04-30T09:18:15Z</time>
      </trkpt>
      <trkpt lat="44.4327" lon="5.14785">
        <ele>1044.61</ele>
        <time>2017-04-30T09:18:31Z</time>
      </trkpt>
      <trkpt lat="44.43266" lon="5.14784">
        <ele>1047.01</ele>
        <time>2017-04-30T09:18:47Z</time>
      </trkpt>
      <trkpt lat="44.43262" lon="5.14779">
        <ele>1049.42</ele>
        <time>2017-04-30T09:19:03Z</time>
      </trkpt>
      <trkpt lat="44.43258" lon="5.14771">
        <ele>1051.34</ele>
        <time>2017-04-30T09:19:19Z</time>
      </trkpt>
      <trkpt lat="44.43256" lon="5.14758">
        <ele>1053.74</ele>
        <time>2017-04-30T09:19:33Z</time>
      </trkpt>
      <trkpt lat="44.43253" lon="5.14746">
        <ele>1055.67</ele>
        <time>2017-04-30T09:19:48Z</time>
      </trkpt>
      <trkpt lat="44.43252" lon="5.14735">
        <ele>1057.59</ele>
        <time>2017-04-30T09:20:02Z</time>
      </trkpt>
      <trkpt lat="44.43252" lon="5.14729">
        <ele>1062.39</ele>
        <time>2017-04-30T09:20:14Z</time>
      </trkpt>
      <trkpt lat="44.43252" lon="5.14728">
        <ele>1062.39</ele>
        <time>2017-04-30T09:20:15Z</time>
      </trkpt>
      <trkpt lat="44.43253" lon="5.14727">
        <ele>1060.47</ele>
        <time>2017-04-30T09:20:17Z</time>
      </trkpt>
      <trkpt lat="44.43254" lon="5.14725">
        <ele>1061.91</ele>
        <time>2017-04-30T09:20:21Z</time>
      </trkpt>
      <trkpt lat="44.43255" lon="5.14722">
        <ele>1063.84</ele>
        <time>2017-04-30T09:20:25Z</time>
      </trkpt>
      <trkpt lat="44.43256" lon="5.14719">
        <ele>1065.76</ele>
        <time>2017-04-30T09:20:29Z</time>
      </trkpt>
      <trkpt lat="44.43258" lon="5.14716">
        <ele>1064.32</ele>
        <time>2017-04-30T09:20:34Z</time>
      </trkpt>
      <trkpt lat="44.43263" lon="5.14703">
        <ele>1061.91</ele>
        <time>2017-04-30T09:20:50Z</time>
      </trkpt>
      <trkpt lat="44.43261" lon="5.14696">
        <ele>1064.8</ele>
        <time>2017-04-30T09:20:57Z</time>
      </trkpt>
      <trkpt lat="44.43261" lon="5.14693">
        <ele>1063.36</ele>
        <time>2017-04-30T09:21:01Z</time>
      </trkpt>
      <trkpt lat="44.43262" lon="5.14687">
        <ele>1064.32</ele>
        <time>2017-04-30T09:21:19Z</time>
      </trkpt>
      <trkpt lat="44.43262" lon="5.14687">
        <ele>1065.76</ele>
        <time>2017-04-30T09:21:23Z</time>
      </trkpt>
      <trkpt lat="44.43262" lon="5.14683">
        <ele>1061.43</ele>
        <time>2017-04-30T09:24:28Z</time>
      </trkpt>
      <trkpt lat="44.43261" lon="5.14679">
        <ele>1059.99</ele>
        <time>2017-04-30T09:24:33Z</time>
      </trkpt>
      <trkpt lat="44.43258" lon="5.14669">
        <ele>1059.03</ele>
        <time>2017-04-30T09:24:46Z</time>
      </trkpt>
      <trkpt lat="44.43256" lon="5.14667">
        <ele>1058.55</ele>
        <time>2017-04-30T09:25:12Z</time>
      </trkpt>
      <trkpt lat="44.43248" lon="5.14662">
        <ele>1062.87</ele>
        <time>2017-04-30T09:25:26Z</time>
      </trkpt>
      <trkpt lat="44.43247" lon="5.14662">
        <ele>1062.87</ele>
        <time>2017-04-30T09:25:27Z</time>
      </trkpt>
      <trkpt lat="44.43245" lon="5.14661">
        <ele>1061.43</ele>
        <time>2017-04-30T09:25:35Z</time>
      </trkpt>
      <trkpt lat="44.43242" lon="5.14659">
        <ele>1062.87</ele>
        <time>2017-04-30T09:25:40Z</time>
      </trkpt>
      <trkpt lat="44.43233" lon="5.14655">
        <ele>1065.76</ele>
        <time>2017-04-30T09:25:55Z</time>
      </trkpt>
      <trkpt lat="44.43226" lon="5.14655">
        <ele>1069.12</ele>
        <time>2017-04-30T09:26:07Z</time>
      </trkpt>
      <trkpt lat="44.43224" lon="5.14655">
        <ele>1072.01</ele>
        <time>2017-04-30T09:26:11Z</time>
      </trkpt>
      <trkpt lat="44.43223" lon="5.14655">
        <ele>1072.01</ele>
        <time>2017-04-30T09:26:12Z</time>
      </trkpt>
      <trkpt lat="44.43213" lon="5.14653">
        <ele>1072.97</ele>
        <time>2017-04-30T09:26:30Z</time>
      </trkpt>
      <trkpt lat="44.43207" lon="5.14657">
        <ele>1073.93</ele>
        <time>2017-04-30T09:26:47Z</time>
      </trkpt>
      <trkpt lat="44.43203" lon="5.14666">
        <ele>1076.81</ele>
        <time>2017-04-30T09:27:02Z</time>
      </trkpt>
      <trkpt lat="44.43203" lon="5.14667">
        <ele>1077.78</ele>
        <time>2017-04-30T09:27:04Z</time>
      </trkpt>
      <trkpt lat="44.432" lon="5.14673">
        <ele>1080.66</ele>
        <time>2017-04-30T09:27:16Z</time>
      </trkpt>
      <trkpt lat="44.43194" lon="5.14683">
        <ele>1084.02</ele>
        <time>2017-04-30T09:27:34Z</time>
      </trkpt>
      <trkpt lat="44.43191" lon="5.1469">
        <ele>1086.43</ele>
        <time>2017-04-30T09:27:51Z</time>
      </trkpt>
      <trkpt lat="44.43189" lon="5.14699">
        <ele>1089.79</ele>
        <time>2017-04-30T09:28:03Z</time>
      </trkpt>
      <trkpt lat="44.43184" lon="5.1471">
        <ele>1092.68</ele>
        <time>2017-04-30T09:28:23Z</time>
      </trkpt>
      <trkpt lat="44.43173" lon="5.14712">
        <ele>1096.04</ele>
        <time>2017-04-30T09:28:40Z</time>
      </trkpt>
      <trkpt lat="44.43168" lon="5.14715">
        <ele>1098.92</ele>
        <time>2017-04-30T09:28:54Z</time>
      </trkpt>
      <trkpt lat="44.43166" lon="5.14719">
        <ele>1101.81</ele>
        <time>2017-04-30T09:29:09Z</time>
      </trkpt>
      <trkpt lat="44.43159" lon="5.14724">
        <ele>1104.69</ele>
        <time>2017-04-30T09:29:28Z</time>
      </trkpt>
      <trkpt lat="44.43156" lon="5.14731">
        <ele>1107.58</ele>
        <time>2017-04-30T09:29:44Z</time>
      </trkpt>
      <trkpt lat="44.43151" lon="5.14737">
        <ele>1110.46</ele>
        <time>2017-04-30T09:29:58Z</time>
      </trkpt>
      <trkpt lat="44.43151" lon="5.14738">
        <ele>1113.82</ele>
        <time>2017-04-30T09:30:01Z</time>
      </trkpt>
      <trkpt lat="44.43151" lon="5.14738">
        <ele>1113.82</ele>
        <time>2017-04-30T09:30:02Z</time>
      </trkpt>
      <trkpt lat="44.4315" lon="5.14739">
        <ele>1111.9</ele>
        <time>2017-04-30T09:30:04Z</time>
      </trkpt>
      <trkpt lat="44.43149" lon="5.1474">
        <ele>1116.23</ele>
        <time>2017-04-30T09:30:07Z</time>
      </trkpt>
      <trkpt lat="44.43148" lon="5.14741">
        <ele>1116.23</ele>
        <time>2017-04-30T09:30:08Z</time>
      </trkpt>
      <trkpt lat="44.43145" lon="5.14744">
        <ele>1113.34</ele>
        <time>2017-04-30T09:30:13Z</time>
      </trkpt>
      <trkpt lat="44.43141" lon="5.14748">
        <ele>1116.23</ele>
        <time>2017-04-30T09:30:23Z</time>
      </trkpt>
      <trkpt lat="44.43137" lon="5.14753">
        <ele>1120.55</ele>
        <time>2017-04-30T09:30:36Z</time>
      </trkpt>
      <trkpt lat="44.43137" lon="5.14754">
        <ele>1120.55</ele>
        <time>2017-04-30T09:30:37Z</time>
      </trkpt>
      <trkpt lat="44.43136" lon="5.14755">
        <ele>1123.44</ele>
        <time>2017-04-30T09:30:39Z</time>
      </trkpt>
      <trkpt lat="44.43136" lon="5.14755">
        <ele>1123.44</ele>
        <time>2017-04-30T09:30:40Z</time>
      </trkpt>
      <trkpt lat="44.43136" lon="5.14756">
        <ele>1120.55</ele>
        <time>2017-04-30T09:30:42Z</time>
      </trkpt>
      <trkpt lat="44.43135" lon="5.14757">
        <ele>1115.75</ele>
        <time>2017-04-30T09:30:44Z</time>
      </trkpt>
      <trkpt lat="44.43134" lon="5.14757">
        <ele>1116.23</ele>
        <time>2017-04-30T09:30:45Z</time>
      </trkpt>
      <trkpt lat="44.43134" lon="5.14758">
        <ele>1118.15</ele>
        <time>2017-04-30T09:30:47Z</time>
      </trkpt>
      <trkpt lat="44.43131" lon="5.14758">
        <ele>1121.03</ele>
        <time>2017-04-30T09:30:51Z</time>
      </trkpt>
      <trkpt lat="44.43125" lon="5.14763">
        <ele>1126.32</ele>
        <time>2017-04-30T09:31:04Z</time>
      </trkpt>
      <trkpt lat="44.43124" lon="5.14764">
        <ele>1133.05</ele>
        <time>2017-04-30T09:31:07Z</time>
      </trkpt>
      <trkpt lat="44.43124" lon="5.14765">
        <ele>1127.28</ele>
        <time>2017-04-30T09:31:08Z</time>
      </trkpt>
      <trkpt lat="44.43124" lon="5.14765">
        <ele>1122.48</ele>
        <time>2017-04-30T09:31:10Z</time>
      </trkpt>
      <trkpt lat="44.43124" lon="5.14765">
        <ele>1122.48</ele>
        <time>2017-04-30T09:31:11Z</time>
      </trkpt>
      <trkpt lat="44.43123" lon="5.14765">
        <ele>1125.36</ele>
        <time>2017-04-30T09:31:13Z</time>
      </trkpt>
      <trkpt lat="44.43123" lon="5.14765">
        <ele>1125.36</ele>
        <time>2017-04-30T09:31:14Z</time>
      </trkpt>
      <trkpt lat="44.43124" lon="5.14765">
        <ele>1123.92</ele>
        <time>2017-04-30T09:31:18Z</time>
      </trkpt>
      <trkpt lat="44.43122" lon="5.14763">
        <ele>1123.92</ele>
        <time>2017-04-30T09:31:25Z</time>
      </trkpt>
      <trkpt lat="44.43119" lon="5.14762">
        <ele>1125.36</ele>
        <time>2017-04-30T09:31:29Z</time>
      </trkpt>
      <trkpt lat="44.43117" lon="5.14763">
        <ele>1123.44</ele>
        <time>2017-04-30T09:31:31Z</time>
      </trkpt>
      <trkpt lat="44.43117" lon="5.14763">
        <ele>1125.36</ele>
        <time>2017-04-30T09:31:34Z</time>
      </trkpt>
      <trkpt lat="44.43115" lon="5.14762">
        <ele>1122</ele>
        <time>2017-04-30T09:31:36Z</time>
      </trkpt>
      <trkpt lat="44.43114" lon="5.14761">
        <ele>1124.4</ele>
        <time>2017-04-30T09:31:39Z</time>
      </trkpt>
      <trkpt lat="44.43108" lon="5.14756">
        <ele>1125.84</ele>
        <time>2017-04-30T09:31:48Z</time>
      </trkpt>
      <trkpt lat="44.43098" lon="5.14748">
        <ele>1127.76</ele>
        <time>2017-04-30T09:32:04Z</time>
      </trkpt>
      <trkpt lat="44.4309" lon="5.14742">
        <ele>1131.13</ele>
        <time>2017-04-30T09:32:14Z</time>
      </trkpt>
      <trkpt lat="44.43089" lon="5.14741">
        <ele>1131.13</ele>
        <time>2017-04-30T09:32:15Z</time>
      </trkpt>
      <trkpt lat="44.43086" lon="5.14739">
        <ele>1131.13</ele>
        <time>2017-04-30T09:32:19Z</time>
      </trkpt>
      <trkpt lat="44.43079" lon="5.14733">
        <ele>1131.61</ele>
        <time>2017-04-30T09:32:29Z</time>
      </trkpt>
      <trkpt lat="44.43078" lon="5.14731">
        <ele>1132.57</ele>
        <time>2017-04-30T09:32:31Z</time>
      </trkpt>
      <trkpt lat="44.43076" lon="5.1473">
        <ele>1128.73</ele>
        <time>2017-04-30T09:32:33Z</time>
      </trkpt>
      <trkpt lat="44.43074" lon="5.14729">
        <ele>1125.84</ele>
        <time>2017-04-30T09:32:35Z</time>
      </trkpt>
      <trkpt lat="44.43073" lon="5.14728">
        <ele>1125.84</ele>
        <time>2017-04-30T09:32:36Z</time>
      </trkpt>
      <trkpt lat="44.43071" lon="5.14726">
        <ele>1126.32</ele>
        <time>2017-04-30T09:32:38Z</time>
      </trkpt>
      <trkpt lat="44.43066" lon="5.14724">
        <ele>1130.65</ele>
        <time>2017-04-30T09:32:43Z</time>
      </trkpt>
      <trkpt lat="44.43065" lon="5.14723">
        <ele>1124.88</ele>
        <time>2017-04-30T09:32:44Z</time>
      </trkpt>
      <trkpt lat="44.43063" lon="5.14721">
        <ele>1130.65</ele>
        <time>2017-04-30T09:32:47Z</time>
      </trkpt>
      <trkpt lat="44.43061" lon="5.1472">
        <ele>1129.21</ele>
        <time>2017-04-30T09:32:48Z</time>
      </trkpt>
      <trkpt lat="44.43056" lon="5.14717">
        <ele>1129.69</ele>
        <time>2017-04-30T09:32:54Z</time>
      </trkpt>
      <trkpt lat="44.43054" lon="5.14715">
        <ele>1128.24</ele>
        <time>2017-04-30T09:32:57Z</time>
      </trkpt>
      <trkpt lat="44.43052" lon="5.14715">
        <ele>1130.17</ele>
        <time>2017-04-30T09:32:59Z</time>
      </trkpt>
      <trkpt lat="44.43049" lon="5.14713">
        <ele>1127.28</ele>
        <time>2017-04-30T09:33:03Z</time>
      </trkpt>
      <trkpt lat="44.4304" lon="5.14705">
        <ele>1128.24</ele>
        <time>2017-04-30T09:33:14Z</time>
      </trkpt>
      <trkpt lat="44.43038" lon="5.14703">
        <ele>1129.21</ele>
        <time>2017-04-30T09:33:17Z</time>
      </trkpt>
      <trkpt lat="44.43032" lon="5.14696">
        <ele>1129.21</ele>
        <time>2017-04-30T09:33:25Z</time>
      </trkpt>
      <trkpt lat="44.43023" lon="5.14684">
        <ele>1130.17</ele>
        <time>2017-04-30T09:33:38Z</time>
      </trkpt>
      <trkpt lat="44.43015" lon="5.14672">
        <ele>1131.61</ele>
        <time>2017-04-30T09:33:50Z</time>
      </trkpt>
      <trkpt lat="44.43012" lon="5.14667">
        <ele>1132.09</ele>
        <time>2017-04-30T09:33:56Z</time>
      </trkpt>
      <trkpt lat="44.43003" lon="5.14653">
        <ele>1134.49</ele>
        <time>2017-04-30T09:34:11Z</time>
      </trkpt>
      <trkpt lat="44.42995" lon="5.14639">
        <ele>1136.9</ele>
        <time>2017-04-30T09:34:26Z</time>
      </trkpt>
      <trkpt lat="44.42988" lon="5.14626">
        <ele>1139.3</ele>
        <time>2017-04-30T09:34:41Z</time>
      </trkpt>
      <trkpt lat="44.42987" lon="5.14624">
        <ele>1140.74</ele>
        <time>2017-04-30T09:34:43Z</time>
      </trkpt>
      <trkpt lat="44.4298" lon="5.14611">
        <ele>1142.18</ele>
        <time>2017-04-30T09:34:58Z</time>
      </trkpt>
      <trkpt lat="44.42973" lon="5.14599">
        <ele>1144.59</ele>
        <time>2017-04-30T09:35:13Z</time>
      </trkpt>
      <trkpt lat="44.42972" lon="5.14597">
        <ele>1146.51</ele>
        <time>2017-04-30T09:35:15Z</time>
      </trkpt>
      <trkpt lat="44.42968" lon="5.14592">
        <ele>1149.87</ele>
        <time>2017-04-30T09:35:22Z</time>
      </trkpt>
      <trkpt lat="44.42968" lon="5.14591">
        <ele>1149.87</ele>
        <time>2017-04-30T09:35:23Z</time>
      </trkpt>
      <trkpt lat="44.42967" lon="5.14589">
        <ele>1148.91</ele>
        <time>2017-04-30T09:35:25Z</time>
      </trkpt>
      <trkpt lat="44.42962" lon="5.14582">
        <ele>1149.87</ele>
        <time>2017-04-30T09:35:35Z</time>
      </trkpt>
      <trkpt lat="44.42957" lon="5.14571">
        <ele>1153.24</ele>
        <time>2017-04-30T09:35:48Z</time>
      </trkpt>
      <trkpt lat="44.4295" lon="5.14563">
        <ele>1151.8</ele>
        <time>2017-04-30T09:36:03Z</time>
      </trkpt>
      <trkpt lat="44.42945" lon="5.14558">
        <ele>1153.24</ele>
        <time>2017-04-30T09:36:15Z</time>
      </trkpt>
      <trkpt lat="44.42936" lon="5.14546">
        <ele>1154.2</ele>
        <time>2017-04-30T09:36:31Z</time>
      </trkpt>
      <trkpt lat="44.42932" lon="5.14535">
        <ele>1154.68</ele>
        <time>2017-04-30T09:36:46Z</time>
      </trkpt>
      <trkpt lat="44.42928" lon="5.14528">
        <ele>1156.6</ele>
        <time>2017-04-30T09:36:59Z</time>
      </trkpt>
      <trkpt lat="44.42928" lon="5.14526">
        <ele>1156.12</ele>
        <time>2017-04-30T09:37:14Z</time>
      </trkpt>
      <trkpt lat="44.42926" lon="5.14521">
        <ele>1154.68</ele>
        <time>2017-04-30T09:37:35Z</time>
      </trkpt>
      <trkpt lat="44.42921" lon="5.14508">
        <ele>1154.68</ele>
        <time>2017-04-30T09:37:48Z</time>
      </trkpt>
      <trkpt lat="44.42913" lon="5.14488">
        <ele>1156.6</ele>
        <time>2017-04-30T09:38:04Z</time>
      </trkpt>
      <trkpt lat="44.4291" lon="5.14479">
        <ele>1154.68</ele>
        <time>2017-04-30T09:38:10Z</time>
      </trkpt>
      <trkpt lat="44.42909" lon="5.14473">
        <ele>1156.12</ele>
        <time>2017-04-30T09:38:14Z</time>
      </trkpt>
      <trkpt lat="44.42908" lon="5.14469">
        <ele>1156.12</ele>
        <time>2017-04-30T09:38:17Z</time>
      </trkpt>
      <trkpt lat="44.42904" lon="5.14459">
        <ele>1155.16</ele>
        <time>2017-04-30T09:38:25Z</time>
      </trkpt>
      <trkpt lat="44.42899" lon="5.14444">
        <ele>1155.64</ele>
        <time>2017-04-30T09:38:37Z</time>
      </trkpt>
      <trkpt lat="44.42896" lon="5.14438">
        <ele>1154.2</ele>
        <time>2017-04-30T09:38:42Z</time>
      </trkpt>
      <trkpt lat="44.42891" lon="5.14421">
        <ele>1154.68</ele>
        <time>2017-04-30T09:38:53Z</time>
      </trkpt>
      <trkpt lat="44.42888" lon="5.14414">
        <ele>1157.56</ele>
        <time>2017-04-30T09:38:58Z</time>
      </trkpt>
      <trkpt lat="44.42887" lon="5.14409">
        <ele>1155.64</ele>
        <time>2017-04-30T09:39:01Z</time>
      </trkpt>
      <trkpt lat="44.42887" lon="5.14408">
        <ele>1159.01</ele>
        <time>2017-04-30T09:39:02Z</time>
      </trkpt>
      <trkpt lat="44.42885" lon="5.14401">
        <ele>1156.12</ele>
        <time>2017-04-30T09:39:07Z</time>
      </trkpt>
      <trkpt lat="44.42883" lon="5.14397">
        <ele>1157.56</ele>
        <time>2017-04-30T09:39:10Z</time>
      </trkpt>
      <trkpt lat="44.42881" lon="5.1439">
        <ele>1156.12</ele>
        <time>2017-04-30T09:39:15Z</time>
      </trkpt>
      <trkpt lat="44.4288" lon="5.14387">
        <ele>1155.16</ele>
        <time>2017-04-30T09:39:17Z</time>
      </trkpt>
      <trkpt lat="44.42873" lon="5.14362">
        <ele>1155.16</ele>
        <time>2017-04-30T09:39:33Z</time>
      </trkpt>
      <trkpt lat="44.42872" lon="5.14355">
        <ele>1151.8</ele>
        <time>2017-04-30T09:39:38Z</time>
      </trkpt>
      <trkpt lat="44.42871" lon="5.14353">
        <ele>1151.8</ele>
        <time>2017-04-30T09:39:39Z</time>
      </trkpt>
      <trkpt lat="44.4287" lon="5.14348">
        <ele>1155.16</ele>
        <time>2017-04-30T09:39:43Z</time>
      </trkpt>
      <trkpt lat="44.42869" lon="5.14346">
        <ele>1154.68</ele>
        <time>2017-04-30T09:39:44Z</time>
      </trkpt>
      <trkpt lat="44.42863" lon="5.14326">
        <ele>1154.68</ele>
        <time>2017-04-30T09:39:58Z</time>
      </trkpt>
      <trkpt lat="44.42856" lon="5.14304">
        <ele>1154.2</ele>
        <time>2017-04-30T09:40:13Z</time>
      </trkpt>
      <trkpt lat="44.42854" lon="5.14298">
        <ele>1155.16</ele>
        <time>2017-04-30T09:40:18Z</time>
      </trkpt>
      <trkpt lat="44.42851" lon="5.14281">
        <ele>1157.08</ele>
        <time>2017-04-30T09:40:33Z</time>
      </trkpt>
      <trkpt lat="44.42849" lon="5.14273">
        <ele>1159.97</ele>
        <time>2017-04-30T09:40:40Z</time>
      </trkpt>
      <trkpt lat="44.42849" lon="5.14272">
        <ele>1159.97</ele>
        <time>2017-04-30T09:40:41Z</time>
      </trkpt>
      <trkpt lat="44.42844" lon="5.1426">
        <ele>1160.93</ele>
        <time>2017-04-30T09:40:53Z</time>
      </trkpt>
      <trkpt lat="44.42843" lon="5.14258">
        <ele>1162.37</ele>
        <time>2017-04-30T09:40:55Z</time>
      </trkpt>
      <trkpt lat="44.42841" lon="5.14254">
        <ele>1162.85</ele>
        <time>2017-04-30T09:41:01Z</time>
      </trkpt>
      <trkpt lat="44.42837" lon="5.14246">
        <ele>1166.22</ele>
        <time>2017-04-30T09:41:11Z</time>
      </trkpt>
      <trkpt lat="44.42835" lon="5.14243">
        <ele>1170.06</ele>
        <time>2017-04-30T09:41:16Z</time>
      </trkpt>
      <trkpt lat="44.42835" lon="5.14243">
        <ele>1168.62</ele>
        <time>2017-04-30T09:41:17Z</time>
      </trkpt>
      <trkpt lat="44.42832" lon="5.14235">
        <ele>1172.95</ele>
        <time>2017-04-30T09:41:26Z</time>
      </trkpt>
      <trkpt lat="44.42828" lon="5.14226">
        <ele>1172.95</ele>
        <time>2017-04-30T09:41:37Z</time>
      </trkpt>
      <trkpt lat="44.42826" lon="5.14222">
        <ele>1171.5</ele>
        <time>2017-04-30T09:41:43Z</time>
      </trkpt>
      <trkpt lat="44.42825" lon="5.1422">
        <ele>1173.91</ele>
        <time>2017-04-30T09:41:47Z</time>
      </trkpt>
      <trkpt lat="44.42825" lon="5.14218">
        <ele>1171.98</ele>
        <time>2017-04-30T09:41:49Z</time>
      </trkpt>
      <trkpt lat="44.42824" lon="5.14216">
        <ele>1175.83</ele>
        <time>2017-04-30T09:41:52Z</time>
      </trkpt>
      <trkpt lat="44.42821" lon="5.14214">
        <ele>1173.43</ele>
        <time>2017-04-30T09:41:59Z</time>
      </trkpt>
      <trkpt lat="44.4282" lon="5.14213">
        <ele>1176.79</ele>
        <time>2017-04-30T09:42:02Z</time>
      </trkpt>
      <trkpt lat="44.4282" lon="5.14213">
        <ele>1176.79</ele>
        <time>2017-04-30T09:42:03Z</time>
      </trkpt>
      <trkpt lat="44.42812" lon="5.14205">
        <ele>1180.16</ele>
        <time>2017-04-30T09:42:19Z</time>
      </trkpt>
      <trkpt lat="44.42812" lon="5.14205">
        <ele>1180.16</ele>
        <time>2017-04-30T09:42:20Z</time>
      </trkpt>
      <trkpt lat="44.42811" lon="5.14204">
        <ele>1178.71</ele>
        <time>2017-04-30T09:42:22Z</time>
      </trkpt>
      <trkpt lat="44.42808" lon="5.142">
        <ele>1184</ele>
        <time>2017-04-30T09:42:30Z</time>
      </trkpt>
      <trkpt lat="44.42805" lon="5.14198">
        <ele>1183.04</ele>
        <time>2017-04-30T09:42:38Z</time>
      </trkpt>
      <trkpt lat="44.428" lon="5.14192">
        <ele>1182.56</ele>
        <time>2017-04-30T09:42:49Z</time>
      </trkpt>
      <trkpt lat="44.42799" lon="5.14191">
        <ele>1185.92</ele>
        <time>2017-04-30T09:42:51Z</time>
      </trkpt>
      <trkpt lat="44.42799" lon="5.14191">
        <ele>1185.92</ele>
        <time>2017-04-30T09:42:52Z</time>
      </trkpt>
      <trkpt lat="44.42798" lon="5.1419">
        <ele>1189.29</ele>
        <time>2017-04-30T09:42:54Z</time>
      </trkpt>
      <trkpt lat="44.42795" lon="5.14186">
        <ele>1186.4</ele>
        <time>2017-04-30T09:43:00Z</time>
      </trkpt>
      <trkpt lat="44.42793" lon="5.14183">
        <ele>1184.48</ele>
        <time>2017-04-30T09:43:04Z</time>
      </trkpt>
      <trkpt lat="44.42792" lon="5.14182">
        <ele>1187.85</ele>
        <time>2017-04-30T09:43:07Z</time>
      </trkpt>
      <trkpt lat="44.42791" lon="5.1418">
        <ele>1185.92</ele>
        <time>2017-04-30T09:43:10Z</time>
      </trkpt>
      <trkpt lat="44.4279" lon="5.14178">
        <ele>1187.37</ele>
        <time>2017-04-30T09:43:13Z</time>
      </trkpt>
      <trkpt lat="44.42788" lon="5.14176">
        <ele>1190.25</ele>
        <time>2017-04-30T09:43:18Z</time>
      </trkpt>
      <trkpt lat="44.42788" lon="5.14176">
        <ele>1190.25</ele>
        <time>2017-04-30T09:43:19Z</time>
      </trkpt>
      <trkpt lat="44.42784" lon="5.14171">
        <ele>1188.81</ele>
        <time>2017-04-30T09:43:24Z</time>
      </trkpt>
      <trkpt lat="44.42783" lon="5.1417">
        <ele>1191.21</ele>
        <time>2017-04-30T09:43:26Z</time>
      </trkpt>
      <trkpt lat="44.42783" lon="5.14169">
        <ele>1187.37</ele>
        <time>2017-04-30T09:43:27Z</time>
      </trkpt>
      <trkpt lat="44.42781" lon="5.14167">
        <ele>1189.29</ele>
        <time>2017-04-30T09:43:31Z</time>
      </trkpt>
      <trkpt lat="44.4278" lon="5.14165">
        <ele>1195.06</ele>
        <time>2017-04-30T09:43:34Z</time>
      </trkpt>
      <trkpt lat="44.42779" lon="5.14165">
        <ele>1198.42</ele>
        <time>2017-04-30T09:43:35Z</time>
      </trkpt>
      <trkpt lat="44.42779" lon="5.14164">
        <ele>1198.42</ele>
        <time>2017-04-30T09:43:36Z</time>
      </trkpt>
      <trkpt lat="44.42779" lon="5.14164">
        <ele>1192.65</ele>
        <time>2017-04-30T09:43:37Z</time>
      </trkpt>
      <trkpt lat="44.42778" lon="5.14163">
        <ele>1192.65</ele>
        <time>2017-04-30T09:43:38Z</time>
      </trkpt>
      <trkpt lat="44.42777" lon="5.14161">
        <ele>1194.09</ele>
        <time>2017-04-30T09:43:40Z</time>
      </trkpt>
      <trkpt lat="44.42773" lon="5.14158">
        <ele>1195.54</ele>
        <time>2017-04-30T09:43:45Z</time>
      </trkpt>
      <trkpt lat="44.4277" lon="5.14155">
        <ele>1193.13</ele>
        <time>2017-04-30T09:43:51Z</time>
      </trkpt>
      <trkpt lat="44.42769" lon="5.14154">
        <ele>1195.06</ele>
        <time>2017-04-30T09:43:54Z</time>
      </trkpt>
      <trkpt lat="44.4276" lon="5.14149">
        <ele>1196.98</ele>
        <time>2017-04-30T09:44:09Z</time>
      </trkpt>
      <trkpt lat="44.42753" lon="5.14143">
        <ele>1199.38</ele>
        <time>2017-04-30T09:44:22Z</time>
      </trkpt>
      <trkpt lat="44.42744" lon="5.14136">
        <ele>1201.3</ele>
        <time>2017-04-30T09:44:37Z</time>
      </trkpt>
      <trkpt lat="44.42739" lon="5.14134">
        <ele>1200.82</ele>
        <time>2017-04-30T09:44:44Z</time>
      </trkpt>
      <trkpt lat="44.42738" lon="5.14133">
        <ele>1203.71</ele>
        <time>2017-04-30T09:44:46Z</time>
      </trkpt>
      <trkpt lat="44.42734" lon="5.14131">
        <ele>1203.71</ele>
        <time>2017-04-30T09:44:55Z</time>
      </trkpt>
      <trkpt lat="44.42729" lon="5.14128">
        <ele>1207.07</ele>
        <time>2017-04-30T09:45:06Z</time>
      </trkpt>
      <trkpt lat="44.42723" lon="5.14131">
        <ele>1207.07</ele>
        <time>2017-04-30T09:45:19Z</time>
      </trkpt>
      <trkpt lat="44.42718" lon="5.14134">
        <ele>1208.51</ele>
        <time>2017-04-30T09:45:27Z</time>
      </trkpt>
      <trkpt lat="44.42709" lon="5.14134">
        <ele>1209.48</ele>
        <time>2017-04-30T09:45:41Z</time>
      </trkpt>
      <trkpt lat="44.42699" lon="5.14136">
        <ele>1212.36</ele>
        <time>2017-04-30T09:45:56Z</time>
      </trkpt>
      <trkpt lat="44.42687" lon="5.1414">
        <ele>1215.24</ele>
        <time>2017-04-30T09:46:13Z</time>
      </trkpt>
      <trkpt lat="44.42675" lon="5.14145">
        <ele>1212.36</ele>
        <time>2017-04-30T09:46:28Z</time>
      </trkpt>
      <trkpt lat="44.42671" lon="5.14145">
        <ele>1212.36</ele>
        <time>2017-04-30T09:50:15Z</time>
      </trkpt>
      <trkpt lat="44.42665" lon="5.14153">
        <ele>1209</ele>
        <time>2017-04-30T09:50:27Z</time>
      </trkpt>
      <trkpt lat="44.42656" lon="5.14154">
        <ele>1207.55</ele>
        <time>2017-04-30T09:50:42Z</time>
      </trkpt>
      <trkpt lat="44.4265" lon="5.14162">
        <ele>1204.19</ele>
        <time>2017-04-30T09:50:54Z</time>
      </trkpt>
      <trkpt lat="44.42645" lon="5.14166">
        <ele>1200.82</ele>
        <time>2017-04-30T09:51:02Z</time>
      </trkpt>
      <trkpt lat="44.42644" lon="5.14168">
        <ele>1197.94</ele>
        <time>2017-04-30T09:51:07Z</time>
      </trkpt>
      <trkpt lat="44.42643" lon="5.1417">
        <ele>1199.38</ele>
        <time>2017-04-30T09:51:09Z</time>
      </trkpt>
      <trkpt lat="44.42642" lon="5.14171">
        <ele>1197.94</ele>
        <time>2017-04-30T09:51:11Z</time>
      </trkpt>
      <trkpt lat="44.42639" lon="5.14174">
        <ele>1196.02</ele>
        <time>2017-04-30T09:51:15Z</time>
      </trkpt>
      <trkpt lat="44.42628" lon="5.14186">
        <ele>1195.06</ele>
        <time>2017-04-30T09:51:31Z</time>
      </trkpt>
      <trkpt lat="44.42627" lon="5.14188">
        <ele>1195.06</ele>
        <time>2017-04-30T09:51:33Z</time>
      </trkpt>
      <trkpt lat="44.42615" lon="5.14194">
        <ele>1191.21</ele>
        <time>2017-04-30T09:51:43Z</time>
      </trkpt>
      <trkpt lat="44.42615" lon="5.14195">
        <ele>1191.21</ele>
        <time>2017-04-30T09:51:44Z</time>
      </trkpt>
      <trkpt lat="44.42603" lon="5.14204">
        <ele>1186.88</ele>
        <time>2017-04-30T09:51:58Z</time>
      </trkpt>
      <trkpt lat="44.42602" lon="5.14204">
        <ele>1186.88</ele>
        <time>2017-04-30T09:51:59Z</time>
      </trkpt>
      <trkpt lat="44.42599" lon="5.14203">
        <ele>1188.33</ele>
        <time>2017-04-30T09:52:04Z</time>
      </trkpt>
      <trkpt lat="44.42597" lon="5.14204">
        <ele>1186.4</ele>
        <time>2017-04-30T09:52:07Z</time>
      </trkpt>
      <trkpt lat="44.4259" lon="5.14212">
        <ele>1183.04</ele>
        <time>2017-04-30T09:52:21Z</time>
      </trkpt>
      <trkpt lat="44.42587" lon="5.14216">
        <ele>1182.56</ele>
        <time>2017-04-30T09:52:28Z</time>
      </trkpt>
      <trkpt lat="44.42577" lon="5.14221">
        <ele>1179.19</ele>
        <time>2017-04-30T09:52:41Z</time>
      </trkpt>
      <trkpt lat="44.42568" lon="5.14221">
        <ele>1176.31</ele>
        <time>2017-04-30T09:52:55Z</time>
      </trkpt>
      <trkpt lat="44.42559" lon="5.14227">
        <ele>1173.91</ele>
        <time>2017-04-30T09:53:08Z</time>
      </trkpt>
      <trkpt lat="44.4255" lon="5.14236">
        <ele>1171.02</ele>
        <time>2017-04-30T09:53:23Z</time>
      </trkpt>
      <trkpt lat="44.42545" lon="5.14246">
        <ele>1171.5</ele>
        <time>2017-04-30T09:53:32Z</time>
      </trkpt>
      <trkpt lat="44.42542" lon="5.14251">
        <ele>1172.47</ele>
        <time>2017-04-30T09:53:36Z</time>
      </trkpt>
      <trkpt lat="44.42534" lon="5.1428">
        <ele>1173.91</ele>
        <time>2017-04-30T09:53:52Z</time>
      </trkpt>
      <trkpt lat="44.4253" lon="5.14299">
        <ele>1177.27</ele>
        <time>2017-04-30T09:54:06Z</time>
      </trkpt>
      <trkpt lat="44.42524" lon="5.14317">
        <ele>1180.16</ele>
        <time>2017-04-30T09:54:22Z</time>
      </trkpt>
      <trkpt lat="44.42522" lon="5.14329">
        <ele>1182.08</ele>
        <time>2017-04-30T09:54:33Z</time>
      </trkpt>
      <trkpt lat="44.42521" lon="5.14337">
        <ele>1184</ele>
        <time>2017-04-30T09:54:40Z</time>
      </trkpt>
      <trkpt lat="44.4252" lon="5.14346">
        <ele>1185.44</ele>
        <time>2017-04-30T09:54:47Z</time>
      </trkpt>
      <trkpt lat="44.4252" lon="5.14348">
        <ele>1185.44</ele>
        <time>2017-04-30T09:54:49Z</time>
      </trkpt>
      <trkpt lat="44.4252" lon="5.14352">
        <ele>1184</ele>
        <time>2017-04-30T09:54:52Z</time>
      </trkpt>
      <trkpt lat="44.42519" lon="5.14357">
        <ele>1184.96</ele>
        <time>2017-04-30T09:54:56Z</time>
      </trkpt>
      <trkpt lat="44.42519" lon="5.14367">
        <ele>1183.52</ele>
        <time>2017-04-30T09:55:04Z</time>
      </trkpt>
      <trkpt lat="44.42518" lon="5.14374">
        <ele>1186.88</ele>
        <time>2017-04-30T09:55:10Z</time>
      </trkpt>
      <trkpt lat="44.42518" lon="5.14375">
        <ele>1186.88</ele>
        <time>2017-04-30T09:55:11Z</time>
      </trkpt>
      <trkpt lat="44.42514" lon="5.1439">
        <ele>1189.29</ele>
        <time>2017-04-30T09:55:25Z</time>
      </trkpt>
      <trkpt lat="44.42513" lon="5.14394">
        <ele>1190.73</ele>
        <time>2017-04-30T09:55:29Z</time>
      </trkpt>
      <trkpt lat="44.42509" lon="5.14409">
        <ele>1194.09</ele>
        <time>2017-04-30T09:55:44Z</time>
      </trkpt>
      <trkpt lat="44.42508" lon="5.1441">
        <ele>1194.09</ele>
        <time>2017-04-30T09:55:45Z</time>
      </trkpt>
      <trkpt lat="44.42507" lon="5.14417">
        <ele>1194.09</ele>
        <time>2017-04-30T09:55:54Z</time>
      </trkpt>
      <trkpt lat="44.42508" lon="5.1443">
        <ele>1196.5</ele>
        <time>2017-04-30T09:56:09Z</time>
      </trkpt>
      <trkpt lat="44.42507" lon="5.14442">
        <ele>1199.38</ele>
        <time>2017-04-30T09:56:25Z</time>
      </trkpt>
      <trkpt lat="44.42506" lon="5.14447">
        <ele>1203.23</ele>
        <time>2017-04-30T09:56:33Z</time>
      </trkpt>
      <trkpt lat="44.42506" lon="5.14448">
        <ele>1203.23</ele>
        <time>2017-04-30T09:56:34Z</time>
      </trkpt>
      <trkpt lat="44.42505" lon="5.14455">
        <ele>1202.75</ele>
        <time>2017-04-30T09:56:44Z</time>
      </trkpt>
      <trkpt lat="44.42504" lon="5.14457">
        <ele>1205.63</ele>
        <time>2017-04-30T09:56:47Z</time>
      </trkpt>
      <trkpt lat="44.42504" lon="5.14458">
        <ele>1205.63</ele>
        <time>2017-04-30T09:56:48Z</time>
      </trkpt>
      <trkpt lat="44.42502" lon="5.14461">
        <ele>1204.19</ele>
        <time>2017-04-30T09:56:51Z</time>
      </trkpt>
      <trkpt lat="44.42501" lon="5.14464">
        <ele>1205.15</ele>
        <time>2017-04-30T09:56:58Z</time>
      </trkpt>
      <trkpt lat="44.42499" lon="5.1447">
        <ele>1207.07</ele>
        <time>2017-04-30T09:57:04Z</time>
      </trkpt>
      <trkpt lat="44.42498" lon="5.14485">
        <ele>1208.03</ele>
        <time>2017-04-30T09:57:19Z</time>
      </trkpt>
      <trkpt lat="44.425" lon="5.14501">
        <ele>1209</ele>
        <time>2017-04-30T09:57:36Z</time>
      </trkpt>
      <trkpt lat="44.425" lon="5.14511">
        <ele>1210.92</ele>
        <time>2017-04-30T09:57:51Z</time>
      </trkpt>
      <trkpt lat="44.42498" lon="5.14516">
        <ele>1210.92</ele>
        <time>2017-04-30T10:49:38Z</time>
      </trkpt>
      <trkpt lat="44.425" lon="5.14514">
        <ele>1209.48</ele>
        <time>2017-04-30T10:49:54Z</time>
      </trkpt>
      <trkpt lat="44.425" lon="5.14512">
        <ele>1210.44</ele>
        <time>2017-04-30T10:50:02Z</time>
      </trkpt>
      <trkpt lat="44.425" lon="5.14505">
        <ele>1209.48</ele>
        <time>2017-04-30T10:50:16Z</time>
      </trkpt>
      <trkpt lat="44.42498" lon="5.14489">
        <ele>1208.51</ele>
        <time>2017-04-30T10:50:32Z</time>
      </trkpt>
      <trkpt lat="44.42497" lon="5.14487">
        <ele>1206.59</ele>
        <time>2017-04-30T10:50:35Z</time>
      </trkpt>
      <trkpt lat="44.42498" lon="5.14475">
        <ele>1207.55</ele>
        <time>2017-04-30T10:50:45Z</time>
      </trkpt>
      <trkpt lat="44.42499" lon="5.1447">
        <ele>1206.11</ele>
        <time>2017-04-30T10:50:49Z</time>
      </trkpt>
      <trkpt lat="44.425" lon="5.1445">
        <ele>1202.75</ele>
        <time>2017-04-30T10:51:05Z</time>
      </trkpt>
      <trkpt lat="44.42501" lon="5.14448">
        <ele>1202.75</ele>
        <time>2017-04-30T10:51:06Z</time>
      </trkpt>
      <trkpt lat="44.42507" lon="5.14432">
        <ele>1199.38</ele>
        <time>2017-04-30T10:51:19Z</time>
      </trkpt>
      <trkpt lat="44.42507" lon="5.14431">
        <ele>1198.9</ele>
        <time>2017-04-30T10:51:20Z</time>
      </trkpt>
      <trkpt lat="44.42505" lon="5.14422">
        <ele>1195.06</ele>
        <time>2017-04-30T10:51:27Z</time>
      </trkpt>
      <trkpt lat="44.42505" lon="5.1442">
        <ele>1195.06</ele>
        <time>2017-04-30T10:51:28Z</time>
      </trkpt>
      <trkpt lat="44.42505" lon="5.14417">
        <ele>1194.58</ele>
        <time>2017-04-30T10:51:31Z</time>
      </trkpt>
      <trkpt lat="44.42507" lon="5.14407">
        <ele>1193.61</ele>
        <time>2017-04-30T10:51:38Z</time>
      </trkpt>
      <trkpt lat="44.42511" lon="5.14394">
        <ele>1191.69</ele>
        <time>2017-04-30T10:51:46Z</time>
      </trkpt>
      <trkpt lat="44.42512" lon="5.14389">
        <ele>1191.21</ele>
        <time>2017-04-30T10:51:50Z</time>
      </trkpt>
      <trkpt lat="44.42514" lon="5.14383">
        <ele>1191.21</ele>
        <time>2017-04-30T10:51:54Z</time>
      </trkpt>
      <trkpt lat="44.42515" lon="5.14379">
        <ele>1189.77</ele>
        <time>2017-04-30T10:51:57Z</time>
      </trkpt>
      <trkpt lat="44.42519" lon="5.14351">
        <ele>1186.4</ele>
        <time>2017-04-30T10:52:14Z</time>
      </trkpt>
      <trkpt lat="44.42519" lon="5.14342">
        <ele>1183.52</ele>
        <time>2017-04-30T10:52:21Z</time>
      </trkpt>
      <trkpt lat="44.42521" lon="5.14325">
        <ele>1181.6</ele>
        <time>2017-04-30T10:52:34Z</time>
      </trkpt>
      <trkpt lat="44.42527" lon="5.14303">
        <ele>1178.23</ele>
        <time>2017-04-30T10:52:47Z</time>
      </trkpt>
      <trkpt lat="44.42527" lon="5.143">
        <ele>1177.27</ele>
        <time>2017-04-30T10:52:49Z</time>
      </trkpt>
      <trkpt lat="44.4253" lon="5.14282">
        <ele>1174.39</ele>
        <time>2017-04-30T10:53:00Z</time>
      </trkpt>
      <trkpt lat="44.4253" lon="5.14281">
        <ele>1174.39</ele>
        <time>2017-04-30T10:53:01Z</time>
      </trkpt>
      <trkpt lat="44.42534" lon="5.14261">
        <ele>1172.47</ele>
        <time>2017-04-30T10:53:16Z</time>
      </trkpt>
      <trkpt lat="44.4254" lon="5.14246">
        <ele>1171.5</ele>
        <time>2017-04-30T10:53:29Z</time>
      </trkpt>
      <trkpt lat="44.42546" lon="5.14236">
        <ele>1172.95</ele>
        <time>2017-04-30T10:53:38Z</time>
      </trkpt>
      <trkpt lat="44.42557" lon="5.14226">
        <ele>1174.39</ele>
        <time>2017-04-30T10:53:52Z</time>
      </trkpt>
      <trkpt lat="44.42566" lon="5.14224">
        <ele>1176.79</ele>
        <time>2017-04-30T10:54:06Z</time>
      </trkpt>
      <trkpt lat="44.42569" lon="5.14224">
        <ele>1179.67</ele>
        <time>2017-04-30T10:54:12Z</time>
      </trkpt>
      <trkpt lat="44.42577" lon="5.1422">
        <ele>1182.56</ele>
        <time>2017-04-30T10:54:22Z</time>
      </trkpt>
      <trkpt lat="44.42585" lon="5.14214">
        <ele>1184</ele>
        <time>2017-04-30T10:54:36Z</time>
      </trkpt>
      <trkpt lat="44.42587" lon="5.14212">
        <ele>1182.56</ele>
        <time>2017-04-30T10:54:39Z</time>
      </trkpt>
      <trkpt lat="44.42588" lon="5.14211">
        <ele>1186.88</ele>
        <time>2017-04-30T10:54:40Z</time>
      </trkpt>
      <trkpt lat="44.42588" lon="5.1421">
        <ele>1186.88</ele>
        <time>2017-04-30T10:54:41Z</time>
      </trkpt>
      <trkpt lat="44.42596" lon="5.14205">
        <ele>1188.33</ele>
        <time>2017-04-30T10:54:55Z</time>
      </trkpt>
      <trkpt lat="44.42599" lon="5.14205">
        <ele>1188.33</ele>
        <time>2017-04-30T10:54:58Z</time>
      </trkpt>
      <trkpt lat="44.42608" lon="5.142">
        <ele>1189.29</ele>
        <time>2017-04-30T10:55:11Z</time>
      </trkpt>
      <trkpt lat="44.42616" lon="5.14194">
        <ele>1192.65</ele>
        <time>2017-04-30T10:55:23Z</time>
      </trkpt>
      <trkpt lat="44.42622" lon="5.14193">
        <ele>1194.09</ele>
        <time>2017-04-30T10:55:34Z</time>
      </trkpt>
      <trkpt lat="44.42622" lon="5.14195">
        <ele>1190.73</ele>
        <time>2017-04-30T10:55:45Z</time>
      </trkpt>
      <trkpt lat="44.42622" lon="5.14194">
        <ele>1193.13</ele>
        <time>2017-04-30T10:55:49Z</time>
      </trkpt>
      <trkpt lat="44.42622" lon="5.14194">
        <ele>1189.29</ele>
        <time>2017-04-30T10:55:52Z</time>
      </trkpt>
      <trkpt lat="44.42623" lon="5.14194">
        <ele>1189.29</ele>
        <time>2017-04-30T10:55:53Z</time>
      </trkpt>
      <trkpt lat="44.42623" lon="5.14193">
        <ele>1192.17</ele>
        <time>2017-04-30T10:55:58Z</time>
      </trkpt>
      <trkpt lat="44.42624" lon="5.14189">
        <ele>1194.58</ele>
        <time>2017-04-30T10:56:17Z</time>
      </trkpt>
      <trkpt lat="44.42625" lon="5.14187">
        <ele>1193.13</ele>
        <time>2017-04-30T10:56:20Z</time>
      </trkpt>
      <trkpt lat="44.42626" lon="5.14186">
        <ele>1194.58</ele>
        <time>2017-04-30T10:56:22Z</time>
      </trkpt>
      <trkpt lat="44.42633" lon="5.14177">
        <ele>1197.94</ele>
        <time>2017-04-30T10:56:39Z</time>
      </trkpt>
      <trkpt lat="44.42634" lon="5.14176">
        <ele>1198.9</ele>
        <time>2017-04-30T10:56:41Z</time>
      </trkpt>
      <trkpt lat="44.4264" lon="5.14171">
        <ele>1200.82</ele>
        <time>2017-04-30T10:56:53Z</time>
      </trkpt>
      <trkpt lat="44.42645" lon="5.14165">
        <ele>1204.19</ele>
        <time>2017-04-30T10:57:07Z</time>
      </trkpt>
      <trkpt lat="44.42646" lon="5.14163">
        <ele>1205.15</ele>
        <time>2017-04-30T10:57:09Z</time>
      </trkpt>
      <trkpt lat="44.42653" lon="5.14154">
        <ele>1207.07</ele>
        <time>2017-04-30T10:57:26Z</time>
      </trkpt>
      <trkpt lat="44.42658" lon="5.14153">
        <ele>1210.92</ele>
        <time>2017-04-30T10:57:35Z</time>
      </trkpt>
      <trkpt lat="44.42659" lon="5.14153">
        <ele>1210.92</ele>
        <time>2017-04-30T10:57:36Z</time>
      </trkpt>
      <trkpt lat="44.42666" lon="5.14149">
        <ele>1213.8</ele>
        <time>2017-04-30T10:57:52Z</time>
      </trkpt>
      <trkpt lat="44.42667" lon="5.14148">
        <ele>1214.76</ele>
        <time>2017-04-30T10:57:54Z</time>
      </trkpt>
      <trkpt lat="44.42668" lon="5.14143">
        <ele>1214.28</ele>
        <time>2017-04-30T10:58:00Z</time>
      </trkpt>
      <trkpt lat="44.42674" lon="5.14132">
        <ele>1216.69</ele>
        <time>2017-04-30T10:58:14Z</time>
      </trkpt>
      <trkpt lat="44.42677" lon="5.14126">
        <ele>1217.65</ele>
        <time>2017-04-30T10:58:20Z</time>
      </trkpt>
      <trkpt lat="44.4268" lon="5.14118">
        <ele>1215.72</ele>
        <time>2017-04-30T10:58:26Z</time>
      </trkpt>
      <trkpt lat="44.42683" lon="5.14105">
        <ele>1219.09</ele>
        <time>2017-04-30T10:58:37Z</time>
      </trkpt>
      <trkpt lat="44.42685" lon="5.14094">
        <ele>1218.13</ele>
        <time>2017-04-30T10:58:45Z</time>
      </trkpt>
      <trkpt lat="44.42687" lon="5.14086">
        <ele>1215.72</ele>
        <time>2017-04-30T10:58:50Z</time>
      </trkpt>
      <trkpt lat="44.42689" lon="5.14081">
        <ele>1214.28</ele>
        <time>2017-04-30T10:58:54Z</time>
      </trkpt>
      <trkpt lat="44.42688" lon="5.14058">
        <ele>1216.21</ele>
        <time>2017-04-30T10:59:11Z</time>
      </trkpt>
      <trkpt lat="44.42688" lon="5.14052">
        <ele>1213.32</ele>
        <time>2017-04-30T10:59:15Z</time>
      </trkpt>
      <trkpt lat="44.42687" lon="5.14046">
        <ele>1215.24</ele>
        <time>2017-04-30T10:59:19Z</time>
      </trkpt>
      <trkpt lat="44.42687" lon="5.14043">
        <ele>1213.32</ele>
        <time>2017-04-30T10:59:21Z</time>
      </trkpt>
      <trkpt lat="44.42686" lon="5.14038">
        <ele>1214.76</ele>
        <time>2017-04-30T10:59:24Z</time>
      </trkpt>
      <trkpt lat="44.42686" lon="5.14035">
        <ele>1213.32</ele>
        <time>2017-04-30T10:59:26Z</time>
      </trkpt>
      <trkpt lat="44.42686" lon="5.14032">
        <ele>1211.88</ele>
        <time>2017-04-30T10:59:28Z</time>
      </trkpt>
      <trkpt lat="44.42686" lon="5.14028">
        <ele>1210.92</ele>
        <time>2017-04-30T10:59:31Z</time>
      </trkpt>
      <trkpt lat="44.42685" lon="5.14006">
        <ele>1209</ele>
        <time>2017-04-30T10:59:49Z</time>
      </trkpt>
      <trkpt lat="44.42685" lon="5.14005">
        <ele>1209</ele>
        <time>2017-04-30T10:59:50Z</time>
      </trkpt>
      <trkpt lat="44.42684" lon="5.13992">
        <ele>1205.15</ele>
        <time>2017-04-30T11:00:00Z</time>
      </trkpt>
      <trkpt lat="44.42682" lon="5.13976">
        <ele>1203.71</ele>
        <time>2017-04-30T11:00:14Z</time>
      </trkpt>
      <trkpt lat="44.42681" lon="5.1397">
        <ele>1205.63</ele>
        <time>2017-04-30T11:00:18Z</time>
      </trkpt>
      <trkpt lat="44.4268" lon="5.13967">
        <ele>1204.19</ele>
        <time>2017-04-30T11:00:20Z</time>
      </trkpt>
      <trkpt lat="44.4268" lon="5.13964">
        <ele>1204.67</ele>
        <time>2017-04-30T11:00:22Z</time>
      </trkpt>
      <trkpt lat="44.42679" lon="5.13959">
        <ele>1203.23</ele>
        <time>2017-04-30T11:00:26Z</time>
      </trkpt>
      <trkpt lat="44.42676" lon="5.13947">
        <ele>1200.34</ele>
        <time>2017-04-30T11:00:36Z</time>
      </trkpt>
      <trkpt lat="44.42676" lon="5.13946">
        <ele>1200.34</ele>
        <time>2017-04-30T11:00:37Z</time>
      </trkpt>
      <trkpt lat="44.42674" lon="5.13923">
        <ele>1197.94</ele>
        <time>2017-04-30T11:00:55Z</time>
      </trkpt>
      <trkpt lat="44.42672" lon="5.1391">
        <ele>1195.06</ele>
        <time>2017-04-30T11:01:05Z</time>
      </trkpt>
      <trkpt lat="44.42672" lon="5.13908">
        <ele>1195.06</ele>
        <time>2017-04-30T11:01:06Z</time>
      </trkpt>
      <trkpt lat="44.42673" lon="5.13904">
        <ele>1194.09</ele>
        <time>2017-04-30T11:01:09Z</time>
      </trkpt>
      <trkpt lat="44.42672" lon="5.13899">
        <ele>1196.02</ele>
        <time>2017-04-30T11:01:13Z</time>
      </trkpt>
      <trkpt lat="44.42671" lon="5.13893">
        <ele>1195.06</ele>
        <time>2017-04-30T11:01:17Z</time>
      </trkpt>
      <trkpt lat="44.4267" lon="5.13885">
        <ele>1190.73</ele>
        <time>2017-04-30T11:01:23Z</time>
      </trkpt>
      <trkpt lat="44.42669" lon="5.13884">
        <ele>1190.73</ele>
        <time>2017-04-30T11:01:24Z</time>
      </trkpt>
      <trkpt lat="44.42667" lon="5.13866">
        <ele>1187.37</ele>
        <time>2017-04-30T11:01:36Z</time>
      </trkpt>
      <trkpt lat="44.42666" lon="5.13857">
        <ele>1186.88</ele>
        <time>2017-04-30T11:01:43Z</time>
      </trkpt>
      <trkpt lat="44.42666" lon="5.13843">
        <ele>1185.92</ele>
        <time>2017-04-30T11:01:51Z</time>
      </trkpt>
      <trkpt lat="44.42666" lon="5.1382">
        <ele>1184.48</ele>
        <time>2017-04-30T11:02:05Z</time>
      </trkpt>
      <trkpt lat="44.42666" lon="5.13813">
        <ele>1185.92</ele>
        <time>2017-04-30T11:02:09Z</time>
      </trkpt>
      <trkpt lat="44.42665" lon="5.13803">
        <ele>1184.48</ele>
        <time>2017-04-30T11:02:15Z</time>
      </trkpt>
      <trkpt lat="44.42663" lon="5.13791">
        <ele>1182.08</ele>
        <time>2017-04-30T11:02:22Z</time>
      </trkpt>
      <trkpt lat="44.42662" lon="5.13784">
        <ele>1183.04</ele>
        <time>2017-04-30T11:02:27Z</time>
      </trkpt>
      <trkpt lat="44.42662" lon="5.13775">
        <ele>1184.96</ele>
        <time>2017-04-30T11:02:32Z</time>
      </trkpt>
      <trkpt lat="44.42663" lon="5.1377">
        <ele>1183.52</ele>
        <time>2017-04-30T11:02:35Z</time>
      </trkpt>
      <trkpt lat="44.42663" lon="5.13744">
        <ele>1183.04</ele>
        <time>2017-04-30T11:02:51Z</time>
      </trkpt>
      <trkpt lat="44.42663" lon="5.1373">
        <ele>1181.6</ele>
        <time>2017-04-30T11:02:59Z</time>
      </trkpt>
      <trkpt lat="44.42668" lon="5.13699">
        <ele>1178.71</ele>
        <time>2017-04-30T11:03:16Z</time>
      </trkpt>
      <trkpt lat="44.42671" lon="5.13687">
        <ele>1176.31</ele>
        <time>2017-04-30T11:03:29Z</time>
      </trkpt>
      <trkpt lat="44.42673" lon="5.13672">
        <ele>1174.87</ele>
        <time>2017-04-30T11:03:38Z</time>
      </trkpt>
      <trkpt lat="44.42681" lon="5.13643">
        <ele>1172.47</ele>
        <time>2017-04-30T11:03:56Z</time>
      </trkpt>
      <trkpt lat="44.42687" lon="5.13622">
        <ele>1171.02</ele>
        <time>2017-04-30T11:04:14Z</time>
      </trkpt>
      <trkpt lat="44.42687" lon="5.13622">
        <ele>1172.95</ele>
        <time>2017-04-30T11:04:16Z</time>
      </trkpt>
      <trkpt lat="44.42687" lon="5.13623">
        <ele>1175.35</ele>
        <time>2017-04-30T11:04:21Z</time>
      </trkpt>
      <trkpt lat="44.42688" lon="5.13622">
        <ele>1172.47</ele>
        <time>2017-04-30T11:04:24Z</time>
      </trkpt>
      <trkpt lat="44.42688" lon="5.13619">
        <ele>1173.91</ele>
        <time>2017-04-30T11:04:40Z</time>
      </trkpt>
      <trkpt lat="44.42689" lon="5.13615">
        <ele>1170.54</ele>
        <time>2017-04-30T11:04:44Z</time>
      </trkpt>
      <trkpt lat="44.4269" lon="5.13614">
        <ele>1170.54</ele>
        <time>2017-04-30T11:04:45Z</time>
      </trkpt>
      <trkpt lat="44.42702" lon="5.13603">
        <ele>1167.66</ele>
        <time>2017-04-30T11:04:58Z</time>
      </trkpt>
      <trkpt lat="44.4271" lon="5.13595">
        <ele>1163.81</ele>
        <time>2017-04-30T11:05:06Z</time>
      </trkpt>
      <trkpt lat="44.42711" lon="5.13594">
        <ele>1163.81</ele>
        <time>2017-04-30T11:05:07Z</time>
      </trkpt>
      <trkpt lat="44.42722" lon="5.13582">
        <ele>1160.93</ele>
        <time>2017-04-30T11:05:19Z</time>
      </trkpt>
      <trkpt lat="44.42731" lon="5.13573">
        <ele>1159.49</ele>
        <time>2017-04-30T11:05:28Z</time>
      </trkpt>
      <trkpt lat="44.42739" lon="5.13565">
        <ele>1156.6</ele>
        <time>2017-04-30T11:05:38Z</time>
      </trkpt>
      <trkpt lat="44.42744" lon="5.13561">
        <ele>1155.16</ele>
        <time>2017-04-30T11:05:43Z</time>
      </trkpt>
      <trkpt lat="44.42759" lon="5.13551">
        <ele>1154.2</ele>
        <time>2017-04-30T11:05:57Z</time>
      </trkpt>
      <trkpt lat="44.42761" lon="5.1355">
        <ele>1155.64</ele>
        <time>2017-04-30T11:05:59Z</time>
      </trkpt>
      <trkpt lat="44.42765" lon="5.13547">
        <ele>1152.28</ele>
        <time>2017-04-30T11:06:03Z</time>
      </trkpt>
      <trkpt lat="44.4278" lon="5.13536">
        <ele>1148.91</ele>
        <time>2017-04-30T11:06:18Z</time>
      </trkpt>
      <trkpt lat="44.42781" lon="5.13535">
        <ele>1149.39</ele>
        <time>2017-04-30T11:06:19Z</time>
      </trkpt>
      <trkpt lat="44.42799" lon="5.13521">
        <ele>1146.51</ele>
        <time>2017-04-30T11:06:37Z</time>
      </trkpt>
      <trkpt lat="44.42802" lon="5.13519">
        <ele>1145.07</ele>
        <time>2017-04-30T11:06:40Z</time>
      </trkpt>
      <trkpt lat="44.42811" lon="5.13512">
        <ele>1142.66</ele>
        <time>2017-04-30T11:06:48Z</time>
      </trkpt>
      <trkpt lat="44.42828" lon="5.13501">
        <ele>1139.78</ele>
        <time>2017-04-30T11:07:03Z</time>
      </trkpt>
      <trkpt lat="44.42842" lon="5.1349">
        <ele>1138.82</ele>
        <time>2017-04-30T11:07:18Z</time>
      </trkpt>
      <trkpt lat="44.42855" lon="5.13476">
        <ele>1135.45</ele>
        <time>2017-04-30T11:07:33Z</time>
      </trkpt>
      <trkpt lat="44.42866" lon="5.13465">
        <ele>1132.09</ele>
        <time>2017-04-30T11:07:45Z</time>
      </trkpt>
      <trkpt lat="44.42873" lon="5.1346">
        <ele>1130.65</ele>
        <time>2017-04-30T11:08:00Z</time>
      </trkpt>
      <trkpt lat="44.42876" lon="5.13457">
        <ele>1130.17</ele>
        <time>2017-04-30T11:08:28Z</time>
      </trkpt>
      <trkpt lat="44.4288" lon="5.13452">
        <ele>1128.73</ele>
        <time>2017-04-30T11:08:33Z</time>
      </trkpt>
      <trkpt lat="44.4289" lon="5.13441">
        <ele>1125.36</ele>
        <time>2017-04-30T11:08:44Z</time>
      </trkpt>
      <trkpt lat="44.42897" lon="5.13435">
        <ele>1122.48</ele>
        <time>2017-04-30T11:08:51Z</time>
      </trkpt>
      <trkpt lat="44.42898" lon="5.13434">
        <ele>1122.48</ele>
        <time>2017-04-30T11:08:52Z</time>
      </trkpt>
      <trkpt lat="44.42909" lon="5.1342">
        <ele>1119.11</ele>
        <time>2017-04-30T11:09:06Z</time>
      </trkpt>
      <trkpt lat="44.42917" lon="5.1341">
        <ele>1116.71</ele>
        <time>2017-04-30T11:09:16Z</time>
      </trkpt>
      <trkpt lat="44.42919" lon="5.13407">
        <ele>1115.27</ele>
        <time>2017-04-30T11:09:19Z</time>
      </trkpt>
      <trkpt lat="44.42925" lon="5.13396">
        <ele>1111.9</ele>
        <time>2017-04-30T11:09:28Z</time>
      </trkpt>
      <trkpt lat="44.42927" lon="5.13393">
        <ele>1110.46</ele>
        <time>2017-04-30T11:09:31Z</time>
      </trkpt>
      <trkpt lat="44.42932" lon="5.13386">
        <ele>1109.5</ele>
        <time>2017-04-30T11:09:38Z</time>
      </trkpt>
      <trkpt lat="44.42939" lon="5.13368">
        <ele>1105.65</ele>
        <time>2017-04-30T11:09:52Z</time>
      </trkpt>
      <trkpt lat="44.42944" lon="5.13362">
        <ele>1103.25</ele>
        <time>2017-04-30T11:09:57Z</time>
      </trkpt>
      <trkpt lat="44.42949" lon="5.13352">
        <ele>1099.89</ele>
        <time>2017-04-30T11:10:05Z</time>
      </trkpt>
      <trkpt lat="44.42952" lon="5.13346">
        <ele>1097.48</ele>
        <time>2017-04-30T11:10:10Z</time>
      </trkpt>
      <trkpt lat="44.42955" lon="5.13332">
        <ele>1094.12</ele>
        <time>2017-04-30T11:10:20Z</time>
      </trkpt>
      <trkpt lat="44.42957" lon="5.13318">
        <ele>1090.75</ele>
        <time>2017-04-30T11:10:29Z</time>
      </trkpt>
      <trkpt lat="44.42957" lon="5.13317">
        <ele>1090.75</ele>
        <time>2017-04-30T11:10:30Z</time>
      </trkpt>
      <trkpt lat="44.42959" lon="5.13302">
        <ele>1086.91</ele>
        <time>2017-04-30T11:10:41Z</time>
      </trkpt>
      <trkpt lat="44.4296" lon="5.13299">
        <ele>1086.43</ele>
        <time>2017-04-30T11:10:43Z</time>
      </trkpt>
      <trkpt lat="44.42961" lon="5.13292">
        <ele>1084.02</ele>
        <time>2017-04-30T11:10:48Z</time>
      </trkpt>
      <trkpt lat="44.4296" lon="5.13284">
        <ele>1082.58</ele>
        <time>2017-04-30T11:10:54Z</time>
      </trkpt>
      <trkpt lat="44.42961" lon="5.13265">
        <ele>1079.22</ele>
        <time>2017-04-30T11:11:07Z</time>
      </trkpt>
      <trkpt lat="44.42962" lon="5.13262">
        <ele>1078.26</ele>
        <time>2017-04-30T11:11:09Z</time>
      </trkpt>
      <trkpt lat="44.42961" lon="5.13256">
        <ele>1076.81</ele>
        <time>2017-04-30T11:11:13Z</time>
      </trkpt>
      <trkpt lat="44.42961" lon="5.13255">
        <ele>1076.81</ele>
        <time>2017-04-30T11:11:14Z</time>
      </trkpt>
      <trkpt lat="44.42961" lon="5.13251">
        <ele>1075.37</ele>
        <time>2017-04-30T11:11:17Z</time>
      </trkpt>
      <trkpt lat="44.42962" lon="5.13246">
        <ele>1073.93</ele>
        <time>2017-04-30T11:11:20Z</time>
      </trkpt>
      <trkpt lat="44.42962" lon="5.13242">
        <ele>1072.97</ele>
        <time>2017-04-30T11:11:22Z</time>
      </trkpt>
      <trkpt lat="44.42964" lon="5.13236">
        <ele>1071.53</ele>
        <time>2017-04-30T11:11:26Z</time>
      </trkpt>
      <trkpt lat="44.42966" lon="5.13219">
        <ele>1068.16</ele>
        <time>2017-04-30T11:11:36Z</time>
      </trkpt>
      <trkpt lat="44.42968" lon="5.13202">
        <ele>1065.76</ele>
        <time>2017-04-30T11:11:47Z</time>
      </trkpt>
      <trkpt lat="44.42967" lon="5.13192">
        <ele>1063.84</ele>
        <time>2017-04-30T11:11:53Z</time>
      </trkpt>
      <trkpt lat="44.42965" lon="5.13183">
        <ele>1060.95</ele>
        <time>2017-04-30T11:11:59Z</time>
      </trkpt>
      <trkpt lat="44.42965" lon="5.13182">
        <ele>1060.95</ele>
        <time>2017-04-30T11:12:00Z</time>
      </trkpt>
      <trkpt lat="44.42964" lon="5.13165">
        <ele>1058.07</ele>
        <time>2017-04-30T11:12:12Z</time>
      </trkpt>
      <trkpt lat="44.42964" lon="5.13157">
        <ele>1056.15</ele>
        <time>2017-04-30T11:12:19Z</time>
      </trkpt>
      <trkpt lat="44.42964" lon="5.13156">
        <ele>1055.67</ele>
        <time>2017-04-30T11:12:20Z</time>
      </trkpt>
      <trkpt lat="44.42963" lon="5.13153">
        <ele>1054.7</ele>
        <time>2017-04-30T11:12:22Z</time>
      </trkpt>
      <trkpt lat="44.42963" lon="5.13146">
        <ele>1051.82</ele>
        <time>2017-04-30T11:12:28Z</time>
      </trkpt>
      <trkpt lat="44.42964" lon="5.1313">
        <ele>1047.49</ele>
        <time>2017-04-30T11:12:39Z</time>
      </trkpt>
      <trkpt lat="44.42964" lon="5.13127">
        <ele>1047.01</ele>
        <time>2017-04-30T11:12:41Z</time>
      </trkpt>
      <trkpt lat="44.42964" lon="5.13122">
        <ele>1046.53</ele>
        <time>2017-04-30T11:12:44Z</time>
      </trkpt>
      <trkpt lat="44.42963" lon="5.13119">
        <ele>1046.05</ele>
        <time>2017-04-30T11:12:46Z</time>
      </trkpt>
      <trkpt lat="44.42963" lon="5.13115">
        <ele>1043.65</ele>
        <time>2017-04-30T11:12:49Z</time>
      </trkpt>
      <trkpt lat="44.42963" lon="5.13111">
        <ele>1041.73</ele>
        <time>2017-04-30T11:12:52Z</time>
      </trkpt>
      <trkpt lat="44.42965" lon="5.13102">
        <ele>1039.32</ele>
        <time>2017-04-30T11:12:57Z</time>
      </trkpt>
      <trkpt lat="44.42967" lon="5.13087">
        <ele>1036.92</ele>
        <time>2017-04-30T11:13:08Z</time>
      </trkpt>
      <trkpt lat="44.42968" lon="5.13081">
        <ele>1035</ele>
        <time>2017-04-30T11:13:14Z</time>
      </trkpt>
      <trkpt lat="44.42971" lon="5.13074">
        <ele>1032.59</ele>
        <time>2017-04-30T11:13:23Z</time>
      </trkpt>
      <trkpt lat="44.42977" lon="5.1306">
        <ele>1028.75</ele>
        <time>2017-04-30T11:13:36Z</time>
      </trkpt>
      <trkpt lat="44.42979" lon="5.13057">
        <ele>1027.79</ele>
        <time>2017-04-30T11:13:38Z</time>
      </trkpt>
      <trkpt lat="44.4298" lon="5.13042">
        <ele>1024.42</ele>
        <time>2017-04-30T11:13:49Z</time>
      </trkpt>
      <trkpt lat="44.42983" lon="5.1303">
        <ele>1021.54</ele>
        <time>2017-04-30T11:13:58Z</time>
      </trkpt>
      <trkpt lat="44.42983" lon="5.13029">
        <ele>1021.06</ele>
        <time>2017-04-30T11:13:59Z</time>
      </trkpt>
      <trkpt lat="44.42985" lon="5.13021">
        <ele>1018.65</ele>
        <time>2017-04-30T11:14:05Z</time>
      </trkpt>
      <trkpt lat="44.42989" lon="5.13006">
        <ele>1014.33</ele>
        <time>2017-04-30T11:14:15Z</time>
      </trkpt>
      <trkpt lat="44.4299" lon="5.13003">
        <ele>1013.85</ele>
        <time>2017-04-30T11:14:17Z</time>
      </trkpt>
      <trkpt lat="44.42992" lon="5.12999">
        <ele>1012.89</ele>
        <time>2017-04-30T11:14:20Z</time>
      </trkpt>
      <trkpt lat="44.42997" lon="5.12989">
        <ele>1009.52</ele>
        <time>2017-04-30T11:14:29Z</time>
      </trkpt>
      <trkpt lat="44.42999" lon="5.12982">
        <ele>1008.56</ele>
        <time>2017-04-30T11:16:36Z</time>
      </trkpt>
      <trkpt lat="44.42999" lon="5.12982">
        <ele>1007.12</ele>
        <time>2017-04-30T11:16:41Z</time>
      </trkpt>
      <trkpt lat="44.43001" lon="5.12979">
        <ele>1004.72</ele>
        <time>2017-04-30T11:16:54Z</time>
      </trkpt>
      <trkpt lat="44.43011" lon="5.12974">
        <ele>1003.75</ele>
        <time>2017-04-30T11:17:09Z</time>
      </trkpt>
      <trkpt lat="44.43025" lon="5.12976">
        <ele>1002.31</ele>
        <time>2017-04-30T11:17:27Z</time>
      </trkpt>
      <trkpt lat="44.43037" lon="5.12978">
        <ele>999.43</ele>
        <time>2017-04-30T11:17:39Z</time>
      </trkpt>
      <trkpt lat="44.43038" lon="5.12978">
        <ele>999.43</ele>
        <time>2017-04-30T11:17:40Z</time>
      </trkpt>
      <trkpt lat="44.43053" lon="5.12983">
        <ele>997.02</ele>
        <time>2017-04-30T11:17:53Z</time>
      </trkpt>
      <trkpt lat="44.4306" lon="5.12985">
        <ele>995.1</ele>
        <time>2017-04-30T11:17:59Z</time>
      </trkpt>
      <trkpt lat="44.43084" lon="5.12992">
        <ele>993.66</ele>
        <time>2017-04-30T11:18:13Z</time>
      </trkpt>
      <trkpt lat="44.43097" lon="5.12997">
        <ele>990.3</ele>
        <time>2017-04-30T11:18:22Z</time>
      </trkpt>
      <trkpt lat="44.43123" lon="5.13004">
        <ele>987.89</ele>
        <time>2017-04-30T11:18:40Z</time>
      </trkpt>
      <trkpt lat="44.43132" lon="5.13005">
        <ele>988.85</ele>
        <time>2017-04-30T11:18:47Z</time>
      </trkpt>
      <trkpt lat="44.43139" lon="5.13003">
        <ele>986.93</ele>
        <time>2017-04-30T11:18:51Z</time>
      </trkpt>
      <trkpt lat="44.43154" lon="5.12996">
        <ele>984.05</ele>
        <time>2017-04-30T11:19:02Z</time>
      </trkpt>
      <trkpt lat="44.43177" lon="5.12981">
        <ele>981.16</ele>
        <time>2017-04-30T11:19:19Z</time>
      </trkpt>
      <trkpt lat="44.4319" lon="5.12972">
        <ele>982.12</ele>
        <time>2017-04-30T11:19:30Z</time>
      </trkpt>
      <trkpt lat="44.432" lon="5.12963">
        <ele>983.09</ele>
        <time>2017-04-30T11:19:42Z</time>
      </trkpt>
      <trkpt lat="44.43202" lon="5.12963">
        <ele>983.57</ele>
        <time>2017-04-30T11:19:45Z</time>
      </trkpt>
      <trkpt lat="44.43205" lon="5.12964">
        <ele>985.01</ele>
        <time>2017-04-30T11:19:50Z</time>
      </trkpt>
      <trkpt lat="44.43216" lon="5.12966">
        <ele>984.53</ele>
        <time>2017-04-30T11:20:03Z</time>
      </trkpt>
      <trkpt lat="44.43217" lon="5.12966">
        <ele>984.53</ele>
        <time>2017-04-30T11:20:04Z</time>
      </trkpt>
      <trkpt lat="44.43226" lon="5.12969">
        <ele>985.97</ele>
        <time>2017-04-30T11:20:14Z</time>
      </trkpt>
      <trkpt lat="44.43234" lon="5.12968">
        <ele>988.85</ele>
        <time>2017-04-30T11:20:22Z</time>
      </trkpt>
      <trkpt lat="44.43246" lon="5.1297">
        <ele>990.3</ele>
        <time>2017-04-30T11:20:35Z</time>
      </trkpt>
      <trkpt lat="44.43247" lon="5.1297">
        <ele>990.3</ele>
        <time>2017-04-30T11:20:36Z</time>
      </trkpt>
      <trkpt lat="44.43254" lon="5.12971">
        <ele>992.22</ele>
        <time>2017-04-30T11:20:43Z</time>
      </trkpt>
      <trkpt lat="44.43267" lon="5.12972">
        <ele>991.26</ele>
        <time>2017-04-30T11:20:55Z</time>
      </trkpt>
      <trkpt lat="44.43274" lon="5.12974">
        <ele>992.7</ele>
        <time>2017-04-30T11:21:02Z</time>
      </trkpt>
      <trkpt lat="44.43286" lon="5.12978">
        <ele>993.66</ele>
        <time>2017-04-30T11:21:13Z</time>
      </trkpt>
      <trkpt lat="44.43303" lon="5.12977">
        <ele>993.66</ele>
        <time>2017-04-30T11:21:28Z</time>
      </trkpt>
      <trkpt lat="44.43309" lon="5.12974">
        <ele>995.1</ele>
        <time>2017-04-30T11:21:35Z</time>
      </trkpt>
      <trkpt lat="44.43316" lon="5.12967">
        <ele>997.51</ele>
        <time>2017-04-30T11:21:46Z</time>
      </trkpt>
      <trkpt lat="44.43325" lon="5.12955">
        <ele>1000.39</ele>
        <time>2017-04-30T11:22:01Z</time>
      </trkpt>
      <trkpt lat="44.43328" lon="5.12944">
        <ele>1003.75</ele>
        <time>2017-04-30T11:22:12Z</time>
      </trkpt>
      <trkpt lat="44.43326" lon="5.12929">
        <ele>1006.16</ele>
        <time>2017-04-30T11:22:27Z</time>
      </trkpt>
      <trkpt lat="44.43327" lon="5.12912">
        <ele>1008.08</ele>
        <time>2017-04-30T11:22:45Z</time>
      </trkpt>
      <trkpt lat="44.43329" lon="5.12905">
        <ele>1009.04</ele>
        <time>2017-04-30T11:22:57Z</time>
      </trkpt>
      <trkpt lat="44.43329" lon="5.12902">
        <ele>1013.85</ele>
        <time>2017-04-30T11:23:00Z</time>
      </trkpt>
      <trkpt lat="44.4333" lon="5.129">
        <ele>1015.29</ele>
        <time>2017-04-30T11:23:02Z</time>
      </trkpt>
      <trkpt lat="44.43332" lon="5.12899">
        <ele>1013.37</ele>
        <time>2017-04-30T11:23:05Z</time>
      </trkpt>
      <trkpt lat="44.43335" lon="5.12896">
        <ele>1015.77</ele>
        <time>2017-04-30T11:23:10Z</time>
      </trkpt>
      <trkpt lat="44.43339" lon="5.12894">
        <ele>1014.33</ele>
        <time>2017-04-30T11:23:17Z</time>
      </trkpt>
      <trkpt lat="44.4334" lon="5.12893">
        <ele>1017.69</ele>
        <time>2017-04-30T11:23:19Z</time>
      </trkpt>
      <trkpt lat="44.43341" lon="5.12891">
        <ele>1018.65</ele>
        <time>2017-04-30T11:23:21Z</time>
      </trkpt>
      <trkpt lat="44.43343" lon="5.1289">
        <ele>1016.73</ele>
        <time>2017-04-30T11:23:27Z</time>
      </trkpt>
      <trkpt lat="44.43344" lon="5.12888">
        <ele>1019.13</ele>
        <time>2017-04-30T11:23:32Z</time>
      </trkpt>
      <trkpt lat="44.43348" lon="5.12885">
        <ele>1017.69</ele>
        <time>2017-04-30T11:23:38Z</time>
      </trkpt>
      <trkpt lat="44.43353" lon="5.12881">
        <ele>1019.13</ele>
        <time>2017-04-30T11:23:48Z</time>
      </trkpt>
      <trkpt lat="44.43357" lon="5.12878">
        <ele>1018.65</ele>
        <time>2017-04-30T11:23:56Z</time>
      </trkpt>
      <trkpt lat="44.4336" lon="5.12875">
        <ele>1022.5</ele>
        <time>2017-04-30T11:24:01Z</time>
      </trkpt>
      <trkpt lat="44.4336" lon="5.12874">
        <ele>1022.5</ele>
        <time>2017-04-30T11:24:02Z</time>
      </trkpt>
      <trkpt lat="44.43362" lon="5.12871">
        <ele>1021.06</ele>
        <time>2017-04-30T11:24:05Z</time>
      </trkpt>
      <trkpt lat="44.43363" lon="5.1287">
        <ele>1019.62</ele>
        <time>2017-04-30T11:24:08Z</time>
      </trkpt>
      <trkpt lat="44.43364" lon="5.12869">
        <ele>1022.98</ele>
        <time>2017-04-30T11:24:10Z</time>
      </trkpt>
      <trkpt lat="44.43364" lon="5.12868">
        <ele>1023.94</ele>
        <time>2017-04-30T11:24:12Z</time>
      </trkpt>
      <trkpt lat="44.43368" lon="5.12863">
        <ele>1024.42</ele>
        <time>2017-04-30T11:24:28Z</time>
      </trkpt>
      <trkpt lat="44.43369" lon="5.12861">
        <ele>1027.79</ele>
        <time>2017-04-30T11:24:33Z</time>
      </trkpt>
      <trkpt lat="44.43369" lon="5.1286">
        <ele>1029.23</ele>
        <time>2017-04-30T11:24:36Z</time>
      </trkpt>
      <trkpt lat="44.43371" lon="5.12855">
        <ele>1027.79</ele>
        <time>2017-04-30T11:24:45Z</time>
      </trkpt>
      <trkpt lat="44.43373" lon="5.12851">
        <ele>1029.23</ele>
        <time>2017-04-30T11:24:54Z</time>
      </trkpt>
      <trkpt lat="44.43377" lon="5.12845">
        <ele>1031.15</ele>
        <time>2017-04-30T11:25:11Z</time>
      </trkpt>
      <trkpt lat="44.4338" lon="5.1284">
        <ele>1035</ele>
        <time>2017-04-30T11:25:24Z</time>
      </trkpt>
      <trkpt lat="44.43383" lon="5.12835">
        <ele>1038.36</ele>
        <time>2017-04-30T11:25:35Z</time>
      </trkpt>
      <trkpt lat="44.43391" lon="5.12827">
        <ele>1037.88</ele>
        <time>2017-04-30T11:25:53Z</time>
      </trkpt>
      <trkpt lat="44.43391" lon="5.12826">
        <ele>1037.88</ele>
        <time>2017-04-30T11:25:54Z</time>
      </trkpt>
      <trkpt lat="44.43395" lon="5.12824">
        <ele>1040.28</ele>
        <time>2017-04-30T11:26:03Z</time>
      </trkpt>
      <trkpt lat="44.43397" lon="5.12822">
        <ele>1043.17</ele>
        <time>2017-04-30T11:26:10Z</time>
      </trkpt>
      <trkpt lat="44.434" lon="5.12819">
        <ele>1043.65</ele>
        <time>2017-04-30T11:26:19Z</time>
      </trkpt>
      <trkpt lat="44.43402" lon="5.12818">
        <ele>1045.09</ele>
        <time>2017-04-30T11:26:22Z</time>
      </trkpt>
      <trkpt lat="44.43408" lon="5.12812">
        <ele>1048.94</ele>
        <time>2017-04-30T11:26:38Z</time>
      </trkpt>
      <trkpt lat="44.43408" lon="5.12812">
        <ele>1048.94</ele>
        <time>2017-04-30T11:26:39Z</time>
      </trkpt>
      <trkpt lat="44.43413" lon="5.12809">
        <ele>1051.82</ele>
        <time>2017-04-30T11:26:51Z</time>
      </trkpt>
      <trkpt lat="44.43417" lon="5.12805">
        <ele>1052.78</ele>
        <time>2017-04-30T11:27:04Z</time>
      </trkpt>
      <trkpt lat="44.43418" lon="5.128">
        <ele>1054.7</ele>
        <time>2017-04-30T11:27:17Z</time>
      </trkpt>
      <trkpt lat="44.4342" lon="5.12797">
        <ele>1056.63</ele>
        <time>2017-04-30T11:27:33Z</time>
      </trkpt>
      <trkpt lat="44.4342" lon="5.12796">
        <ele>1059.03</ele>
        <time>2017-04-30T11:27:37Z</time>
      </trkpt>
      <trkpt lat="44.43422" lon="5.12792">
        <ele>1059.99</ele>
        <time>2017-04-30T11:27:49Z</time>
      </trkpt>
      <trkpt lat="44.43423" lon="5.1279">
        <ele>1062.39</ele>
        <time>2017-04-30T11:27:53Z</time>
      </trkpt>
      <trkpt lat="44.43426" lon="5.12788">
        <ele>1061.43</ele>
        <time>2017-04-30T11:27:59Z</time>
      </trkpt>
      <trkpt lat="44.43426" lon="5.12787">
        <ele>1062.87</ele>
        <time>2017-04-30T11:28:01Z</time>
      </trkpt>
      <trkpt lat="44.43431" lon="5.12784">
        <ele>1064.32</ele>
        <time>2017-04-30T11:28:16Z</time>
      </trkpt>
      <trkpt lat="44.43432" lon="5.12783">
        <ele>1066.72</ele>
        <time>2017-04-30T11:28:21Z</time>
      </trkpt>
      <trkpt lat="44.43436" lon="5.1278">
        <ele>1068.16</ele>
        <time>2017-04-30T11:28:39Z</time>
      </trkpt>
      <trkpt lat="44.43437" lon="5.12779">
        <ele>1071.05</ele>
        <time>2017-04-30T11:28:47Z</time>
      </trkpt>
      <trkpt lat="44.43444" lon="5.12771">
        <ele>1073.93</ele>
        <time>2017-04-30T11:29:07Z</time>
      </trkpt>
      <trkpt lat="44.43447" lon="5.12767">
        <ele>1077.29</ele>
        <time>2017-04-30T11:29:18Z</time>
      </trkpt>
      <trkpt lat="44.43448" lon="5.12764">
        <ele>1079.22</ele>
        <time>2017-04-30T11:29:31Z</time>
      </trkpt>
      <trkpt lat="44.43449" lon="5.12762">
        <ele>1083.06</ele>
        <time>2017-04-30T11:29:40Z</time>
      </trkpt>
      <trkpt lat="44.43449" lon="5.12761">
        <ele>1083.54</ele>
        <time>2017-04-30T11:29:42Z</time>
      </trkpt>
      <trkpt lat="44.4345" lon="5.12759">
        <ele>1082.58</ele>
        <time>2017-04-30T11:29:47Z</time>
      </trkpt>
      <trkpt lat="44.43453" lon="5.12756">
        <ele>1083.54</ele>
        <time>2017-04-30T11:37:47Z</time>
      </trkpt>
      <trkpt lat="44.43454" lon="5.12756">
        <ele>1082.58</ele>
        <time>2017-04-30T11:37:49Z</time>
      </trkpt>
      <trkpt lat="44.43454" lon="5.12755">
        <ele>1086.91</ele>
        <time>2017-04-30T11:37:50Z</time>
      </trkpt>
      <trkpt lat="44.43455" lon="5.12755">
        <ele>1084.99</ele>
        <time>2017-04-30T11:37:51Z</time>
      </trkpt>
      <trkpt lat="44.43462" lon="5.12752">
        <ele>1083.54</ele>
        <time>2017-04-30T11:38:01Z</time>
      </trkpt>
      <trkpt lat="44.43466" lon="5.12752">
        <ele>1084.99</ele>
        <time>2017-04-30T11:38:05Z</time>
      </trkpt>
      <trkpt lat="44.43469" lon="5.12752">
        <ele>1086.91</ele>
        <time>2017-04-30T11:38:08Z</time>
      </trkpt>
      <trkpt lat="44.43479" lon="5.12751">
        <ele>1089.79</ele>
        <time>2017-04-30T11:38:19Z</time>
      </trkpt>
      <trkpt lat="44.4348" lon="5.1275">
        <ele>1089.79</ele>
        <time>2017-04-30T11:38:20Z</time>
      </trkpt>
      <trkpt lat="44.43481" lon="5.1275">
        <ele>1089.79</ele>
        <time>2017-04-30T11:38:21Z</time>
      </trkpt>
      <trkpt lat="44.43488" lon="5.12747">
        <ele>1086.91</ele>
        <time>2017-04-30T11:38:29Z</time>
      </trkpt>
      <trkpt lat="44.43502" lon="5.12743">
        <ele>1088.83</ele>
        <time>2017-04-30T11:38:42Z</time>
      </trkpt>
      <trkpt lat="44.4351" lon="5.1274">
        <ele>1085.95</ele>
        <time>2017-04-30T11:38:50Z</time>
      </trkpt>
      <trkpt lat="44.43517" lon="5.1274">
        <ele>1088.35</ele>
        <time>2017-04-30T11:38:59Z</time>
      </trkpt>
      <trkpt lat="44.43518" lon="5.12742">
        <ele>1086.43</ele>
        <time>2017-04-30T11:39:06Z</time>
      </trkpt>
      <trkpt lat="44.43518" lon="5.12743">
        <ele>1088.35</ele>
        <time>2017-04-30T11:39:08Z</time>
      </trkpt>
      <trkpt lat="44.43522" lon="5.12741">
        <ele>1085.95</ele>
        <time>2017-04-30T11:39:21Z</time>
      </trkpt>
      <trkpt lat="44.43523" lon="5.1274">
        <ele>1085.95</ele>
        <time>2017-04-30T11:39:24Z</time>
      </trkpt>
      <trkpt lat="44.43532" lon="5.12733">
        <ele>1085.47</ele>
        <time>2017-04-30T11:39:35Z</time>
      </trkpt>
      <trkpt lat="44.43544" lon="5.12726">
        <ele>1085.47</ele>
        <time>2017-04-30T11:39:49Z</time>
      </trkpt>
      <trkpt lat="44.43548" lon="5.12725">
        <ele>1084.5</ele>
        <time>2017-04-30T11:39:53Z</time>
      </trkpt>
      <trkpt lat="44.43558" lon="5.12721">
        <ele>1082.1</ele>
        <time>2017-04-30T11:40:04Z</time>
      </trkpt>
      <trkpt lat="44.43569" lon="5.12711">
        <ele>1078.74</ele>
        <time>2017-04-30T11:40:19Z</time>
      </trkpt>
      <trkpt lat="44.43583" lon="5.12707">
        <ele>1077.29</ele>
        <time>2017-04-30T11:40:34Z</time>
      </trkpt>
      <trkpt lat="44.43598" lon="5.12702">
        <ele>1075.37</ele>
        <time>2017-04-30T11:40:49Z</time>
      </trkpt>
      <trkpt lat="44.43601" lon="5.12701">
        <ele>1077.29</ele>
        <time>2017-04-30T11:40:52Z</time>
      </trkpt>
      <trkpt lat="44.43604" lon="5.12701">
        <ele>1075.85</ele>
        <time>2017-04-30T11:40:55Z</time>
      </trkpt>
      <trkpt lat="44.43605" lon="5.127">
        <ele>1075.37</ele>
        <time>2017-04-30T11:40:56Z</time>
      </trkpt>
      <trkpt lat="44.4361" lon="5.12699">
        <ele>1074.89</ele>
        <time>2017-04-30T11:41:01Z</time>
      </trkpt>
      <trkpt lat="44.43622" lon="5.12692">
        <ele>1074.89</ele>
        <time>2017-04-30T11:41:13Z</time>
      </trkpt>
      <trkpt lat="44.43641" lon="5.12674">
        <ele>1071.53</ele>
        <time>2017-04-30T11:41:40Z</time>
      </trkpt>
      <trkpt lat="44.43645" lon="5.1267">
        <ele>1073.45</ele>
        <time>2017-04-30T11:41:51Z</time>
      </trkpt>
      <trkpt lat="44.4365" lon="5.12663">
        <ele>1071.53</ele>
        <time>2017-04-30T11:42:00Z</time>
      </trkpt>
      <trkpt lat="44.43656" lon="5.12655">
        <ele>1071.05</ele>
        <time>2017-04-30T11:42:08Z</time>
      </trkpt>
      <trkpt lat="44.43662" lon="5.12645">
        <ele>1068.64</ele>
        <time>2017-04-30T11:42:17Z</time>
      </trkpt>
      <trkpt lat="44.43663" lon="5.12643">
        <ele>1069.6</ele>
        <time>2017-04-30T11:42:19Z</time>
      </trkpt>
      <trkpt lat="44.43672" lon="5.1263">
        <ele>1070.08</ele>
        <time>2017-04-30T11:42:32Z</time>
      </trkpt>
      <trkpt lat="44.43676" lon="5.12627">
        <ele>1070.08</ele>
        <time>2017-04-30T11:42:36Z</time>
      </trkpt>
      <trkpt lat="44.43683" lon="5.12621">
        <ele>1068.64</ele>
        <time>2017-04-30T11:42:43Z</time>
      </trkpt>
      <trkpt lat="44.43691" lon="5.1262">
        <ele>1069.6</ele>
        <time>2017-04-30T11:42:51Z</time>
      </trkpt>
      <trkpt lat="44.43698" lon="5.12619">
        <ele>1072.97</ele>
        <time>2017-04-30T11:42:56Z</time>
      </trkpt>
      <trkpt lat="44.437" lon="5.12618">
        <ele>1074.41</ele>
        <time>2017-04-30T11:42:58Z</time>
      </trkpt>
      <trkpt lat="44.43703" lon="5.12615">
        <ele>1071.05</ele>
        <time>2017-04-30T11:43:01Z</time>
      </trkpt>
      <trkpt lat="44.43704" lon="5.12613">
        <ele>1071.05</ele>
        <time>2017-04-30T11:43:03Z</time>
      </trkpt>
      <trkpt lat="44.43712" lon="5.12605">
        <ele>1072.01</ele>
        <time>2017-04-30T11:43:10Z</time>
      </trkpt>
      <trkpt lat="44.43714" lon="5.12603">
        <ele>1071.05</ele>
        <time>2017-04-30T11:43:12Z</time>
      </trkpt>
      <trkpt lat="44.43718" lon="5.12597">
        <ele>1073.45</ele>
        <time>2017-04-30T11:43:16Z</time>
      </trkpt>
      <trkpt lat="44.4372" lon="5.12593">
        <ele>1075.37</ele>
        <time>2017-04-30T11:43:20Z</time>
      </trkpt>
      <trkpt lat="44.43725" lon="5.12588">
        <ele>1074.89</ele>
        <time>2017-04-30T11:43:26Z</time>
      </trkpt>
      <trkpt lat="44.43735" lon="5.12579">
        <ele>1075.85</ele>
        <time>2017-04-30T11:43:39Z</time>
      </trkpt>
      <trkpt lat="44.43741" lon="5.12571">
        <ele>1076.81</ele>
        <time>2017-04-30T11:43:48Z</time>
      </trkpt>
      <trkpt lat="44.43743" lon="5.12566">
        <ele>1075.37</ele>
        <time>2017-04-30T11:43:52Z</time>
      </trkpt>
      <trkpt lat="44.43744" lon="5.12562">
        <ele>1077.29</ele>
        <time>2017-04-30T11:43:55Z</time>
      </trkpt>
      <trkpt lat="44.4375" lon="5.12541">
        <ele>1078.74</ele>
        <time>2017-04-30T11:44:10Z</time>
      </trkpt>
      <trkpt lat="44.43754" lon="5.12524">
        <ele>1077.29</ele>
        <time>2017-04-30T11:44:24Z</time>
      </trkpt>
      <trkpt lat="44.43758" lon="5.12506">
        <ele>1076.33</ele>
        <time>2017-04-30T11:44:38Z</time>
      </trkpt>
      <trkpt lat="44.43767" lon="5.12486">
        <ele>1075.37</ele>
        <time>2017-04-30T11:44:52Z</time>
      </trkpt>
      <trkpt lat="44.43776" lon="5.12462">
        <ele>1073.45</ele>
        <time>2017-04-30T11:45:07Z</time>
      </trkpt>
      <trkpt lat="44.43778" lon="5.12455">
        <ele>1075.37</ele>
        <time>2017-04-30T11:45:11Z</time>
      </trkpt>
      <trkpt lat="44.4378" lon="5.12446">
        <ele>1073.93</ele>
        <time>2017-04-30T11:45:16Z</time>
      </trkpt>
      <trkpt lat="44.43786" lon="5.1242">
        <ele>1072.01</ele>
        <time>2017-04-30T11:45:32Z</time>
      </trkpt>
      <trkpt lat="44.43795" lon="5.12405">
        <ele>1069.6</ele>
        <time>2017-04-30T11:45:44Z</time>
      </trkpt>
      <trkpt lat="44.43798" lon="5.12401">
        <ele>1073.45</ele>
        <time>2017-04-30T11:45:48Z</time>
      </trkpt>
      <trkpt lat="44.43799" lon="5.12399">
        <ele>1071.53</ele>
        <time>2017-04-30T11:45:50Z</time>
      </trkpt>
      <trkpt lat="44.438" lon="5.12398">
        <ele>1069.6</ele>
        <time>2017-04-30T11:45:53Z</time>
      </trkpt>
      <trkpt lat="44.4381" lon="5.12403">
        <ele>1071.53</ele>
        <time>2017-04-30T11:46:06Z</time>
      </trkpt>
      <trkpt lat="44.43818" lon="5.12401">
        <ele>1069.12</ele>
        <time>2017-04-30T11:46:13Z</time>
      </trkpt>
      <trkpt lat="44.43822" lon="5.124">
        <ele>1072.01</ele>
        <time>2017-04-30T11:46:16Z</time>
      </trkpt>
      <trkpt lat="44.43824" lon="5.12399">
        <ele>1068.64</ele>
        <time>2017-04-30T11:46:18Z</time>
      </trkpt>
      <trkpt lat="44.43826" lon="5.12399">
        <ele>1068.64</ele>
        <time>2017-04-30T11:46:19Z</time>
      </trkpt>
      <trkpt lat="44.43831" lon="5.12398">
        <ele>1068.16</ele>
        <time>2017-04-30T11:46:24Z</time>
      </trkpt>
      <trkpt lat="44.43837" lon="5.12394">
        <ele>1067.68</ele>
        <time>2017-04-30T11:46:30Z</time>
      </trkpt>
      <trkpt lat="44.43838" lon="5.12383">
        <ele>1063.36</ele>
        <time>2017-04-30T11:46:40Z</time>
      </trkpt>
      <trkpt lat="44.43839" lon="5.12373">
        <ele>1059.99</ele>
        <time>2017-04-30T11:46:51Z</time>
      </trkpt>
      <trkpt lat="44.43839" lon="5.12371">
        <ele>1059.99</ele>
        <time>2017-04-30T11:46:52Z</time>
      </trkpt>
      <trkpt lat="44.43838" lon="5.12369">
        <ele>1059.03</ele>
        <time>2017-04-30T11:46:54Z</time>
      </trkpt>
      <trkpt lat="44.43834" lon="5.12355">
        <ele>1057.59</ele>
        <time>2017-04-30T11:47:04Z</time>
      </trkpt>
      <trkpt lat="44.43835" lon="5.12345">
        <ele>1054.22</ele>
        <time>2017-04-30T11:47:11Z</time>
      </trkpt>
      <trkpt lat="44.43834" lon="5.12338">
        <ele>1052.78</ele>
        <time>2017-04-30T11:47:16Z</time>
      </trkpt>
      <trkpt lat="44.43832" lon="5.12325">
        <ele>1050.38</ele>
        <time>2017-04-30T11:47:26Z</time>
      </trkpt>
      <trkpt lat="44.4383" lon="5.12321">
        <ele>1049.9</ele>
        <time>2017-04-30T11:47:29Z</time>
      </trkpt>
      <trkpt lat="44.43825" lon="5.12311">
        <ele>1048.45</ele>
        <time>2017-04-30T11:47:38Z</time>
      </trkpt>
      <trkpt lat="44.43823" lon="5.12302">
        <ele>1044.61</ele>
        <time>2017-04-30T11:47:47Z</time>
      </trkpt>
      <trkpt lat="44.43821" lon="5.12297">
        <ele>1042.21</ele>
        <time>2017-04-30T11:47:51Z</time>
      </trkpt>
      <trkpt lat="44.4382" lon="5.12291">
        <ele>1043.65</ele>
        <time>2017-04-30T11:47:56Z</time>
      </trkpt>
      <trkpt lat="44.43819" lon="5.12282">
        <ele>1040.76</ele>
        <time>2017-04-30T11:48:04Z</time>
      </trkpt>
      <trkpt lat="44.43819" lon="5.12279">
        <ele>1040.28</ele>
        <time>2017-04-30T11:48:06Z</time>
      </trkpt>
      <trkpt lat="44.43822" lon="5.12272">
        <ele>1036.92</ele>
        <time>2017-04-30T11:48:12Z</time>
      </trkpt>
      <trkpt lat="44.43826" lon="5.12264">
        <ele>1037.4</ele>
        <time>2017-04-30T11:48:19Z</time>
      </trkpt>
      <trkpt lat="44.43827" lon="5.12262">
        <ele>1036.92</ele>
        <time>2017-04-30T11:48:22Z</time>
      </trkpt>
      <trkpt lat="44.4383" lon="5.12255">
        <ele>1033.55</ele>
        <time>2017-04-30T11:48:28Z</time>
      </trkpt>
      <trkpt lat="44.43834" lon="5.12239">
        <ele>1030.67</ele>
        <time>2017-04-30T11:48:40Z</time>
      </trkpt>
      <trkpt lat="44.43835" lon="5.12231">
        <ele>1029.23</ele>
        <time>2017-04-30T11:48:54Z</time>
      </trkpt>
      <trkpt lat="44.43834" lon="5.12214">
        <ele>1025.86</ele>
        <time>2017-04-30T11:49:07Z</time>
      </trkpt>
      <trkpt lat="44.43832" lon="5.12203">
        <ele>1022.5</ele>
        <time>2017-04-30T11:49:16Z</time>
      </trkpt>
      <trkpt lat="44.43832" lon="5.12194">
        <ele>1019.62</ele>
        <time>2017-04-30T11:49:22Z</time>
      </trkpt>
      <trkpt lat="44.43832" lon="5.12185">
        <ele>1017.69</ele>
        <time>2017-04-30T11:49:28Z</time>
      </trkpt>
      <trkpt lat="44.43834" lon="5.12181">
        <ele>1016.25</ele>
        <time>2017-04-30T11:49:31Z</time>
      </trkpt>
      <trkpt lat="44.43838" lon="5.12172">
        <ele>1012.41</ele>
        <time>2017-04-30T11:49:39Z</time>
      </trkpt>
      <trkpt lat="44.43839" lon="5.12163">
        <ele>1011.44</ele>
        <time>2017-04-30T11:49:47Z</time>
      </trkpt>
      <trkpt lat="44.4384" lon="5.1215">
        <ele>1008.56</ele>
        <time>2017-04-30T11:49:58Z</time>
      </trkpt>
      <trkpt lat="44.43843" lon="5.12141">
        <ele>1005.2</ele>
        <time>2017-04-30T11:50:07Z</time>
      </trkpt>
      <trkpt lat="44.43843" lon="5.12129">
        <ele>1002.31</ele>
        <time>2017-04-30T11:50:15Z</time>
      </trkpt>
      <trkpt lat="44.43843" lon="5.12123">
        <ele>999.91</ele>
        <time>2017-04-30T11:50:19Z</time>
      </trkpt>
      <trkpt lat="44.43847" lon="5.12112">
        <ele>1000.39</ele>
        <time>2017-04-30T11:50:27Z</time>
      </trkpt>
      <trkpt lat="44.43847" lon="5.12109">
        <ele>997.02</ele>
        <time>2017-04-30T11:50:30Z</time>
      </trkpt>
      <trkpt lat="44.43848" lon="5.12106">
        <ele>996.06</ele>
        <time>2017-04-30T11:50:32Z</time>
      </trkpt>
      <trkpt lat="44.43855" lon="5.1209">
        <ele>992.22</ele>
        <time>2017-04-30T11:50:46Z</time>
      </trkpt>
      <trkpt lat="44.43857" lon="5.12075">
        <ele>988.85</ele>
        <time>2017-04-30T11:50:59Z</time>
      </trkpt>
      <trkpt lat="44.43859" lon="5.12071">
        <ele>986.93</ele>
        <time>2017-04-30T11:51:03Z</time>
      </trkpt>
      <trkpt lat="44.43862" lon="5.12054">
        <ele>983.57</ele>
        <time>2017-04-30T11:51:17Z</time>
      </trkpt>
      <trkpt lat="44.4386" lon="5.12035">
        <ele>980.2</ele>
        <time>2017-04-30T11:51:28Z</time>
      </trkpt>
      <trkpt lat="44.43851" lon="5.12015">
        <ele>977.32</ele>
        <time>2017-04-30T11:51:41Z</time>
      </trkpt>
      <trkpt lat="44.43844" lon="5.11999">
        <ele>974.43</ele>
        <time>2017-04-30T11:51:53Z</time>
      </trkpt>
      <trkpt lat="44.43838" lon="5.11989">
        <ele>972.51</ele>
        <time>2017-04-30T11:52:02Z</time>
      </trkpt>
      <trkpt lat="44.43834" lon="5.11974">
        <ele>969.15</ele>
        <time>2017-04-30T11:52:13Z</time>
      </trkpt>
      <trkpt lat="44.4383" lon="5.11964">
        <ele>966.26</ele>
        <time>2017-04-30T11:52:22Z</time>
      </trkpt>
      <trkpt lat="44.43822" lon="5.11945">
        <ele>963.38</ele>
        <time>2017-04-30T11:52:37Z</time>
      </trkpt>
      <trkpt lat="44.43817" lon="5.11931">
        <ele>960.01</ele>
        <time>2017-04-30T11:52:47Z</time>
      </trkpt>
      <trkpt lat="44.43817" lon="5.11906">
        <ele>957.13</ele>
        <time>2017-04-30T11:53:02Z</time>
      </trkpt>
      <trkpt lat="44.43816" lon="5.1189">
        <ele>953.77</ele>
        <time>2017-04-30T11:53:15Z</time>
      </trkpt>
      <trkpt lat="44.43817" lon="5.11883">
        <ele>950.4</ele>
        <time>2017-04-30T11:53:21Z</time>
      </trkpt>
      <trkpt lat="44.43817" lon="5.11882">
        <ele>950.4</ele>
        <time>2017-04-30T11:53:22Z</time>
      </trkpt>
      <trkpt lat="44.43817" lon="5.11861">
        <ele>947.52</ele>
        <time>2017-04-30T11:53:38Z</time>
      </trkpt>
      <trkpt lat="44.43818" lon="5.11849">
        <ele>944.63</ele>
        <time>2017-04-30T11:53:46Z</time>
      </trkpt>
      <trkpt lat="44.43815" lon="5.11831">
        <ele>941.27</ele>
        <time>2017-04-30T11:53:59Z</time>
      </trkpt>
      <trkpt lat="44.43815" lon="5.11818">
        <ele>938.38</ele>
        <time>2017-04-30T11:54:09Z</time>
      </trkpt>
      <trkpt lat="44.43823" lon="5.11796">
        <ele>935.02</ele>
        <time>2017-04-30T11:54:26Z</time>
      </trkpt>
      <trkpt lat="44.43822" lon="5.11783">
        <ele>933.1</ele>
        <time>2017-04-30T11:54:35Z</time>
      </trkpt>
      <trkpt lat="44.43821" lon="5.11778">
        <ele>932.14</ele>
        <time>2017-04-30T11:54:38Z</time>
      </trkpt>
      <trkpt lat="44.43816" lon="5.11761">
        <ele>930.69</ele>
        <time>2017-04-30T11:54:52Z</time>
      </trkpt>
      <trkpt lat="44.43815" lon="5.11741">
        <ele>929.73</ele>
        <time>2017-04-30T11:55:06Z</time>
      </trkpt>
      <trkpt lat="44.43817" lon="5.11726">
        <ele>930.69</ele>
        <time>2017-04-30T12:01:48Z</time>
      </trkpt>
      <trkpt lat="44.43817" lon="5.11715">
        <ele>931.17</ele>
        <time>2017-04-30T12:01:57Z</time>
      </trkpt>
      <trkpt lat="44.43818" lon="5.11687">
        <ele>928.77</ele>
        <time>2017-04-30T12:02:15Z</time>
      </trkpt>
      <trkpt lat="44.43823" lon="5.11676">
        <ele>930.21</ele>
        <time>2017-04-30T12:02:23Z</time>
      </trkpt>
      <trkpt lat="44.4383" lon="5.11672">
        <ele>930.21</ele>
        <time>2017-04-30T12:02:30Z</time>
      </trkpt>
      <trkpt lat="44.43842" lon="5.1167">
        <ele>927.81</ele>
        <time>2017-04-30T12:02:44Z</time>
      </trkpt>
      <trkpt lat="44.43858" lon="5.11675">
        <ele>926.37</ele>
        <time>2017-04-30T12:03:00Z</time>
      </trkpt>
      <trkpt lat="44.43868" lon="5.11679">
        <ele>923.48</ele>
        <time>2017-04-30T12:03:12Z</time>
      </trkpt>
      <trkpt lat="44.43879" lon="5.11682">
        <ele>920.6</ele>
        <time>2017-04-30T12:03:22Z</time>
      </trkpt>
      <trkpt lat="44.43895" lon="5.11686">
        <ele>917.24</ele>
        <time>2017-04-30T12:03:34Z</time>
      </trkpt>
      <trkpt lat="44.43906" lon="5.11687">
        <ele>913.87</ele>
        <time>2017-04-30T12:03:44Z</time>
      </trkpt>
      <trkpt lat="44.43916" lon="5.11688">
        <ele>910.51</ele>
        <time>2017-04-30T12:03:52Z</time>
      </trkpt>
      <trkpt lat="44.43928" lon="5.11688">
        <ele>907.62</ele>
        <time>2017-04-30T12:04:03Z</time>
      </trkpt>
      <trkpt lat="44.43939" lon="5.11691">
        <ele>904.74</ele>
        <time>2017-04-30T12:04:14Z</time>
      </trkpt>
      <trkpt lat="44.43946" lon="5.11695">
        <ele>901.37</ele>
        <time>2017-04-30T12:04:24Z</time>
      </trkpt>
      <trkpt lat="44.43958" lon="5.11697">
        <ele>898.01</ele>
        <time>2017-04-30T12:04:35Z</time>
      </trkpt>
      <trkpt lat="44.43969" lon="5.11697">
        <ele>894.64</ele>
        <time>2017-04-30T12:04:46Z</time>
      </trkpt>
      <trkpt lat="44.43981" lon="5.11701">
        <ele>890.8</ele>
        <time>2017-04-30T12:04:57Z</time>
      </trkpt>
      <trkpt lat="44.43982" lon="5.11701">
        <ele>890.8</ele>
        <time>2017-04-30T12:04:58Z</time>
      </trkpt>
      <trkpt lat="44.43993" lon="5.11701">
        <ele>887.43</ele>
        <time>2017-04-30T12:05:12Z</time>
      </trkpt>
      <trkpt lat="44.44005" lon="5.11706">
        <ele>884.07</ele>
        <time>2017-04-30T12:05:23Z</time>
      </trkpt>
      <trkpt lat="44.44006" lon="5.11707">
        <ele>883.59</ele>
        <time>2017-04-30T12:05:24Z</time>
      </trkpt>
      <trkpt lat="44.44022" lon="5.11713">
        <ele>880.71</ele>
        <time>2017-04-30T12:05:38Z</time>
      </trkpt>
      <trkpt lat="44.44029" lon="5.11717">
        <ele>879.26</ele>
        <time>2017-04-30T12:05:53Z</time>
      </trkpt>
      <trkpt lat="44.44043" lon="5.11727">
        <ele>877.82</ele>
        <time>2017-04-30T12:06:08Z</time>
      </trkpt>
      <trkpt lat="44.44054" lon="5.11738">
        <ele>874.94</ele>
        <time>2017-04-30T12:06:23Z</time>
      </trkpt>
      <trkpt lat="44.44065" lon="5.11747">
        <ele>872.53</ele>
        <time>2017-04-30T12:06:35Z</time>
      </trkpt>
      <trkpt lat="44.44076" lon="5.1176">
        <ele>869.17</ele>
        <time>2017-04-30T12:06:49Z</time>
      </trkpt>
      <trkpt lat="44.44087" lon="5.1177">
        <ele>865.8</ele>
        <time>2017-04-30T12:07:01Z</time>
      </trkpt>
      <trkpt lat="44.441" lon="5.11783">
        <ele>862.92</ele>
        <time>2017-04-30T12:07:12Z</time>
      </trkpt>
      <trkpt lat="44.44113" lon="5.11791">
        <ele>859.56</ele>
        <time>2017-04-30T12:07:23Z</time>
      </trkpt>
      <trkpt lat="44.44126" lon="5.11802">
        <ele>857.15</ele>
        <time>2017-04-30T12:07:35Z</time>
      </trkpt>
      <trkpt lat="44.44135" lon="5.11809">
        <ele>853.79</ele>
        <time>2017-04-30T12:07:45Z</time>
      </trkpt>
      <trkpt lat="44.44143" lon="5.11819">
        <ele>850.42</ele>
        <time>2017-04-30T12:07:56Z</time>
      </trkpt>
      <trkpt lat="44.44151" lon="5.11833">
        <ele>847.54</ele>
        <time>2017-04-30T12:08:07Z</time>
      </trkpt>
      <trkpt lat="44.44156" lon="5.11845">
        <ele>844.18</ele>
        <time>2017-04-30T12:08:17Z</time>
      </trkpt>
      <trkpt lat="44.44163" lon="5.11854">
        <ele>841.29</ele>
        <time>2017-04-30T12:08:25Z</time>
      </trkpt>
      <trkpt lat="44.44173" lon="5.11853">
        <ele>840.33</ele>
        <time>2017-04-30T12:08:34Z</time>
      </trkpt>
      <trkpt lat="44.44192" lon="5.11841">
        <ele>839.85</ele>
        <time>2017-04-30T12:08:48Z</time>
      </trkpt>
      <trkpt lat="44.44198" lon="5.1184">
        <ele>839.37</ele>
        <time>2017-04-30T12:08:54Z</time>
      </trkpt>
      <trkpt lat="44.44207" lon="5.11848">
        <ele>837.93</ele>
        <time>2017-04-30T12:09:05Z</time>
      </trkpt>
      <trkpt lat="44.44218" lon="5.11863">
        <ele>836.48</ele>
        <time>2017-04-30T12:09:18Z</time>
      </trkpt>
      <trkpt lat="44.44229" lon="5.1187">
        <ele>833.12</ele>
        <time>2017-04-30T12:09:28Z</time>
      </trkpt>
      <trkpt lat="44.44238" lon="5.1188">
        <ele>831.68</ele>
        <time>2017-04-30T12:09:37Z</time>
      </trkpt>
      <trkpt lat="44.44241" lon="5.11884">
        <ele>830.24</ele>
        <time>2017-04-30T12:09:40Z</time>
      </trkpt>
      <trkpt lat="44.44242" lon="5.11885">
        <ele>830.24</ele>
        <time>2017-04-30T12:09:41Z</time>
      </trkpt>
      <trkpt lat="44.44249" lon="5.11899">
        <ele>827.35</ele>
        <time>2017-04-30T12:09:54Z</time>
      </trkpt>
      <trkpt lat="44.44257" lon="5.11909">
        <ele>824.95</ele>
        <time>2017-04-30T12:10:07Z</time>
      </trkpt>
      <trkpt lat="44.44261" lon="5.11914">
        <ele>822.55</ele>
        <time>2017-04-30T12:10:17Z</time>
      </trkpt>
      <trkpt lat="44.44278" lon="5.11925">
        <ele>819.18</ele>
        <time>2017-04-30T12:10:31Z</time>
      </trkpt>
      <trkpt lat="44.44283" lon="5.11933">
        <ele>817.74</ele>
        <time>2017-04-30T12:10:38Z</time>
      </trkpt>
      <trkpt lat="44.44283" lon="5.11955">
        <ele>814.37</ele>
        <time>2017-04-30T12:10:55Z</time>
      </trkpt>
      <trkpt lat="44.44289" lon="5.11972">
        <ele>812.93</ele>
        <time>2017-04-30T12:11:09Z</time>
      </trkpt>
      <trkpt lat="44.443" lon="5.11978">
        <ele>810.53</ele>
        <time>2017-04-30T12:11:20Z</time>
      </trkpt>
      <trkpt lat="44.44317" lon="5.11978">
        <ele>807.64</ele>
        <time>2017-04-30T12:11:34Z</time>
      </trkpt>
      <trkpt lat="44.4433" lon="5.11979">
        <ele>805.72</ele>
        <time>2017-04-30T12:11:44Z</time>
      </trkpt>
      <trkpt lat="44.44342" lon="5.11984">
        <ele>804.28</ele>
        <time>2017-04-30T12:11:56Z</time>
      </trkpt>
      <trkpt lat="44.44355" lon="5.11991">
        <ele>801.4</ele>
        <time>2017-04-30T12:12:11Z</time>
      </trkpt>
      <trkpt lat="44.44362" lon="5.11992">
        <ele>798.03</ele>
        <time>2017-04-30T12:12:20Z</time>
      </trkpt>
      <trkpt lat="44.44372" lon="5.11993">
        <ele>795.15</ele>
        <time>2017-04-30T12:12:28Z</time>
      </trkpt>
      <trkpt lat="44.44377" lon="5.11994">
        <ele>793.71</ele>
        <time>2017-04-30T12:12:32Z</time>
      </trkpt>
      <trkpt lat="44.44388" lon="5.11997">
        <ele>790.82</ele>
        <time>2017-04-30T12:12:41Z</time>
      </trkpt>
      <trkpt lat="44.4439" lon="5.11997">
        <ele>790.82</ele>
        <time>2017-04-30T12:12:42Z</time>
      </trkpt>
      <trkpt lat="44.44394" lon="5.11998">
        <ele>788.9</ele>
        <time>2017-04-30T12:12:46Z</time>
      </trkpt>
      <trkpt lat="44.44409" lon="5.12001">
        <ele>786.02</ele>
        <time>2017-04-30T12:12:58Z</time>
      </trkpt>
      <trkpt lat="44.44417" lon="5.12004">
        <ele>784.09</ele>
        <time>2017-04-30T12:13:06Z</time>
      </trkpt>
      <trkpt lat="44.44429" lon="5.12009">
        <ele>780.25</ele>
        <time>2017-04-30T12:13:18Z</time>
      </trkpt>
      <trkpt lat="44.44445" lon="5.12009">
        <ele>777.36</ele>
        <time>2017-04-30T12:13:31Z</time>
      </trkpt>
      <trkpt lat="44.44455" lon="5.11997">
        <ele>774</ele>
        <time>2017-04-30T12:13:42Z</time>
      </trkpt>
      <trkpt lat="44.44462" lon="5.11996">
        <ele>771.6</ele>
        <time>2017-04-30T12:13:50Z</time>
      </trkpt>
      <trkpt lat="44.44468" lon="5.12004">
        <ele>769.19</ele>
        <time>2017-04-30T12:13:59Z</time>
      </trkpt>
      <trkpt lat="44.44472" lon="5.12017">
        <ele>766.31</ele>
        <time>2017-04-30T12:14:11Z</time>
      </trkpt>
      <trkpt lat="44.44477" lon="5.12031">
        <ele>763.42</ele>
        <time>2017-04-30T12:14:21Z</time>
      </trkpt>
      <trkpt lat="44.44481" lon="5.12047">
        <ele>760.06</ele>
        <time>2017-04-30T12:14:32Z</time>
      </trkpt>
      <trkpt lat="44.44485" lon="5.12053">
        <ele>758.14</ele>
        <time>2017-04-30T12:14:38Z</time>
      </trkpt>
      <trkpt lat="44.4449" lon="5.12068">
        <ele>754.77</ele>
        <time>2017-04-30T12:14:48Z</time>
      </trkpt>
      <trkpt lat="44.44495" lon="5.12092">
        <ele>751.89</ele>
        <time>2017-04-30T12:15:03Z</time>
      </trkpt>
      <trkpt lat="44.44504" lon="5.12118">
        <ele>749</ele>
        <time>2017-04-30T12:15:19Z</time>
      </trkpt>
      <trkpt lat="44.44504" lon="5.12119">
        <ele>749</ele>
        <time>2017-04-30T12:15:20Z</time>
      </trkpt>
      <trkpt lat="44.44509" lon="5.12127">
        <ele>747.08</ele>
        <time>2017-04-30T12:15:27Z</time>
      </trkpt>
      <trkpt lat="44.44516" lon="5.12144">
        <ele>743.72</ele>
        <time>2017-04-30T12:15:41Z</time>
      </trkpt>
      <trkpt lat="44.44516" lon="5.12145">
        <ele>743.72</ele>
        <time>2017-04-30T12:15:42Z</time>
      </trkpt>
      <trkpt lat="44.44524" lon="5.12171">
        <ele>740.35</ele>
        <time>2017-04-30T12:15:57Z</time>
      </trkpt>
      <trkpt lat="44.44529" lon="5.1219">
        <ele>736.99</ele>
        <time>2017-04-30T12:16:10Z</time>
      </trkpt>
      <trkpt lat="44.44535" lon="5.12206">
        <ele>734.1</ele>
        <time>2017-04-30T12:16:21Z</time>
      </trkpt>
      <trkpt lat="44.44539" lon="5.12219">
        <ele>732.18</ele>
        <time>2017-04-30T12:16:29Z</time>
      </trkpt>
      <trkpt lat="44.44546" lon="5.12236">
        <ele>729.78</ele>
        <time>2017-04-30T12:16:41Z</time>
      </trkpt>
      <trkpt lat="44.44553" lon="5.12242">
        <ele>727.37</ele>
        <time>2017-04-30T12:16:47Z</time>
      </trkpt>
      <trkpt lat="44.44558" lon="5.12249">
        <ele>726.41</ele>
        <time>2017-04-30T12:16:53Z</time>
      </trkpt>
      <trkpt lat="44.44565" lon="5.12277">
        <ele>723.53</ele>
        <time>2017-04-30T12:17:10Z</time>
      </trkpt>
      <trkpt lat="44.44573" lon="5.12283">
        <ele>722.57</ele>
        <time>2017-04-30T12:17:18Z</time>
      </trkpt>
      <trkpt lat="44.44584" lon="5.12307">
        <ele>719.2</ele>
        <time>2017-04-30T12:17:35Z</time>
      </trkpt>
      <trkpt lat="44.44592" lon="5.1233">
        <ele>715.84</ele>
        <time>2017-04-30T12:17:49Z</time>
      </trkpt>
      <trkpt lat="44.446" lon="5.1235">
        <ele>712.47</ele>
        <time>2017-04-30T12:18:03Z</time>
      </trkpt>
      <trkpt lat="44.44602" lon="5.12353">
        <ele>711.99</ele>
        <time>2017-04-30T12:18:05Z</time>
      </trkpt>
      <trkpt lat="44.44614" lon="5.12362">
        <ele>708.15</ele>
        <time>2017-04-30T12:18:19Z</time>
      </trkpt>
      <trkpt lat="44.44624" lon="5.1237">
        <ele>705.26</ele>
        <time>2017-04-30T12:18:30Z</time>
      </trkpt>
      <trkpt lat="44.44629" lon="5.12368">
        <ele>702.86</ele>
        <time>2017-04-30T12:18:38Z</time>
      </trkpt>
      <trkpt lat="44.44632" lon="5.12361">
        <ele>701.42</ele>
        <time>2017-04-30T12:18:44Z</time>
      </trkpt>
      <trkpt lat="44.44637" lon="5.12348">
        <ele>699.02</ele>
        <time>2017-04-30T12:19:00Z</time>
      </trkpt>
      <trkpt lat="44.44641" lon="5.12348">
        <ele>699.02</ele>
        <time>2017-04-30T12:19:11Z</time>
      </trkpt>
      <trkpt lat="44.44653" lon="5.12346">
        <ele>695.65</ele>
        <time>2017-04-30T12:19:25Z</time>
      </trkpt>
      <trkpt lat="44.44664" lon="5.12341">
        <ele>691.81</ele>
        <time>2017-04-30T12:19:39Z</time>
      </trkpt>
      <trkpt lat="44.44684" lon="5.12333">
        <ele>688.44</ele>
        <time>2017-04-30T12:19:56Z</time>
      </trkpt>
      <trkpt lat="44.44701" lon="5.12335">
        <ele>685.56</ele>
        <time>2017-04-30T12:20:13Z</time>
      </trkpt>
      <trkpt lat="44.44705" lon="5.12338">
        <ele>686.04</ele>
        <time>2017-04-30T12:28:17Z</time>
      </trkpt>
      <trkpt lat="44.44709" lon="5.12349">
        <ele>684.6</ele>
        <time>2017-04-30T12:28:29Z</time>
      </trkpt>
      <trkpt lat="44.44711" lon="5.12354">
        <ele>684.6</ele>
        <time>2017-04-30T12:28:33Z</time>
      </trkpt>
      <trkpt lat="44.44715" lon="5.12382">
        <ele>683.15</ele>
        <time>2017-04-30T12:28:50Z</time>
      </trkpt>
      <trkpt lat="44.44715" lon="5.12411">
        <ele>682.19</ele>
        <time>2017-04-30T12:29:07Z</time>
      </trkpt>
      <trkpt lat="44.44714" lon="5.12414">
        <ele>682.19</ele>
        <time>2017-04-30T12:29:09Z</time>
      </trkpt>
      <trkpt lat="44.44707" lon="5.12447">
        <ele>680.75</ele>
        <time>2017-04-30T12:29:27Z</time>
      </trkpt>
      <trkpt lat="44.44707" lon="5.12477">
        <ele>678.83</ele>
        <time>2017-04-30T12:29:43Z</time>
      </trkpt>
      <trkpt lat="44.44707" lon="5.1248">
        <ele>678.83</ele>
        <time>2017-04-30T12:29:45Z</time>
      </trkpt>
      <trkpt lat="44.44708" lon="5.12486">
        <ele>678.35</ele>
        <time>2017-04-30T12:29:48Z</time>
      </trkpt>
      <trkpt lat="44.44713" lon="5.12507">
        <ele>677.39</ele>
        <time>2017-04-30T12:30:02Z</time>
      </trkpt>
      <trkpt lat="44.44722" lon="5.12523">
        <ele>675.46</ele>
        <time>2017-04-30T12:30:17Z</time>
      </trkpt>
      <trkpt lat="44.44727" lon="5.1254">
        <ele>672.58</ele>
        <time>2017-04-30T12:30:32Z</time>
      </trkpt>
      <trkpt lat="44.44736" lon="5.1256">
        <ele>671.62</ele>
        <time>2017-04-30T12:30:48Z</time>
      </trkpt>
      <trkpt lat="44.44739" lon="5.12565">
        <ele>671.62</ele>
        <time>2017-04-30T12:30:52Z</time>
      </trkpt>
      <trkpt lat="44.44762" lon="5.12588">
        <ele>670.18</ele>
        <time>2017-04-30T12:31:10Z</time>
      </trkpt>
      <trkpt lat="44.44782" lon="5.12615">
        <ele>669.22</ele>
        <time>2017-04-30T12:31:26Z</time>
      </trkpt>
      <trkpt lat="44.448" lon="5.12635">
        <ele>668.25</ele>
        <time>2017-04-30T12:31:42Z</time>
      </trkpt>
      <trkpt lat="44.44806" lon="5.12649">
        <ele>667.77</ele>
        <time>2017-04-30T12:31:52Z</time>
      </trkpt>
      <trkpt lat="44.44809" lon="5.1266">
        <ele>667.77</ele>
        <time>2017-04-30T12:31:57Z</time>
      </trkpt>
      <trkpt lat="44.44819" lon="5.12697">
        <ele>665.37</ele>
        <time>2017-04-30T12:32:14Z</time>
      </trkpt>
      <trkpt lat="44.44828" lon="5.12732">
        <ele>663.45</ele>
        <time>2017-04-30T12:32:32Z</time>
      </trkpt>
      <trkpt lat="44.44837" lon="5.12753">
        <ele>662.01</ele>
        <time>2017-04-30T12:32:46Z</time>
      </trkpt>
      <trkpt lat="44.44845" lon="5.12782">
        <ele>661.04</ele>
        <time>2017-04-30T12:33:03Z</time>
      </trkpt>
      <trkpt lat="44.44845" lon="5.12795">
        <ele>660.56</ele>
        <time>2017-04-30T12:33:17Z</time>
      </trkpt>
      <trkpt lat="44.44847" lon="5.12814">
        <ele>659.6</ele>
        <time>2017-04-30T12:33:31Z</time>
      </trkpt>
      <trkpt lat="44.44851" lon="5.12829">
        <ele>659.12</ele>
        <time>2017-04-30T12:33:45Z</time>
      </trkpt>
      <trkpt lat="44.44853" lon="5.12833">
        <ele>658.64</ele>
        <time>2017-04-30T12:33:48Z</time>
      </trkpt>
      <trkpt lat="44.44861" lon="5.12856">
        <ele>660.08</ele>
        <time>2017-04-30T12:34:03Z</time>
      </trkpt>
      <trkpt lat="44.44869" lon="5.12873">
        <ele>659.6</ele>
        <time>2017-04-30T12:34:16Z</time>
      </trkpt>
      <trkpt lat="44.44876" lon="5.12881">
        <ele>658.16</ele>
        <time>2017-04-30T12:34:24Z</time>
      </trkpt>
      <trkpt lat="44.44886" lon="5.12901">
        <ele>656.72</ele>
        <time>2017-04-30T12:34:38Z</time>
      </trkpt>
      <trkpt lat="44.44898" lon="5.12937">
        <ele>654.8</ele>
        <time>2017-04-30T12:34:53Z</time>
      </trkpt>
      <trkpt lat="44.44904" lon="5.12958">
        <ele>652.39</ele>
        <time>2017-04-30T12:35:08Z</time>
      </trkpt>
      <trkpt lat="44.4491" lon="5.12984">
        <ele>650.95</ele>
        <time>2017-04-30T12:35:24Z</time>
      </trkpt>
      <trkpt lat="44.44918" lon="5.13008">
        <ele>650.95</ele>
        <time>2017-04-30T12:35:36Z</time>
      </trkpt>
      <trkpt lat="44.44926" lon="5.13024">
        <ele>650.47</ele>
        <time>2017-04-30T12:35:50Z</time>
      </trkpt>
      <trkpt lat="44.44934" lon="5.13044">
        <ele>651.91</ele>
        <time>2017-04-30T12:36:04Z</time>
      </trkpt>
      <trkpt lat="44.44943" lon="5.13063">
        <ele>652.87</ele>
        <time>2017-04-30T12:36:19Z</time>
      </trkpt>
      <trkpt lat="44.44962" lon="5.1309">
        <ele>653.35</ele>
        <time>2017-04-30T12:36:36Z</time>
      </trkpt>
      <trkpt lat="44.44968" lon="5.13097">
        <ele>653.35</ele>
        <time>2017-04-30T12:36:41Z</time>
      </trkpt>
      <trkpt lat="44.44982" lon="5.13117">
        <ele>652.87</ele>
        <time>2017-04-30T12:36:51Z</time>
      </trkpt>
      <trkpt lat="44.44986" lon="5.13138">
        <ele>651.43</ele>
        <time>2017-04-30T12:36:58Z</time>
      </trkpt>
      <trkpt lat="44.44983" lon="5.13155">
        <ele>649.03</ele>
        <time>2017-04-30T12:37:11Z</time>
      </trkpt>
      <trkpt lat="44.44987" lon="5.13172">
        <ele>648.55</ele>
        <time>2017-04-30T12:37:24Z</time>
      </trkpt>
      <trkpt lat="44.44992" lon="5.1319">
        <ele>649.99</ele>
        <time>2017-04-30T12:37:39Z</time>
      </trkpt>
      <trkpt lat="44.44996" lon="5.13194">
        <ele>649.99</ele>
        <time>2017-04-30T12:37:55Z</time>
      </trkpt>
      <trkpt lat="44.45002" lon="5.13193">
        <ele>648.55</ele>
        <time>2017-04-30T12:38:09Z</time>
      </trkpt>
      <trkpt lat="44.45008" lon="5.13186">
        <ele>647.1</ele>
        <time>2017-04-30T12:38:25Z</time>
      </trkpt>
      <trkpt lat="44.45012" lon="5.13182">
        <ele>648.55</ele>
        <time>2017-04-30T12:39:01Z</time>
      </trkpt>
      <trkpt lat="44.45028" lon="5.13178">
        <ele>646.14</ele>
        <time>2017-04-30T12:39:17Z</time>
      </trkpt>
      <trkpt lat="44.45048" lon="5.1317">
        <ele>645.18</ele>
        <time>2017-04-30T12:39:33Z</time>
      </trkpt>
      <trkpt lat="44.45067" lon="5.13177">
        <ele>643.26</ele>
        <time>2017-04-30T12:39:50Z</time>
      </trkpt>
      <trkpt lat="44.45068" lon="5.1318">
        <ele>644.7</ele>
        <time>2017-04-30T12:39:53Z</time>
      </trkpt>
      <trkpt lat="44.45071" lon="5.13185">
        <ele>643.26</ele>
        <time>2017-04-30T12:39:57Z</time>
      </trkpt>
      <trkpt lat="44.45074" lon="5.13203">
        <ele>642.78</ele>
        <time>2017-04-30T12:40:14Z</time>
      </trkpt>
      <trkpt lat="44.45077" lon="5.13218">
        <ele>641.82</ele>
        <time>2017-04-30T12:40:27Z</time>
      </trkpt>
      <trkpt lat="44.45085" lon="5.13238">
        <ele>641.82</ele>
        <time>2017-04-30T12:40:43Z</time>
      </trkpt>
      <trkpt lat="44.45097" lon="5.13259">
        <ele>641.34</ele>
        <time>2017-04-30T12:40:58Z</time>
      </trkpt>
      <trkpt lat="44.45107" lon="5.13282">
        <ele>641.34</ele>
        <time>2017-04-30T12:41:13Z</time>
      </trkpt>
      <trkpt lat="44.45108" lon="5.13292">
        <ele>640.86</ele>
        <time>2017-04-30T12:41:19Z</time>
      </trkpt>
      <trkpt lat="44.45109" lon="5.13297">
        <ele>640.86</ele>
        <time>2017-04-30T12:41:22Z</time>
      </trkpt>
      <trkpt lat="44.45109" lon="5.13305">
        <ele>640.38</ele>
        <time>2017-04-30T12:41:27Z</time>
      </trkpt>
      <trkpt lat="44.45107" lon="5.13314">
        <ele>640.38</ele>
        <time>2017-04-30T12:41:32Z</time>
      </trkpt>
      <trkpt lat="44.45102" lon="5.13328">
        <ele>642.78</ele>
        <time>2017-04-30T12:41:44Z</time>
      </trkpt>
      <trkpt lat="44.45098" lon="5.13347">
        <ele>644.22</ele>
        <time>2017-04-30T12:41:58Z</time>
      </trkpt>
      <trkpt lat="44.45099" lon="5.13379">
        <ele>644.7</ele>
        <time>2017-04-30T12:42:14Z</time>
      </trkpt>
      <trkpt lat="44.45101" lon="5.13406">
        <ele>644.7</ele>
        <time>2017-04-30T12:42:29Z</time>
      </trkpt>
      <trkpt lat="44.45107" lon="5.13439">
        <ele>642.78</ele>
        <time>2017-04-30T12:42:47Z</time>
      </trkpt>
      <trkpt lat="44.45108" lon="5.13464">
        <ele>642.78</ele>
        <time>2017-04-30T12:43:00Z</time>
      </trkpt>
      <trkpt lat="44.45109" lon="5.13487">
        <ele>641.34</ele>
        <time>2017-04-30T12:43:13Z</time>
      </trkpt>
      <trkpt lat="44.4511" lon="5.13505">
        <ele>639.89</ele>
        <time>2017-04-30T12:43:23Z</time>
      </trkpt>
      <trkpt lat="44.4511" lon="5.13515">
        <ele>639.41</ele>
        <time>2017-04-30T12:43:27Z</time>
      </trkpt>
      <trkpt lat="44.45109" lon="5.13548">
        <ele>641.82</ele>
        <time>2017-04-30T12:43:43Z</time>
      </trkpt>
      <trkpt lat="44.45104" lon="5.13573">
        <ele>640.86</ele>
        <time>2017-04-30T12:43:57Z</time>
      </trkpt>
      <trkpt lat="44.45105" lon="5.13586">
        <ele>637.49</ele>
        <time>2017-04-30T12:44:05Z</time>
      </trkpt>
      <trkpt lat="44.45106" lon="5.13587">
        <ele>636.53</ele>
        <time>2017-04-30T12:44:07Z</time>
      </trkpt>
      <trkpt lat="44.45111" lon="5.13591">
        <ele>636.05</ele>
        <time>2017-04-30T12:44:11Z</time>
      </trkpt>
      <trkpt lat="44.4512" lon="5.13596">
        <ele>639.41</ele>
        <time>2017-04-30T12:44:20Z</time>
      </trkpt>
      <trkpt lat="44.45121" lon="5.13598">
        <ele>638.45</ele>
        <time>2017-04-30T12:44:22Z</time>
      </trkpt>
      <trkpt lat="44.45123" lon="5.13609">
        <ele>639.41</ele>
        <time>2017-04-30T12:47:04Z</time>
      </trkpt>
      <trkpt lat="44.45128" lon="5.13622">
        <ele>639.89</ele>
        <time>2017-04-30T12:47:20Z</time>
      </trkpt>
      <trkpt lat="44.45129" lon="5.13628">
        <ele>638.93</ele>
        <time>2017-04-30T12:47:25Z</time>
      </trkpt>
      <trkpt lat="44.45133" lon="5.13648">
        <ele>637.97</ele>
        <time>2017-04-30T12:47:40Z</time>
      </trkpt>
      <trkpt lat="44.45138" lon="5.13675">
        <ele>636.53</ele>
        <time>2017-04-30T12:47:55Z</time>
      </trkpt>
      <trkpt lat="44.4514" lon="5.137">
        <ele>636.05</ele>
        <time>2017-04-30T12:48:10Z</time>
      </trkpt>
      <trkpt lat="44.45143" lon="5.13723">
        <ele>634.61</ele>
        <time>2017-04-30T12:48:26Z</time>
      </trkpt>
      <trkpt lat="44.45143" lon="5.13727">
        <ele>636.05</ele>
        <time>2017-04-30T12:48:29Z</time>
      </trkpt>
      <trkpt lat="44.45146" lon="5.13742">
        <ele>636.05</ele>
        <time>2017-04-30T12:48:41Z</time>
      </trkpt>
      <trkpt lat="44.45149" lon="5.13749">
        <ele>636.05</ele>
        <time>2017-04-30T12:48:47Z</time>
      </trkpt>
      <trkpt lat="44.45152" lon="5.13757">
        <ele>637.01</ele>
        <time>2017-04-30T12:48:51Z</time>
      </trkpt>
      <trkpt lat="44.4516" lon="5.13772">
        <ele>638.93</ele>
        <time>2017-04-30T12:49:03Z</time>
      </trkpt>
      <trkpt lat="44.45177" lon="5.1379">
        <ele>640.86</ele>
        <time>2017-04-30T12:49:18Z</time>
      </trkpt>
      <trkpt lat="44.45191" lon="5.13808">
        <ele>642.3</ele>
        <time>2017-04-30T12:49:33Z</time>
      </trkpt>
      <trkpt lat="44.45199" lon="5.13823">
        <ele>643.26</ele>
        <time>2017-04-30T12:49:45Z</time>
      </trkpt>
      <trkpt lat="44.45205" lon="5.13828">
        <ele>643.26</ele>
        <time>2017-04-30T12:49:53Z</time>
      </trkpt>
      <trkpt lat="44.45213" lon="5.13834">
        <ele>641.82</ele>
        <time>2017-04-30T12:50:01Z</time>
      </trkpt>
      <trkpt lat="44.45216" lon="5.13836">
        <ele>641.82</ele>
        <time>2017-04-30T12:50:04Z</time>
      </trkpt>
      <trkpt lat="44.45226" lon="5.13846">
        <ele>640.38</ele>
        <time>2017-04-30T12:50:16Z</time>
      </trkpt>
      <trkpt lat="44.45228" lon="5.13852">
        <ele>643.74</ele>
        <time>2017-04-30T12:50:23Z</time>
      </trkpt>
      <trkpt lat="44.45232" lon="5.13861">
        <ele>642.3</ele>
        <time>2017-04-30T12:50:33Z</time>
      </trkpt>
      <trkpt lat="44.4524" lon="5.13877">
        <ele>641.34</ele>
        <time>2017-04-30T12:50:45Z</time>
      </trkpt>
      <trkpt lat="44.45252" lon="5.13895">
        <ele>640.86</ele>
        <time>2017-04-30T12:50:59Z</time>
      </trkpt>
      <trkpt lat="44.45267" lon="5.13915">
        <ele>639.41</ele>
        <time>2017-04-30T12:51:15Z</time>
      </trkpt>
      <trkpt lat="44.45278" lon="5.13927">
        <ele>639.41</ele>
        <time>2017-04-30T12:51:27Z</time>
      </trkpt>
      <trkpt lat="44.45286" lon="5.13938">
        <ele>640.38</ele>
        <time>2017-04-30T12:51:37Z</time>
      </trkpt>
      <trkpt lat="44.45286" lon="5.13963">
        <ele>637.97</ele>
        <time>2017-04-30T12:51:53Z</time>
      </trkpt>
      <trkpt lat="44.45285" lon="5.13986">
        <ele>636.05</ele>
        <time>2017-04-30T12:52:04Z</time>
      </trkpt>
      <trkpt lat="44.45281" lon="5.14009">
        <ele>635.09</ele>
        <time>2017-04-30T12:52:19Z</time>
      </trkpt>
      <trkpt lat="44.45283" lon="5.14033">
        <ele>632.2</ele>
        <time>2017-04-30T12:52:34Z</time>
      </trkpt>
      <trkpt lat="44.45281" lon="5.14054">
        <ele>629.32</ele>
        <time>2017-04-30T12:52:47Z</time>
      </trkpt>
      <trkpt lat="44.45281" lon="5.14062">
        <ele>626.92</ele>
        <time>2017-04-30T12:52:52Z</time>
      </trkpt>
      <trkpt lat="44.45282" lon="5.14064">
        <ele>625.96</ele>
        <time>2017-04-30T12:52:53Z</time>
      </trkpt>
      <trkpt lat="44.4529" lon="5.14091">
        <ele>623.55</ele>
        <time>2017-04-30T12:53:07Z</time>
      </trkpt>
      <trkpt lat="44.4529" lon="5.14112">
        <ele>622.11</ele>
        <time>2017-04-30T12:53:17Z</time>
      </trkpt>
      <trkpt lat="44.45286" lon="5.14129">
        <ele>620.67</ele>
        <time>2017-04-30T12:53:27Z</time>
      </trkpt>
      <trkpt lat="44.45282" lon="5.14144">
        <ele>620.19</ele>
        <time>2017-04-30T12:53:37Z</time>
      </trkpt>
      <trkpt lat="44.45286" lon="5.14155">
        <ele>621.63</ele>
        <time>2017-04-30T12:53:44Z</time>
      </trkpt>
      <trkpt lat="44.45297" lon="5.14177">
        <ele>623.07</ele>
        <time>2017-04-30T12:54:00Z</time>
      </trkpt>
      <trkpt lat="44.45297" lon="5.1419">
        <ele>623.55</ele>
        <time>2017-04-30T12:54:12Z</time>
      </trkpt>
      <trkpt lat="44.453" lon="5.14214">
        <ele>623.55</ele>
        <time>2017-04-30T12:54:27Z</time>
      </trkpt>
      <trkpt lat="44.45302" lon="5.14231">
        <ele>622.59</ele>
        <time>2017-04-30T12:54:38Z</time>
      </trkpt>
      <trkpt lat="44.4531" lon="5.14258">
        <ele>619.71</ele>
        <time>2017-04-30T12:54:55Z</time>
      </trkpt>
      <trkpt lat="44.45311" lon="5.1426">
        <ele>619.71</ele>
        <time>2017-04-30T12:54:56Z</time>
      </trkpt>
      <trkpt lat="44.45315" lon="5.14282">
        <ele>618.26</ele>
        <time>2017-04-30T12:55:08Z</time>
      </trkpt>
      <trkpt lat="44.45319" lon="5.14301">
        <ele>617.3</ele>
        <time>2017-04-30T12:55:22Z</time>
      </trkpt>
      <trkpt lat="44.45323" lon="5.14311">
        <ele>614.42</ele>
        <time>2017-04-30T12:55:30Z</time>
      </trkpt>
      <trkpt lat="44.45325" lon="5.1432">
        <ele>611.06</ele>
        <time>2017-04-30T12:55:38Z</time>
      </trkpt>
      <trkpt lat="44.45328" lon="5.14332">
        <ele>608.17</ele>
        <time>2017-04-30T12:55:48Z</time>
      </trkpt>
      <trkpt lat="44.45327" lon="5.14338">
        <ele>606.25</ele>
        <time>2017-04-30T12:55:52Z</time>
      </trkpt>
      <trkpt lat="44.45325" lon="5.14343">
        <ele>606.25</ele>
        <time>2017-04-30T12:55:55Z</time>
      </trkpt>
      <trkpt lat="44.45321" lon="5.1435">
        <ele>606.25</ele>
        <time>2017-04-30T12:56:00Z</time>
      </trkpt>
      <trkpt lat="44.45317" lon="5.14357">
        <ele>607.69</ele>
        <time>2017-04-30T12:56:06Z</time>
      </trkpt>
      <trkpt lat="44.45316" lon="5.14362">
        <ele>608.17</ele>
        <time>2017-04-30T12:56:10Z</time>
      </trkpt>
      <trkpt lat="44.45314" lon="5.14381">
        <ele>609.61</ele>
        <time>2017-04-30T12:56:24Z</time>
      </trkpt>
      <trkpt lat="44.45312" lon="5.14404">
        <ele>611.54</ele>
        <time>2017-04-30T12:56:39Z</time>
      </trkpt>
      <trkpt lat="44.45312" lon="5.14407">
        <ele>611.54</ele>
        <time>2017-04-30T12:56:41Z</time>
      </trkpt>
      <trkpt lat="44.45313" lon="5.14415">
        <ele>611.54</ele>
        <time>2017-04-30T12:56:46Z</time>
      </trkpt>
      <trkpt lat="44.45309" lon="5.14429">
        <ele>612.98</ele>
        <time>2017-04-30T12:56:55Z</time>
      </trkpt>
      <trkpt lat="44.45297" lon="5.14442">
        <ele>613.46</ele>
        <time>2017-04-30T12:57:09Z</time>
      </trkpt>
      <trkpt lat="44.45288" lon="5.14454">
        <ele>615.86</ele>
        <time>2017-04-30T12:57:22Z</time>
      </trkpt>
      <trkpt lat="44.45273" lon="5.14457">
        <ele>614.9</ele>
        <time>2017-04-30T12:57:38Z</time>
      </trkpt>
      <trkpt lat="44.45261" lon="5.14465">
        <ele>614.9</ele>
        <time>2017-04-30T12:57:50Z</time>
      </trkpt>
      <trkpt lat="44.45248" lon="5.14487">
        <ele>615.86</ele>
        <time>2017-04-30T12:58:05Z</time>
      </trkpt>
      <trkpt lat="44.45239" lon="5.14503">
        <ele>615.86</ele>
        <time>2017-04-30T12:58:18Z</time>
      </trkpt>
      <trkpt lat="44.45225" lon="5.14514">
        <ele>617.78</ele>
        <time>2017-04-30T12:58:34Z</time>
      </trkpt>
      <trkpt lat="44.45225" lon="5.14515">
        <ele>617.78</ele>
        <time>2017-04-30T12:58:35Z</time>
      </trkpt>
      <trkpt lat="44.45212" lon="5.14531">
        <ele>616.34</ele>
        <time>2017-04-30T12:58:49Z</time>
      </trkpt>
      <trkpt lat="44.45206" lon="5.14539">
        <ele>617.78</ele>
        <time>2017-04-30T12:58:57Z</time>
      </trkpt>
      <trkpt lat="44.45197" lon="5.14556">
        <ele>620.19</ele>
        <time>2017-04-30T12:59:11Z</time>
      </trkpt>
      <trkpt lat="44.45187" lon="5.14562">
        <ele>622.59</ele>
        <time>2017-04-30T12:59:21Z</time>
      </trkpt>
      <trkpt lat="44.45177" lon="5.14569">
        <ele>624.99</ele>
        <time>2017-04-30T12:59:32Z</time>
      </trkpt>
      <trkpt lat="44.45167" lon="5.14582">
        <ele>626.44</ele>
        <time>2017-04-30T12:59:45Z</time>
      </trkpt>
      <trkpt lat="44.45167" lon="5.14585">
        <ele>626.44</ele>
        <time>2017-04-30T12:59:47Z</time>
      </trkpt>
      <trkpt lat="44.45166" lon="5.14607">
        <ele>627.88</ele>
        <time>2017-04-30T13:00:01Z</time>
      </trkpt>
      <trkpt lat="44.45168" lon="5.14627">
        <ele>630.28</ele>
        <time>2017-04-30T13:00:17Z</time>
      </trkpt>
      <trkpt lat="44.45171" lon="5.14648">
        <ele>633.17</ele>
        <time>2017-04-30T13:00:31Z</time>
      </trkpt>
      <trkpt lat="44.45171" lon="5.14668">
        <ele>635.57</ele>
        <time>2017-04-30T13:00:45Z</time>
      </trkpt>
      <trkpt lat="44.45175" lon="5.14684">
        <ele>636.53</ele>
        <time>2017-04-30T13:00:58Z</time>
      </trkpt>
      <trkpt lat="44.4518" lon="5.147">
        <ele>638.93</ele>
        <time>2017-04-30T13:01:12Z</time>
      </trkpt>
      <trkpt lat="44.45185" lon="5.14722">
        <ele>641.34</ele>
        <time>2017-04-30T13:01:27Z</time>
      </trkpt>
      <trkpt lat="44.45192" lon="5.14744">
        <ele>642.78</ele>
        <time>2017-04-30T13:01:42Z</time>
      </trkpt>
      <trkpt lat="44.45192" lon="5.14762">
        <ele>645.18</ele>
        <time>2017-04-30T13:01:54Z</time>
      </trkpt>
      <trkpt lat="44.45196" lon="5.14782">
        <ele>647.59</ele>
        <time>2017-04-30T13:02:09Z</time>
      </trkpt>
      <trkpt lat="44.45197" lon="5.14789">
        <ele>648.07</ele>
        <time>2017-04-30T13:02:14Z</time>
      </trkpt>
      <trkpt lat="44.45197" lon="5.14792">
        <ele>648.07</ele>
        <time>2017-04-30T13:02:16Z</time>
      </trkpt>
      <trkpt lat="44.45196" lon="5.1481">
        <ele>649.03</ele>
        <time>2017-04-30T13:02:28Z</time>
      </trkpt>
      <trkpt lat="44.45196" lon="5.14813">
        <ele>649.03</ele>
        <time>2017-04-30T13:02:30Z</time>
      </trkpt>
      <trkpt lat="44.45197" lon="5.14828">
        <ele>649.51</ele>
        <time>2017-04-30T13:02:39Z</time>
      </trkpt>
      <trkpt lat="44.45195" lon="5.14856">
        <ele>650.47</ele>
        <time>2017-04-30T13:02:55Z</time>
      </trkpt>
      <trkpt lat="44.45194" lon="5.14872">
        <ele>649.03</ele>
        <time>2017-04-30T13:03:05Z</time>
      </trkpt>
      <trkpt lat="44.45191" lon="5.14899">
        <ele>649.51</ele>
        <time>2017-04-30T13:03:21Z</time>
      </trkpt>
      <trkpt lat="44.45188" lon="5.14917">
        <ele>649.51</ele>
        <time>2017-04-30T13:03:31Z</time>
      </trkpt>
      <trkpt lat="44.45187" lon="5.14923">
        <ele>649.51</ele>
        <time>2017-04-30T13:03:35Z</time>
      </trkpt>
      <trkpt lat="44.45184" lon="5.14947">
        <ele>650.47</ele>
        <time>2017-04-30T13:03:48Z</time>
      </trkpt>
      <trkpt lat="44.45184" lon="5.1496">
        <ele>649.03</ele>
        <time>2017-04-30T13:03:56Z</time>
      </trkpt>
      <trkpt lat="44.45187" lon="5.14984">
        <ele>646.62</ele>
        <time>2017-04-30T13:04:09Z</time>
      </trkpt>
      <trkpt lat="44.45178" lon="5.15004">
        <ele>645.18</ele>
        <time>2017-04-30T13:04:23Z</time>
      </trkpt>
      <trkpt lat="44.45173" lon="5.15037">
        <ele>643.74</ele>
        <time>2017-04-30T13:04:42Z</time>
      </trkpt>
      <trkpt lat="44.4516" lon="5.1506">
        <ele>643.26</ele>
        <time>2017-04-30T13:04:59Z</time>
      </trkpt>
      <trkpt lat="44.45154" lon="5.15085">
        <ele>639.89</ele>
        <time>2017-04-30T13:05:14Z</time>
      </trkpt>
      <trkpt lat="44.45158" lon="5.15109">
        <ele>636.53</ele>
        <time>2017-04-30T13:05:28Z</time>
      </trkpt>
      <trkpt lat="44.45168" lon="5.15131">
        <ele>634.13</ele>
        <time>2017-04-30T13:05:43Z</time>
      </trkpt>
      <trkpt lat="44.45175" lon="5.15138">
        <ele>632.68</ele>
        <time>2017-04-30T13:05:50Z</time>
      </trkpt>
      <trkpt lat="44.45188" lon="5.15147">
        <ele>629.32</ele>
        <time>2017-04-30T13:06:05Z</time>
      </trkpt>
      <trkpt lat="44.45189" lon="5.15147">
        <ele>629.32</ele>
        <time>2017-04-30T13:06:06Z</time>
      </trkpt>
      <trkpt lat="44.452" lon="5.15148">
        <ele>627.4</ele>
        <time>2017-04-30T13:06:18Z</time>
      </trkpt>
      <trkpt lat="44.45206" lon="5.15153">
        <ele>625.96</ele>
        <time>2017-04-30T13:06:25Z</time>
      </trkpt>
      <trkpt lat="44.45212" lon="5.15158">
        <ele>624.03</ele>
        <time>2017-04-30T13:06:31Z</time>
      </trkpt>
      <trkpt lat="44.45224" lon="5.15176">
        <ele>621.15</ele>
        <time>2017-04-30T13:06:48Z</time>
      </trkpt>
      <trkpt lat="44.4523" lon="5.15203">
        <ele>618.26</ele>
        <time>2017-04-30T13:07:04Z</time>
      </trkpt>
      <trkpt lat="44.45231" lon="5.15205">
        <ele>617.78</ele>
        <time>2017-04-30T13:07:05Z</time>
      </trkpt>
      <trkpt lat="44.45236" lon="5.15227">
        <ele>614.9</ele>
        <time>2017-04-30T13:07:18Z</time>
      </trkpt>
      <trkpt lat="44.45241" lon="5.15249">
        <ele>611.06</ele>
        <time>2017-04-30T13:07:31Z</time>
      </trkpt>
      <trkpt lat="44.45246" lon="5.15264">
        <ele>610.09</ele>
        <time>2017-04-30T13:07:42Z</time>
      </trkpt>
      <trkpt lat="44.45243" lon="5.15275">
        <ele>610.09</ele>
        <time>2017-04-30T13:11:26Z</time>
      </trkpt>
    </trkseg>
  </trk>
</gpx>